<?xml version='1.0' encoding='UTF-8'?><gpx version="1.1" creator="JPX - https://github.com/jenetics/jpx" xmlns="http://www.topografix.com/GPX/1/1"><trk><trkseg><trkpt lat="44.5139843" lon="8.8168957"><ele>855.0</ele><time>2026-05-01T10:19:32.168Z</time></trkpt><trkpt lat="44.5139372" lon="8.8169646"><ele>855.0</ele><time>2026-05-01T10:19:38.141Z</time></trkpt><trkpt lat="44.5138706" lon="8.8170025"><ele>855.0</ele><time>2026-05-01T10:19:44.136Z</time></trkpt><trkpt lat="44.5137971" lon="8.817026"><ele>855.0</ele><time>2026-05-01T10:19:49.132Z</time></trkpt><trkpt lat="44.5137243" lon="8.817046"><ele>855.0</ele><time>2026-05-01T10:19:55.145Z</time></trkpt><trkpt lat="44.5136602" lon="8.8170678"><ele>855.0</ele><time>2026-05-01T10:20:01.139Z</time></trkpt><trkpt lat="44.5135968" lon="8.8170637"><ele>855.0</ele><time>2026-05-01T10:20:07.143Z</time></trkpt><trkpt lat="44.5135342" lon="8.817039"><ele>855.7142857142858</ele><time>2026-05-01T10:20:13.132Z</time></trkpt><trkpt lat="44.5134627" lon="8.8170243"><ele>856.4285714285713</ele><time>2026-05-01T10:20:19.036Z</time></trkpt><trkpt lat="44.5133989" lon="8.817019"><ele>857.1428571428571</ele><time>2026-05-01T10:20:23.743Z</time></trkpt><trkpt lat="44.5133333" lon="8.8170046"><ele>857.8571428571429</ele><time>2026-05-01T10:20:30.135Z</time></trkpt><trkpt lat="44.5132712" lon="8.8169873"><ele>858.5714285714287</ele><time>2026-05-01T10:20:36.14Z</time></trkpt><trkpt lat="44.5131999" lon="8.8169885"><ele>859.2857142857142</ele><time>2026-05-01T10:20:43.129Z</time></trkpt><trkpt lat="44.5131287" lon="8.8169855"><ele>860.0</ele><time>2026-05-01T10:20:50.131Z</time></trkpt><trkpt lat="44.5130615" lon="8.8169712"><ele>860.0</ele><time>2026-05-01T10:20:56.145Z</time></trkpt><trkpt lat="44.512995" lon="8.8169774"><ele>860.0</ele><time>2026-05-01T10:21:05.146Z</time></trkpt><trkpt lat="44.5129208" lon="8.8169622"><ele>860.0</ele><time>2026-05-01T10:21:11.14Z</time></trkpt><trkpt lat="44.5128804" lon="8.8168918"><ele>860.0</ele><time>2026-05-01T10:21:18.136Z</time></trkpt><trkpt lat="44.5128139" lon="8.8168527"><ele>860.0</ele><time>2026-05-01T10:21:24.136Z</time></trkpt><trkpt lat="44.5127431" lon="8.8168604"><ele>860.0</ele><time>2026-05-01T10:21:30.135Z</time></trkpt><trkpt lat="44.5126785" lon="8.8168868"><ele>860.0</ele><time>2026-05-01T10:21:36.147Z</time></trkpt><trkpt lat="44.5126137" lon="8.8168865"><ele>859.2857142857142</ele><time>2026-05-01T10:21:42.146Z</time></trkpt><trkpt lat="44.5125361" lon="8.8168683"><ele>858.5714285714287</ele><time>2026-05-01T10:21:48.155Z</time></trkpt><trkpt lat="44.5124625" lon="8.8168411"><ele>857.8571428571429</ele><time>2026-05-01T10:21:55.123Z</time></trkpt><trkpt lat="44.5123949" lon="8.8168145"><ele>857.1428571428571</ele><time>2026-05-01T10:22:01.158Z</time></trkpt><trkpt lat="44.5123258" lon="8.8167904"><ele>856.4285714285713</ele><time>2026-05-01T10:22:07.138Z</time></trkpt><trkpt lat="44.5122602" lon="8.8167827"><ele>855.7142857142858</ele><time>2026-05-01T10:22:13.132Z</time></trkpt><trkpt lat="44.5121889" lon="8.816795"><ele>855.0</ele><time>2026-05-01T10:22:20.129Z</time></trkpt><trkpt lat="44.5121208" lon="8.816804"><ele>857.0</ele><time>2026-05-01T10:22:26.133Z</time></trkpt><trkpt lat="44.5120536" lon="8.8168014"><ele>859.0</ele><time>2026-05-01T10:22:32.634Z</time></trkpt><trkpt lat="44.5119823" lon="8.8168098"><ele>861.0</ele><time>2026-05-01T10:22:40.132Z</time></trkpt><trkpt lat="44.5119112" lon="8.816795"><ele>863.0</ele><time>2026-05-01T10:22:47.15Z</time></trkpt><trkpt lat="44.5118454" lon="8.81679"><ele>865.0</ele><time>2026-05-01T10:22:54.135Z</time></trkpt><trkpt lat="44.5117836" lon="8.8167624"><ele>867.0</ele><time>2026-05-01T10:23:00.131Z</time></trkpt><trkpt lat="44.5117246" lon="8.8167091"><ele>869.0</ele><time>2026-05-01T10:23:07.131Z</time></trkpt><trkpt lat="44.5116655" lon="8.8166762"><ele>869.0</ele><time>2026-05-01T10:23:13.146Z</time></trkpt><trkpt lat="44.5116035" lon="8.8166341"><ele>869.0</ele><time>2026-05-01T10:23:21.135Z</time></trkpt><trkpt lat="44.5115391" lon="8.8166069"><ele>869.0</ele><time>2026-05-01T10:23:28.125Z</time></trkpt><trkpt lat="44.5114748" lon="8.8165619"><ele>869.0</ele><time>2026-05-01T10:23:33.131Z</time></trkpt><trkpt lat="44.5114201" lon="8.8165178"><ele>869.0</ele><time>2026-05-01T10:23:38.173Z</time></trkpt><trkpt lat="44.5113668" lon="8.8164567"><ele>869.0</ele><time>2026-05-01T10:23:44.145Z</time></trkpt><trkpt lat="44.5113093" lon="8.8164083"><ele>869.0</ele><time>2026-05-01T10:23:50.142Z</time></trkpt><trkpt lat="44.5112573" lon="8.8163574"><ele>868.1428571428572</ele><time>2026-05-01T10:23:56.137Z</time></trkpt><trkpt lat="44.5112076" lon="8.816302"><ele>867.2857142857142</ele><time>2026-05-01T10:24:03.169Z</time></trkpt><trkpt lat="44.5111512" lon="8.8162413"><ele>866.4285714285714</ele><time>2026-05-01T10:24:10.145Z</time></trkpt><trkpt lat="44.5110911" lon="8.816206"><ele>865.5714285714287</ele><time>2026-05-01T10:24:16.131Z</time></trkpt><trkpt lat="44.5110292" lon="8.8161746"><ele>864.7142857142858</ele><time>2026-05-01T10:24:22.137Z</time></trkpt><trkpt lat="44.5109707" lon="8.8161226"><ele>863.8571428571429</ele><time>2026-05-01T10:24:28.143Z</time></trkpt><trkpt lat="44.5109105" lon="8.8160691"><ele>863.0</ele><time>2026-05-01T10:24:34.135Z</time></trkpt><trkpt lat="44.5108523" lon="8.8160171"><ele>862.4285714285714</ele><time>2026-05-01T10:24:40.135Z</time></trkpt><trkpt lat="44.5108008" lon="8.8159465"><ele>861.8571428571429</ele><time>2026-05-01T10:24:47.142Z</time></trkpt><trkpt lat="44.510743" lon="8.8158919"><ele>861.2857142857142</ele><time>2026-05-01T10:24:54.075Z</time></trkpt><trkpt lat="44.5106874" lon="8.8158301"><ele>860.7142857142858</ele><time>2026-05-01T10:25:01.124Z</time></trkpt><trkpt lat="44.5106192" lon="8.8158108"><ele>860.1428571428571</ele><time>2026-05-01T10:25:08.146Z</time></trkpt><trkpt lat="44.5105556" lon="8.8158499"><ele>859.5714285714286</ele><time>2026-05-01T10:25:14.134Z</time></trkpt><trkpt lat="44.5104919" lon="8.8158702"><ele>859.0</ele><time>2026-05-01T10:25:19.146Z</time></trkpt><trkpt lat="44.5104177" lon="8.8158804"><ele>858.5714285714286</ele><time>2026-05-01T10:25:25.056Z</time></trkpt><trkpt lat="44.5103469" lon="8.8158952"><ele>858.1428571428571</ele><time>2026-05-01T10:25:32.082Z</time></trkpt><trkpt lat="44.510276" lon="8.8158806"><ele>857.7142857142858</ele><time>2026-05-01T10:25:39.042Z</time></trkpt><trkpt lat="44.5102123" lon="8.8158775"><ele>857.2857142857142</ele><time>2026-05-01T10:25:45.133Z</time></trkpt><trkpt lat="44.5101467" lon="8.8158732"><ele>856.8571428571429</ele><time>2026-05-01T10:25:51.131Z</time></trkpt><trkpt lat="44.5100699" lon="8.8158864"><ele>856.4285714285714</ele><time>2026-05-01T10:25:57.176Z</time></trkpt><trkpt lat="44.5100061" lon="8.8158789"><ele>856.0</ele><time>2026-05-01T10:26:02.131Z</time></trkpt><trkpt lat="44.5099417" lon="8.8158811"><ele>856.0000000000001</ele><time>2026-05-01T10:26:07.136Z</time></trkpt><trkpt lat="44.5098704" lon="8.8158717"><ele>856.0</ele><time>2026-05-01T10:26:13.134Z</time></trkpt><trkpt lat="44.5098007" lon="8.8158588"><ele>856.0</ele><time>2026-05-01T10:26:19.135Z</time></trkpt><trkpt lat="44.5097369" lon="8.8158562"><ele>856.0</ele><time>2026-05-01T10:26:25.165Z</time></trkpt><trkpt lat="44.5096701" lon="8.8158646"><ele>856.0</ele><time>2026-05-01T10:26:32.163Z</time></trkpt><trkpt lat="44.5095991" lon="8.8158498"><ele>856.0000000000001</ele><time>2026-05-01T10:26:40.151Z</time></trkpt><trkpt lat="44.5095332" lon="8.8158116"><ele>856.0</ele><time>2026-05-01T10:26:47.147Z</time></trkpt><trkpt lat="44.5094627" lon="8.8157977"><ele>855.7142857142858</ele><time>2026-05-01T10:26:54.144Z</time></trkpt><trkpt lat="44.5093898" lon="8.8157965"><ele>855.4285714285714</ele><time>2026-05-01T10:27:01.175Z</time></trkpt><trkpt lat="44.5093293" lon="8.8158242"><ele>855.1428571428571</ele><time>2026-05-01T10:27:07.136Z</time></trkpt><trkpt lat="44.5092696" lon="8.8158697"><ele>854.8571428571429</ele><time>2026-05-01T10:27:13.169Z</time></trkpt><trkpt lat="44.5092153" lon="8.8159231"><ele>854.5714285714286</ele><time>2026-05-01T10:27:19.145Z</time></trkpt><trkpt lat="44.5091575" lon="8.8159729"><ele>854.2857142857143</ele><time>2026-05-01T10:27:25.133Z</time></trkpt><trkpt lat="44.5091" lon="8.8160156"><ele>854.0</ele><time>2026-05-01T10:27:31.099Z</time></trkpt><trkpt lat="44.5090464" lon="8.8160631"><ele>852.8571428571429</ele><time>2026-05-01T10:27:38.133Z</time></trkpt><trkpt lat="44.5089789" lon="8.8161017"><ele>851.7142857142858</ele><time>2026-05-01T10:27:46.098Z</time></trkpt><trkpt lat="44.5089221" lon="8.8161537"><ele>850.5714285714286</ele><time>2026-05-01T10:27:53.157Z</time></trkpt><trkpt lat="44.5088613" lon="8.8161888"><ele>849.4285714285714</ele><time>2026-05-01T10:28:01.077Z</time></trkpt><trkpt lat="44.5087952" lon="8.8162273"><ele>848.2857142857143</ele><time>2026-05-01T10:28:09.127Z</time></trkpt><trkpt lat="44.5087229" lon="8.8162504"><ele>847.1428571428571</ele><time>2026-05-01T10:28:16.115Z</time></trkpt><trkpt lat="44.5086648" lon="8.8162921"><ele>846.0</ele><time>2026-05-01T10:29:26.134Z</time></trkpt><trkpt lat="44.5085984" lon="8.8162953"><ele>846.0</ele><time>2026-05-01T10:29:32.134Z</time></trkpt><trkpt lat="44.508531" lon="8.8163393"><ele>846.0</ele><time>2026-05-01T10:29:37.138Z</time></trkpt><trkpt lat="44.5084937" lon="8.8164118"><ele>846.0</ele><time>2026-05-01T10:29:41.146Z</time></trkpt><trkpt lat="44.5084527" lon="8.8164825"><ele>846.0</ele><time>2026-05-01T10:29:46.131Z</time></trkpt><trkpt lat="44.5084111" lon="8.8165681"><ele>846.0</ele><time>2026-05-01T10:29:52.146Z</time></trkpt><trkpt lat="44.5083638" lon="8.8166466"><ele>846.0</ele><time>2026-05-01T10:29:58.168Z</time></trkpt><trkpt lat="44.508305" lon="8.8166875"><ele>846.0</ele><time>2026-05-01T10:30:03.954Z</time></trkpt><trkpt lat="44.5082437" lon="8.8167239"><ele>846.0</ele><time>2026-05-01T10:30:10.134Z</time></trkpt><trkpt lat="44.5081836" lon="8.8167809"><ele>846.0</ele><time>2026-05-01T10:30:16.131Z</time></trkpt><trkpt lat="44.5081252" lon="8.8168342"><ele>846.0</ele><time>2026-05-01T10:30:21.137Z</time></trkpt><trkpt lat="44.5080613" lon="8.8168842"><ele>846.0</ele><time>2026-05-01T10:30:26.163Z</time></trkpt><trkpt lat="44.5080008" lon="8.8169381"><ele>846.0</ele><time>2026-05-01T10:30:32.116Z</time></trkpt><trkpt lat="44.507946" lon="8.816995"><ele>846.0</ele><time>2026-05-01T10:30:38.136Z</time></trkpt><trkpt lat="44.5078841" lon="8.8170313"><ele>846.0</ele><time>2026-05-01T10:30:44.133Z</time></trkpt><trkpt lat="44.5078196" lon="8.8170438"><ele>844.0</ele><time>2026-05-01T10:30:50.132Z</time></trkpt><trkpt lat="44.5077478" lon="8.8170497"><ele>842.0</ele><time>2026-05-01T10:30:56.134Z</time></trkpt><trkpt lat="44.5076796" lon="8.8170657"><ele>840.0</ele><time>2026-05-01T10:31:01.135Z</time></trkpt><trkpt lat="44.5076098" lon="8.8170936"><ele>838.0</ele><time>2026-05-01T10:31:07.136Z</time></trkpt><trkpt lat="44.5075512" lon="8.8171289"><ele>836.0</ele><time>2026-05-01T10:31:12.135Z</time></trkpt><trkpt lat="44.5074881" lon="8.8171626"><ele>834.0</ele><time>2026-05-01T10:31:18.137Z</time></trkpt><trkpt lat="44.5074288" lon="8.8171984"><ele>832.0</ele><time>2026-05-01T10:31:24.146Z</time></trkpt><trkpt lat="44.5073788" lon="8.8172574"><ele>832.0</ele><time>2026-05-01T10:31:30.133Z</time></trkpt><trkpt lat="44.5073188" lon="8.8173038"><ele>832.0</ele><time>2026-05-01T10:31:36.146Z</time></trkpt><trkpt lat="44.5072546" lon="8.8173203"><ele>832.0</ele><time>2026-05-01T10:31:41.134Z</time></trkpt><trkpt lat="44.507186" lon="8.817344"><ele>832.0</ele><time>2026-05-01T10:31:47.17Z</time></trkpt><trkpt lat="44.5071225" lon="8.8173707"><ele>832.0</ele><time>2026-05-01T10:31:53.147Z</time></trkpt><trkpt lat="44.5070511" lon="8.817382"><ele>832.0</ele><time>2026-05-01T10:32:00.137Z</time></trkpt><trkpt lat="44.5069844" lon="8.8173725"><ele>832.0</ele><time>2026-05-01T10:32:06.059Z</time></trkpt><trkpt lat="44.5069173" lon="8.817404"><ele>833.2857142857142</ele><time>2026-05-01T10:32:15.146Z</time></trkpt><trkpt lat="44.5068405" lon="8.8174096"><ele>834.5714285714287</ele><time>2026-05-01T10:32:24.139Z</time></trkpt><trkpt lat="44.5067711" lon="8.817382"><ele>835.8571428571429</ele><time>2026-05-01T10:32:31.131Z</time></trkpt><trkpt lat="44.5067094" lon="8.8173523"><ele>837.1428571428571</ele><time>2026-05-01T10:32:38.133Z</time></trkpt><trkpt lat="44.5066388" lon="8.8173501"><ele>838.4285714285713</ele><time>2026-05-01T10:32:44.133Z</time></trkpt><trkpt lat="44.5065752" lon="8.8173542"><ele>839.7142857142858</ele><time>2026-05-01T10:32:49.08Z</time></trkpt><trkpt lat="44.5065038" lon="8.8173749"><ele>841.0</ele><time>2026-05-01T10:32:56.135Z</time></trkpt><trkpt lat="44.5064386" lon="8.8174099"><ele>841.0</ele><time>2026-05-01T10:33:02.14Z</time></trkpt><trkpt lat="44.5063699" lon="8.8174556"><ele>841.0</ele><time>2026-05-01T10:33:09.144Z</time></trkpt><trkpt lat="44.5063031" lon="8.8174759"><ele>841.0</ele><time>2026-05-01T10:33:14.138Z</time></trkpt><trkpt lat="44.5062337" lon="8.8174812"><ele>841.0</ele><time>2026-05-01T10:33:20.137Z</time></trkpt><trkpt lat="44.5061694" lon="8.8174454"><ele>841.0</ele><time>2026-05-01T10:33:26.137Z</time></trkpt><trkpt lat="44.5061076" lon="8.8174118"><ele>841.0</ele><time>2026-05-01T10:33:32.147Z</time></trkpt><trkpt lat="44.506036" lon="8.8174058"><ele>841.0</ele><time>2026-05-01T10:33:38.095Z</time></trkpt><trkpt lat="44.5059742" lon="8.8174348"><ele>842.8571428571429</ele><time>2026-05-01T10:33:43.142Z</time></trkpt><trkpt lat="44.5059189" lon="8.8174917"><ele>844.7142857142857</ele><time>2026-05-01T10:33:48.081Z</time></trkpt><trkpt lat="44.505854" lon="8.8175131"><ele>846.5714285714286</ele><time>2026-05-01T10:33:54.037Z</time></trkpt><trkpt lat="44.5057907" lon="8.8175313"><ele>848.4285714285714</ele><time>2026-05-01T10:34:00.042Z</time></trkpt><trkpt lat="44.5057229" lon="8.8175403"><ele>850.2857142857142</ele><time>2026-05-01T10:34:06.077Z</time></trkpt><trkpt lat="44.5056505" lon="8.817567"><ele>852.1428571428571</ele><time>2026-05-01T10:34:15.134Z</time></trkpt><trkpt lat="44.5055819" lon="8.8176049"><ele>854.0</ele><time>2026-05-01T10:34:21.142Z</time></trkpt><trkpt lat="44.5055365" lon="8.8176771"><ele>853.8571428571429</ele><time>2026-05-01T10:34:28.139Z</time></trkpt><trkpt lat="44.5055019" lon="8.817767"><ele>853.7142857142858</ele><time>2026-05-01T10:34:35.147Z</time></trkpt><trkpt lat="44.5054599" lon="8.8178404"><ele>853.5714285714286</ele><time>2026-05-01T10:34:41.132Z</time></trkpt><trkpt lat="44.5054089" lon="8.8179041"><ele>853.4285714285714</ele><time>2026-05-01T10:34:47.105Z</time></trkpt><trkpt lat="44.5053448" lon="8.8179299"><ele>853.2857142857143</ele><time>2026-05-01T10:34:54.148Z</time></trkpt><trkpt lat="44.5052753" lon="8.8179369"><ele>853.1428571428571</ele><time>2026-05-01T10:35:01.145Z</time></trkpt><trkpt lat="44.5052116" lon="8.8179789"><ele>853.0</ele><time>2026-05-01T10:35:09.143Z</time></trkpt><trkpt lat="44.5051669" lon="8.8180416"><ele>853.0</ele><time>2026-05-01T10:35:16.144Z</time></trkpt><trkpt lat="44.5051178" lon="8.8181119"><ele>853.0</ele><time>2026-05-01T10:35:23.148Z</time></trkpt><trkpt lat="44.5050628" lon="8.8181663"><ele>853.0</ele><time>2026-05-01T10:36:14.133Z</time></trkpt><trkpt lat="44.5049908" lon="8.8182164"><ele>853.0</ele><time>2026-05-01T10:36:19.141Z</time></trkpt><trkpt lat="44.5049138" lon="8.8182196"><ele>853.0</ele><time>2026-05-01T10:36:26.083Z</time></trkpt><trkpt lat="44.5048509" lon="8.8182021"><ele>853.0</ele><time>2026-05-01T10:36:34.134Z</time></trkpt><trkpt lat="44.5047884" lon="8.8182182"><ele>853.0</ele><time>2026-05-01T10:36:40.131Z</time></trkpt><trkpt lat="44.5047234" lon="8.8182454"><ele>853.0</ele><time>2026-05-01T10:36:47.132Z</time></trkpt><trkpt lat="44.5046578" lon="8.8182965"><ele>853.0</ele><time>2026-05-01T10:36:54.168Z</time></trkpt><trkpt lat="44.5045975" lon="8.8183226"><ele>853.0</ele><time>2026-05-01T10:37:01.137Z</time></trkpt><trkpt lat="44.5045322" lon="8.8183739"><ele>853.0</ele><time>2026-05-01T10:37:08.146Z</time></trkpt><trkpt lat="44.5044812" lon="8.8184457"><ele>853.0</ele><time>2026-05-01T10:37:15.137Z</time></trkpt><trkpt lat="44.5044249" lon="8.8185177"><ele>853.0</ele><time>2026-05-01T10:37:22.129Z</time></trkpt><trkpt lat="44.5043569" lon="8.8185616"><ele>853.0</ele><time>2026-05-01T10:37:29.06Z</time></trkpt><trkpt lat="44.5042885" lon="8.8185973"><ele>854.1428571428571</ele><time>2026-05-01T10:37:36.168Z</time></trkpt><trkpt lat="44.504229" lon="8.8186406"><ele>855.2857142857143</ele><time>2026-05-01T10:37:45.146Z</time></trkpt><trkpt lat="44.5041686" lon="8.818671"><ele>856.4285714285714</ele><time>2026-05-01T10:37:53.134Z</time></trkpt><trkpt lat="44.5041008" lon="8.8186856"><ele>857.5714285714286</ele><time>2026-05-01T10:38:00.136Z</time></trkpt><trkpt lat="44.5040417" lon="8.8187348"><ele>858.7142857142858</ele><time>2026-05-01T10:38:08.147Z</time></trkpt><trkpt lat="44.5039925" lon="8.8187944"><ele>859.8571428571429</ele><time>2026-05-01T10:38:13.136Z</time></trkpt><trkpt lat="44.5039445" lon="8.8188568"><ele>861.0</ele><time>2026-05-01T10:38:18.133Z</time></trkpt><trkpt lat="44.5039005" lon="8.818933"><ele>861.0</ele><time>2026-05-01T10:38:24.145Z</time></trkpt><trkpt lat="44.5038342" lon="8.8189627"><ele>861.0</ele><time>2026-05-01T10:38:30.134Z</time></trkpt><trkpt lat="44.5037676" lon="8.8189698"><ele>861.0</ele><time>2026-05-01T10:38:36.139Z</time></trkpt><trkpt lat="44.5037028" lon="8.8189879"><ele>861.0</ele><time>2026-05-01T10:38:43.147Z</time></trkpt><trkpt lat="44.5036466" lon="8.8190286"><ele>861.0</ele><time>2026-05-01T10:38:51.134Z</time></trkpt><trkpt lat="44.5035833" lon="8.8189975"><ele>861.0</ele><time>2026-05-01T10:38:59.145Z</time></trkpt><trkpt lat="44.50352" lon="8.8189844"><ele>861.0</ele><time>2026-05-01T10:39:07.166Z</time></trkpt><trkpt lat="44.5034561" lon="8.8190157"><ele>862.4285714285714</ele><time>2026-05-01T10:39:15.136Z</time></trkpt><trkpt lat="44.5033892" lon="8.8190347"><ele>863.8571428571429</ele><time>2026-05-01T10:39:22.135Z</time></trkpt><trkpt lat="44.5033226" lon="8.8190153"><ele>865.2857142857142</ele><time>2026-05-01T10:39:27.136Z</time></trkpt><trkpt lat="44.5032533" lon="8.8189927"><ele>866.7142857142858</ele><time>2026-05-01T10:39:33.214Z</time></trkpt><trkpt lat="44.5031933" lon="8.8189542"><ele>868.1428571428571</ele><time>2026-05-01T10:39:39.145Z</time></trkpt><trkpt lat="44.5031252" lon="8.818938"><ele>869.5714285714286</ele><time>2026-05-01T10:39:49.101Z</time></trkpt><trkpt lat="44.5030535" lon="8.8189503"><ele>871.0</ele><time>2026-05-01T10:39:56.136Z</time></trkpt><trkpt lat="44.5029888" lon="8.8189677"><ele>871.0</ele><time>2026-05-01T10:40:03.132Z</time></trkpt><trkpt lat="44.5029151" lon="8.8189776"><ele>871.0</ele><time>2026-05-01T10:40:10.142Z</time></trkpt><trkpt lat="44.5028542" lon="8.819008"><ele>871.0</ele><time>2026-05-01T10:40:16.14Z</time></trkpt><trkpt lat="44.5027926" lon="8.8190478"><ele>871.0</ele><time>2026-05-01T10:40:23.08Z</time></trkpt><trkpt lat="44.5027304" lon="8.8190843"><ele>871.0</ele><time>2026-05-01T10:40:30.057Z</time></trkpt><trkpt lat="44.5026716" lon="8.8191312"><ele>871.0</ele><time>2026-05-01T10:40:37.156Z</time></trkpt><trkpt lat="44.5026102" lon="8.8191525"><ele>871.0</ele><time>2026-05-01T10:40:43.149Z</time></trkpt><trkpt lat="44.5025462" lon="8.8191741"><ele>871.1428571428571</ele><time>2026-05-01T10:40:49.13Z</time></trkpt><trkpt lat="44.5024806" lon="8.8191774"><ele>871.2857142857142</ele><time>2026-05-01T10:40:56.132Z</time></trkpt><trkpt lat="44.5024103" lon="8.8191898"><ele>871.4285714285714</ele><time>2026-05-01T10:41:03.104Z</time></trkpt><trkpt lat="44.5023427" lon="8.8191717"><ele>871.5714285714286</ele><time>2026-05-01T10:41:09.145Z</time></trkpt><trkpt lat="44.5022803" lon="8.8191291"><ele>871.7142857142858</ele><time>2026-05-01T10:41:16.138Z</time></trkpt><trkpt lat="44.5022102" lon="8.8190951"><ele>871.8571428571429</ele><time>2026-05-01T10:41:23.136Z</time></trkpt><trkpt lat="44.5021484" lon="8.8190546"><ele>872.0</ele><time>2026-05-01T10:41:29.134Z</time></trkpt><trkpt lat="44.5020788" lon="8.8190349"><ele>872.7142857142858</ele><time>2026-05-01T10:41:35.143Z</time></trkpt><trkpt lat="44.5020134" lon="8.8189999"><ele>873.4285714285714</ele><time>2026-05-01T10:41:41.14Z</time></trkpt><trkpt lat="44.5019413" lon="8.8189773"><ele>874.1428571428571</ele><time>2026-05-01T10:41:49.121Z</time></trkpt><trkpt lat="44.5018744" lon="8.8189849"><ele>874.8571428571429</ele><time>2026-05-01T10:41:57.147Z</time></trkpt><trkpt lat="44.5018029" lon="8.8189907"><ele>875.5714285714286</ele><time>2026-05-01T10:42:04.144Z</time></trkpt><trkpt lat="44.5017344" lon="8.8189883"><ele>876.2857142857143</ele><time>2026-05-01T10:42:10.145Z</time></trkpt><trkpt lat="44.5016646" lon="8.8189863"><ele>877.0</ele><time>2026-05-01T10:43:03.142Z</time></trkpt><trkpt lat="44.5015961" lon="8.8189847"><ele>877.0000000000001</ele><time>2026-05-01T10:43:07.132Z</time></trkpt><trkpt lat="44.5015317" lon="8.8189725"><ele>877.0</ele><time>2026-05-01T10:43:12.137Z</time></trkpt><trkpt lat="44.5014666" lon="8.8189552"><ele>877.0</ele><time>2026-05-01T10:43:18.133Z</time></trkpt><trkpt lat="44.5013978" lon="8.818954"><ele>877.0</ele><time>2026-05-01T10:43:24.134Z</time></trkpt><trkpt lat="44.5013276" lon="8.8189597"><ele>877.0</ele><time>2026-05-01T10:43:30.137Z</time></trkpt><trkpt lat="44.5012628" lon="8.8189821"><ele>877.0000000000001</ele><time>2026-05-01T10:43:36.133Z</time></trkpt><trkpt lat="44.5011935" lon="8.8190116"><ele>877.0</ele><time>2026-05-01T10:43:42.133Z</time></trkpt><trkpt lat="44.5011285" lon="8.8190435"><ele>876.7142857142858</ele><time>2026-05-01T10:43:48.132Z</time></trkpt><trkpt lat="44.5010676" lon="8.8190928"><ele>876.4285714285714</ele><time>2026-05-01T10:43:53.137Z</time></trkpt><trkpt lat="44.5010038" lon="8.8191441"><ele>876.1428571428571</ele><time>2026-05-01T10:43:58.105Z</time></trkpt><trkpt lat="44.5009504" lon="8.819194"><ele>875.8571428571429</ele><time>2026-05-01T10:44:03.039Z</time></trkpt><trkpt lat="44.5008868" lon="8.819226"><ele>875.5714285714286</ele><time>2026-05-01T10:44:09.134Z</time></trkpt><trkpt lat="44.5008222" lon="8.8192546"><ele>875.2857142857143</ele><time>2026-05-01T10:44:16.131Z</time></trkpt><trkpt lat="44.5007593" lon="8.8192886"><ele>875.0</ele><time>2026-05-01T10:44:23.131Z</time></trkpt><trkpt lat="44.5006995" lon="8.8193236"><ele>875.4285714285714</ele><time>2026-05-01T10:44:30.138Z</time></trkpt><trkpt lat="44.500646" lon="8.8193775"><ele>875.8571428571429</ele><time>2026-05-01T10:44:37.146Z</time></trkpt><trkpt lat="44.5005847" lon="8.8194169"><ele>876.2857142857142</ele><time>2026-05-01T10:44:44.139Z</time></trkpt><trkpt lat="44.5005262" lon="8.8194609"><ele>876.7142857142858</ele><time>2026-05-01T10:44:51.13Z</time></trkpt><trkpt lat="44.5004721" lon="8.8195143"><ele>877.1428571428571</ele><time>2026-05-01T10:44:57.158Z</time></trkpt><trkpt lat="44.5004244" lon="8.8195929"><ele>877.5714285714286</ele><time>2026-05-01T10:45:04.138Z</time></trkpt><trkpt lat="44.5003863" lon="8.8196835"><ele>878.0</ele><time>2026-05-01T10:45:11.133Z</time></trkpt><trkpt lat="44.5003575" lon="8.819775"><ele>878.0</ele><time>2026-05-01T10:45:18.152Z</time></trkpt><trkpt lat="44.5003242" lon="8.8198524"><ele>878.0</ele><time>2026-05-01T10:45:24.095Z</time></trkpt><trkpt lat="44.5002863" lon="8.8199242"><ele>878.0</ele><time>2026-05-01T10:45:30.1Z</time></trkpt><trkpt lat="44.5002587" lon="8.8200119"><ele>878.0</ele><time>2026-05-01T10:45:36.259Z</time></trkpt><trkpt lat="44.500235" lon="8.8201073"><ele>878.0</ele><time>2026-05-01T10:45:43.143Z</time></trkpt><trkpt lat="44.5002056" lon="8.820191"><ele>878.0</ele><time>2026-05-01T10:45:50.153Z</time></trkpt><trkpt lat="44.5001735" lon="8.8202796"><ele>878.0</ele><time>2026-05-01T10:45:58.137Z</time></trkpt><trkpt lat="44.5001474" lon="8.8203658"><ele>878.0</ele><time>2026-05-01T10:46:06.948Z</time></trkpt><trkpt lat="44.5001171" lon="8.8202873"><ele>878.0</ele><time>2026-05-01T10:47:19.133Z</time></trkpt><trkpt lat="44.5001342" lon="8.8202007"><ele>878.0</ele><time>2026-05-01T10:47:27.14Z</time></trkpt><trkpt lat="44.50006" lon="8.8201535"><ele>878.0</ele><time>2026-05-01T10:47:46.131Z</time></trkpt><trkpt lat="44.5000342" lon="8.8200598"><ele>878.0</ele><time>2026-05-01T10:47:54.134Z</time></trkpt><trkpt lat="44.4999984" lon="8.8199737"><ele>878.0</ele><time>2026-05-01T10:48:00.149Z</time></trkpt><trkpt lat="44.499963" lon="8.8198906"><ele>878.0</ele><time>2026-05-01T10:48:06.142Z</time></trkpt><trkpt lat="44.4999449" lon="8.8197931"><ele>878.0</ele><time>2026-05-01T10:48:12.14Z</time></trkpt><trkpt lat="44.4999442" lon="8.8197042"><ele>878.0</ele><time>2026-05-01T10:48:18.135Z</time></trkpt><trkpt lat="44.4999438" lon="8.8196004"><ele>878.0</ele><time>2026-05-01T10:48:25.125Z</time></trkpt><trkpt lat="44.4999406" lon="8.8195014"><ele>878.0</ele><time>2026-05-01T10:48:33.151Z</time></trkpt><trkpt lat="44.4999169" lon="8.8194074"><ele>878.0</ele><time>2026-05-01T10:48:40.165Z</time></trkpt><trkpt lat="44.4998785" lon="8.8193224"><ele>878.0</ele><time>2026-05-01T10:48:47.134Z</time></trkpt><trkpt lat="44.4998572" lon="8.8192228"><ele>878.0</ele><time>2026-05-01T10:48:53.137Z</time></trkpt><trkpt lat="44.4998393" lon="8.8191262"><ele>877.5714285714286</ele><time>2026-05-01T10:48:58.13Z</time></trkpt><trkpt lat="44.4998234" lon="8.8190346"><ele>877.1428571428571</ele><time>2026-05-01T10:49:03.135Z</time></trkpt><trkpt lat="44.499808" lon="8.8189477"><ele>876.7142857142858</ele><time>2026-05-01T10:49:08.132Z</time></trkpt><trkpt lat="44.4997902" lon="8.8188488"><ele>876.2857142857142</ele><time>2026-05-01T10:49:14.138Z</time></trkpt><trkpt lat="44.4997618" lon="8.8187575"><ele>875.8571428571429</ele><time>2026-05-01T10:49:20.136Z</time></trkpt><trkpt lat="44.4997255" lon="8.8186748"><ele>875.4285714285714</ele><time>2026-05-01T10:49:26.139Z</time></trkpt><trkpt lat="44.4996922" lon="8.8185835"><ele>875.0</ele><time>2026-05-01T10:49:33.136Z</time></trkpt><trkpt lat="44.4996566" lon="8.8185082"><ele>874.5714285714286</ele><time>2026-05-01T10:49:39.083Z</time></trkpt><trkpt lat="44.4996243" lon="8.8184323"><ele>874.1428571428571</ele><time>2026-05-01T10:49:45.136Z</time></trkpt><trkpt lat="44.4995793" lon="8.8183649"><ele>873.7142857142858</ele><time>2026-05-01T10:49:51.134Z</time></trkpt><trkpt lat="44.4995241" lon="8.8183201"><ele>873.2857142857142</ele><time>2026-05-01T10:49:57.134Z</time></trkpt><trkpt lat="44.4994569" lon="8.8182848"><ele>872.8571428571429</ele><time>2026-05-01T10:50:03.137Z</time></trkpt><trkpt lat="44.4993855" lon="8.8182456"><ele>872.4285714285714</ele><time>2026-05-01T10:50:09.08Z</time></trkpt><trkpt lat="44.4993206" lon="8.8182161"><ele>872.0</ele><time>2026-05-01T10:50:15.185Z</time></trkpt><trkpt lat="44.4992553" lon="8.8182054"><ele>872.0</ele><time>2026-05-01T10:50:21.138Z</time></trkpt><trkpt lat="44.4991634" lon="8.8181924"><ele>872.0</ele><time>2026-05-01T10:52:06.13Z</time></trkpt><trkpt lat="44.4991003" lon="8.8182217"><ele>872.0</ele><time>2026-05-01T10:52:10.139Z</time></trkpt><trkpt lat="44.4990274" lon="8.8182135"><ele>872.0</ele><time>2026-05-01T10:52:16.16Z</time></trkpt><trkpt lat="44.4989744" lon="8.818161"><ele>872.0</ele><time>2026-05-01T10:52:22.139Z</time></trkpt><trkpt lat="44.4989394" lon="8.8180818"><ele>872.0</ele><time>2026-05-01T10:52:27.135Z</time></trkpt><trkpt lat="44.4989013" lon="8.8180096"><ele>872.0</ele><time>2026-05-01T10:52:34.134Z</time></trkpt><trkpt lat="44.4988941" lon="8.8179094"><ele>872.0</ele><time>2026-05-01T10:52:44.132Z</time></trkpt><trkpt lat="44.4988628" lon="8.8178202"><ele>872.0</ele><time>2026-05-01T10:52:52.1Z</time></trkpt><trkpt lat="44.4988091" lon="8.8177625"><ele>872.0</ele><time>2026-05-01T10:53:48.135Z</time></trkpt><trkpt lat="44.498766" lon="8.8176804"><ele>872.0</ele><time>2026-05-01T10:53:53.147Z</time></trkpt><trkpt lat="44.4987292" lon="8.8175999"><ele>872.0</ele><time>2026-05-01T10:53:59.145Z</time></trkpt><trkpt lat="44.4987012" lon="8.8175107"><ele>872.0</ele><time>2026-05-01T10:54:06.041Z</time></trkpt><trkpt lat="44.4986813" lon="8.8174266"><ele>872.0</ele><time>2026-05-01T10:54:12.146Z</time></trkpt><trkpt lat="44.4986483" lon="8.8173498"><ele>874.2857142857143</ele><time>2026-05-01T10:54:19.083Z</time></trkpt><trkpt lat="44.4986727" lon="8.8172677"><ele>876.5714285714287</ele><time>2026-05-01T10:54:26.179Z</time></trkpt><trkpt lat="44.4986592" lon="8.8171775"><ele>878.8571428571429</ele><time>2026-05-01T10:54:33.133Z</time></trkpt><trkpt lat="44.4986122" lon="8.8171014"><ele>881.1428571428571</ele><time>2026-05-01T10:54:41.172Z</time></trkpt><trkpt lat="44.4985588" lon="8.8170477"><ele>883.4285714285714</ele><time>2026-05-01T10:54:49.142Z</time></trkpt><trkpt lat="44.498505" lon="8.8169917"><ele>885.7142857142857</ele><time>2026-05-01T10:54:55.137Z</time></trkpt><trkpt lat="44.4984839" lon="8.8169054"><ele>888.0</ele><time>2026-05-01T10:55:01.145Z</time></trkpt><trkpt lat="44.4984668" lon="8.8168064"><ele>888.5714285714286</ele><time>2026-05-01T10:55:08.136Z</time></trkpt><trkpt lat="44.498463" lon="8.8167124"><ele>889.1428571428572</ele><time>2026-05-01T10:55:15.15Z</time></trkpt><trkpt lat="44.4984786" lon="8.8166237"><ele>889.7142857142858</ele><time>2026-05-01T10:55:21.136Z</time></trkpt><trkpt lat="44.4984994" lon="8.8165378"><ele>890.2857142857142</ele><time>2026-05-01T10:55:27.138Z</time></trkpt><trkpt lat="44.4985156" lon="8.8164475"><ele>890.8571428571429</ele><time>2026-05-01T10:55:34.098Z</time></trkpt><trkpt lat="44.4985177" lon="8.8163554"><ele>891.4285714285714</ele><time>2026-05-01T10:55:42.136Z</time></trkpt><trkpt lat="44.4984853" lon="8.8162744"><ele>892.0</ele><time>2026-05-01T10:55:49.136Z</time></trkpt><trkpt lat="44.4984604" lon="8.8161879"><ele>892.0</ele><time>2026-05-01T10:55:56.136Z</time></trkpt><trkpt lat="44.4984196" lon="8.8161157"><ele>892.0</ele><time>2026-05-01T10:56:03.149Z</time></trkpt><trkpt lat="44.4983643" lon="8.8160725"><ele>892.0</ele><time>2026-05-01T10:56:09.197Z</time></trkpt><trkpt lat="44.4983133" lon="8.816015"><ele>892.0</ele><time>2026-05-01T10:56:18.146Z</time></trkpt><trkpt lat="44.4982681" lon="8.8159447"><ele>892.0</ele><time>2026-05-01T10:56:30.137Z</time></trkpt><trkpt lat="44.4981976" lon="8.8159109"><ele>892.0</ele><time>2026-05-01T10:56:38.146Z</time></trkpt><trkpt lat="44.4981451" lon="8.8158452"><ele>892.0</ele><time>2026-05-01T10:56:45.14Z</time></trkpt><trkpt lat="44.4981242" lon="8.8157524"><ele>892.8571428571429</ele><time>2026-05-01T10:56:52.14Z</time></trkpt><trkpt lat="44.4981545" lon="8.8156631"><ele>893.7142857142857</ele><time>2026-05-01T10:57:00.163Z</time></trkpt><trkpt lat="44.4982104" lon="8.8156219"><ele>894.5714285714286</ele><time>2026-05-01T10:57:07.137Z</time></trkpt><trkpt lat="44.498273" lon="8.8156016"><ele>895.4285714285713</ele><time>2026-05-01T10:57:13.138Z</time></trkpt><trkpt lat="44.498322" lon="8.8155335"><ele>896.2857142857142</ele><time>2026-05-01T10:57:22.137Z</time></trkpt><trkpt lat="44.4983223" lon="8.8154349"><ele>897.1428571428571</ele><time>2026-05-01T10:57:29.136Z</time></trkpt><trkpt lat="44.4982734" lon="8.8153653"><ele>898.0</ele><time>2026-05-01T10:57:37.055Z</time></trkpt><trkpt lat="44.498215" lon="8.8153101"><ele>898.0</ele><time>2026-05-01T10:57:45.136Z</time></trkpt><trkpt lat="44.498159" lon="8.8152625"><ele>897.9999999999999</ele><time>2026-05-01T10:57:52.135Z</time></trkpt><trkpt lat="44.4980908" lon="8.8152239"><ele>898.0</ele><time>2026-05-01T10:57:59.135Z</time></trkpt><trkpt lat="44.4980254" lon="8.815207"><ele>898.0</ele><time>2026-05-01T10:58:05.137Z</time></trkpt><trkpt lat="44.4979605" lon="8.8151756"><ele>897.9999999999999</ele><time>2026-05-01T10:58:12.137Z</time></trkpt><trkpt lat="44.497896" lon="8.815147"><ele>898.0</ele><time>2026-05-01T10:58:19.145Z</time></trkpt><trkpt lat="44.4978369" lon="8.8151064"><ele>898.0</ele><time>2026-05-01T10:58:26.163Z</time></trkpt><trkpt lat="44.4977732" lon="8.8151012"><ele>899.2857142857142</ele><time>2026-05-01T10:58:32.138Z</time></trkpt><trkpt lat="44.4977058" lon="8.8151017"><ele>900.5714285714284</ele><time>2026-05-01T10:58:38.135Z</time></trkpt><trkpt lat="44.4976422" lon="8.8150935"><ele>901.8571428571429</ele><time>2026-05-01T10:58:45.134Z</time></trkpt><trkpt lat="44.4975795" lon="8.8150548"><ele>903.1428571428571</ele><time>2026-05-01T10:58:52.138Z</time></trkpt><trkpt lat="44.4975262" lon="8.8150071"><ele>904.4285714285714</ele><time>2026-05-01T10:58:59.139Z</time></trkpt><trkpt lat="44.4974627" lon="8.8149567"><ele>905.7142857142858</ele><time>2026-05-01T10:59:06.137Z</time></trkpt><trkpt lat="44.4973975" lon="8.8149162"><ele>907.0000000000001</ele><time>2026-05-01T10:59:13.135Z</time></trkpt><trkpt lat="44.4973306" lon="8.8148837"><ele>907.0000000000001</ele><time>2026-05-01T10:59:19.134Z</time></trkpt><trkpt lat="44.4972824" lon="8.8148047"><ele>907.0</ele><time>2026-05-01T10:59:35.137Z</time></trkpt><trkpt lat="44.4972193" lon="8.8147799"><ele>907.0000000000001</ele><time>2026-05-01T10:59:40.149Z</time></trkpt><trkpt lat="44.4971514" lon="8.8147507"><ele>907.0000000000001</ele><time>2026-05-01T10:59:46.116Z</time></trkpt><trkpt lat="44.497082" lon="8.8147194"><ele>907.0</ele><time>2026-05-01T10:59:52.082Z</time></trkpt><trkpt lat="44.4970211" lon="8.8146712"><ele>907.0000000000001</ele><time>2026-05-01T10:59:58.137Z</time></trkpt><trkpt lat="44.4969618" lon="8.8146281"><ele>907.0000000000001</ele><time>2026-05-01T11:00:04.137Z</time></trkpt><trkpt lat="44.4969064" lon="8.8145776"><ele>907.4285714285716</ele><time>2026-05-01T11:00:10.149Z</time></trkpt><trkpt lat="44.4968464" lon="8.814536"><ele>907.8571428571429</ele><time>2026-05-01T11:00:16.136Z</time></trkpt><trkpt lat="44.4967879" lon="8.8144897"><ele>908.2857142857143</ele><time>2026-05-01T11:00:22.159Z</time></trkpt><trkpt lat="44.4967357" lon="8.8144373"><ele>908.7142857142858</ele><time>2026-05-01T11:00:28.131Z</time></trkpt><trkpt lat="44.4966804" lon="8.8143784"><ele>909.1428571428571</ele><time>2026-05-01T11:00:35.133Z</time></trkpt><trkpt lat="44.4966356" lon="8.8143072"><ele>909.5714285714286</ele><time>2026-05-01T11:00:42.101Z</time></trkpt><trkpt lat="44.4965836" lon="8.8142349"><ele>910.0</ele><time>2026-05-01T11:00:49.039Z</time></trkpt><trkpt lat="44.4965337" lon="8.8141663"><ele>910.8571428571429</ele><time>2026-05-01T11:00:55.135Z</time></trkpt><trkpt lat="44.4964853" lon="8.8140922"><ele>911.7142857142858</ele><time>2026-05-01T11:01:01.135Z</time></trkpt><trkpt lat="44.4964423" lon="8.8140257"><ele>912.5714285714286</ele><time>2026-05-01T11:01:07.14Z</time></trkpt><trkpt lat="44.4963931" lon="8.8139686"><ele>913.4285714285714</ele><time>2026-05-01T11:01:13.138Z</time></trkpt><trkpt lat="44.4963557" lon="8.8138894"><ele>914.2857142857143</ele><time>2026-05-01T11:01:20.136Z</time></trkpt><trkpt lat="44.4963057" lon="8.8138283"><ele>915.1428571428571</ele><time>2026-05-01T11:01:27.139Z</time></trkpt><trkpt lat="44.4962637" lon="8.8137478"><ele>916.0</ele><time>2026-05-01T11:01:34.138Z</time></trkpt><trkpt lat="44.4962308" lon="8.8136615"><ele>916.0</ele><time>2026-05-01T11:01:40.142Z</time></trkpt><trkpt lat="44.4961858" lon="8.8135733"><ele>916.0</ele><time>2026-05-01T11:01:46.148Z</time></trkpt><trkpt lat="44.4961437" lon="8.8135075"><ele>916.0</ele><time>2026-05-01T11:01:51.141Z</time></trkpt><trkpt lat="44.4961057" lon="8.8134357"><ele>916.0</ele><time>2026-05-01T11:01:56.148Z</time></trkpt><trkpt lat="44.4960921" lon="8.813339"><ele>916.0</ele><time>2026-05-01T11:02:02.117Z</time></trkpt><trkpt lat="44.496057" lon="8.8132556"><ele>916.0</ele><time>2026-05-01T11:02:09.056Z</time></trkpt><trkpt lat="44.4960216" lon="8.813179"><ele>916.0</ele><time>2026-05-01T11:02:16.137Z</time></trkpt><trkpt lat="44.4959848" lon="8.8130925"><ele>915.0</ele><time>2026-05-01T11:02:23.137Z</time></trkpt><trkpt lat="44.4959585" lon="8.8130069"><ele>914.0</ele><time>2026-05-01T11:02:29.133Z</time></trkpt><trkpt lat="44.4959213" lon="8.8129237"><ele>913.0</ele><time>2026-05-01T11:02:36.137Z</time></trkpt><trkpt lat="44.495881" lon="8.8128479"><ele>912.0</ele><time>2026-05-01T11:02:43.131Z</time></trkpt><trkpt lat="44.4958323" lon="8.8127859"><ele>911.0</ele><time>2026-05-01T11:02:49.136Z</time></trkpt><trkpt lat="44.4957805" lon="8.8127304"><ele>910.0</ele><time>2026-05-01T11:02:54.109Z</time></trkpt><trkpt lat="44.4957316" lon="8.812657"><ele>909.0</ele><time>2026-05-01T11:02:59.977Z</time></trkpt><trkpt lat="44.4956808" lon="8.81259"><ele>909.5714285714286</ele><time>2026-05-01T11:03:06.15Z</time></trkpt><trkpt lat="44.4956369" lon="8.8125215"><ele>910.1428571428571</ele><time>2026-05-01T11:03:12.14Z</time></trkpt><trkpt lat="44.4955965" lon="8.8124507"><ele>910.7142857142857</ele><time>2026-05-01T11:03:18.17Z</time></trkpt><trkpt lat="44.4955496" lon="8.8123844"><ele>911.2857142857142</ele><time>2026-05-01T11:03:25.139Z</time></trkpt><trkpt lat="44.495486" lon="8.8123452"><ele>911.8571428571429</ele><time>2026-05-01T11:03:32.141Z</time></trkpt><trkpt lat="44.4954225" lon="8.8123327"><ele>912.4285714285713</ele><time>2026-05-01T11:03:38.138Z</time></trkpt><trkpt lat="44.4953548" lon="8.8123048"><ele>912.9999999999999</ele><time>2026-05-01T11:03:45.134Z</time></trkpt><trkpt lat="44.4952908" lon="8.8122826"><ele>912.9999999999999</ele><time>2026-05-01T11:03:52.148Z</time></trkpt><trkpt lat="44.495233" lon="8.8122429"><ele>913.0</ele><time>2026-05-01T11:03:58.133Z</time></trkpt><trkpt lat="44.4951846" lon="8.8121747"><ele>912.9999999999999</ele><time>2026-05-01T11:04:04.136Z</time></trkpt><trkpt lat="44.4951582" lon="8.8120896"><ele>912.9999999999999</ele><time>2026-05-01T11:04:11.147Z</time></trkpt><trkpt lat="44.4951164" lon="8.8120198"><ele>913.0</ele><time>2026-05-01T11:04:18.141Z</time></trkpt><trkpt lat="44.4950687" lon="8.8119471"><ele>912.9999999999999</ele><time>2026-05-01T11:04:25.14Z</time></trkpt><trkpt lat="44.495015" lon="8.8118904"><ele>912.9999999999999</ele><time>2026-05-01T11:04:32.14Z</time></trkpt><trkpt lat="44.4949573" lon="8.811848"><ele>911.9999999999999</ele><time>2026-05-01T11:04:39.136Z</time></trkpt><trkpt lat="44.4949066" lon="8.8117787"><ele>911.0</ele><time>2026-05-01T11:04:47.138Z</time></trkpt><trkpt lat="44.4948625" lon="8.8117116"><ele>909.9999999999999</ele><time>2026-05-01T11:04:54.174Z</time></trkpt><trkpt lat="44.4948048" lon="8.8116556"><ele>908.9999999999999</ele><time>2026-05-01T11:05:01.136Z</time></trkpt><trkpt lat="44.4947568" lon="8.8115899"><ele>908.0</ele><time>2026-05-01T11:05:09.142Z</time></trkpt><trkpt lat="44.4947261" lon="8.8115119"><ele>906.9999999999999</ele><time>2026-05-01T11:05:16.136Z</time></trkpt><trkpt lat="44.494688" lon="8.8114348"><ele>905.9999999999999</ele><time>2026-05-01T11:05:23.173Z</time></trkpt><trkpt lat="44.4946376" lon="8.8113664"><ele>908.142857142857</ele><time>2026-05-01T11:05:30.133Z</time></trkpt><trkpt lat="44.4945825" lon="8.8113136"><ele>910.2857142857142</ele><time>2026-05-01T11:05:36.145Z</time></trkpt><trkpt lat="44.4945182" lon="8.8112805"><ele>912.4285714285714</ele><time>2026-05-01T11:05:43.146Z</time></trkpt><trkpt lat="44.4944527" lon="8.8112822"><ele>914.5714285714286</ele><time>2026-05-01T11:05:54.147Z</time></trkpt><trkpt lat="44.4944098" lon="8.8113504"><ele>916.7142857142858</ele><time>2026-05-01T11:06:05.149Z</time></trkpt><trkpt lat="44.4943498" lon="8.8113945"><ele>918.857142857143</ele><time>2026-05-01T11:06:12.082Z</time></trkpt><trkpt lat="44.4942806" lon="8.8113908"><ele>921.0000000000001</ele><time>2026-05-01T11:06:21.139Z</time></trkpt><trkpt lat="44.4942225" lon="8.8113372"><ele>921.0000000000001</ele><time>2026-05-01T11:06:28.134Z</time></trkpt><trkpt lat="44.4941865" lon="8.8112571"><ele>921.0</ele><time>2026-05-01T11:06:35.102Z</time></trkpt><trkpt lat="44.4941812" lon="8.8111677"><ele>921.0000000000001</ele><time>2026-05-01T11:06:43.143Z</time></trkpt><trkpt lat="44.4941841" lon="8.8110734"><ele>921.0000000000001</ele><time>2026-05-01T11:06:51.168Z</time></trkpt><trkpt lat="44.4942076" lon="8.8109891"><ele>921.0</ele><time>2026-05-01T11:06:56.139Z</time></trkpt><trkpt lat="44.4942332" lon="8.8108948"><ele>921.0000000000001</ele><time>2026-05-01T11:07:02.141Z</time></trkpt><trkpt lat="44.4942133" lon="8.8108053"><ele>921.0000000000001</ele><time>2026-05-01T11:07:09.098Z</time></trkpt><trkpt lat="44.4941847" lon="8.8107215"><ele>921.4285714285716</ele><time>2026-05-01T11:07:15.149Z</time></trkpt><trkpt lat="44.4941621" lon="8.8106241"><ele>921.8571428571429</ele><time>2026-05-01T11:07:22.136Z</time></trkpt><trkpt lat="44.4941127" lon="8.8105675"><ele>922.2857142857143</ele><time>2026-05-01T11:07:28.134Z</time></trkpt><trkpt lat="44.4940617" lon="8.8104951"><ele>922.7142857142858</ele><time>2026-05-01T11:07:35.133Z</time></trkpt><trkpt lat="44.4940084" lon="8.8104314"><ele>923.1428571428571</ele><time>2026-05-01T11:07:42.086Z</time></trkpt><trkpt lat="44.4939597" lon="8.8103646"><ele>923.5714285714286</ele><time>2026-05-01T11:07:49.133Z</time></trkpt><trkpt lat="44.4939162" lon="8.8102952"><ele>924.0</ele><time>2026-05-01T11:07:56.135Z</time></trkpt><trkpt lat="44.4938759" lon="8.8102076"><ele>923.2857142857142</ele><time>2026-05-01T11:08:03.138Z</time></trkpt><trkpt lat="44.4938406" lon="8.8101303"><ele>922.5714285714286</ele><time>2026-05-01T11:08:09.145Z</time></trkpt><trkpt lat="44.4937976" lon="8.8100468"><ele>921.8571428571429</ele><time>2026-05-01T11:08:16.161Z</time></trkpt><trkpt lat="44.4937516" lon="8.8099795"><ele>921.1428571428571</ele><time>2026-05-01T11:08:23.134Z</time></trkpt><trkpt lat="44.4936956" lon="8.8099311"><ele>920.4285714285713</ele><time>2026-05-01T11:08:30.149Z</time></trkpt><trkpt lat="44.4936283" lon="8.8099082"><ele>919.7142857142857</ele><time>2026-05-01T11:08:36.148Z</time></trkpt><trkpt lat="44.4935566" lon="8.8098865"><ele>919.0</ele><time>2026-05-01T11:08:42.118Z</time></trkpt><trkpt lat="44.4935127" lon="8.809822"><ele>921.8571428571428</ele><time>2026-05-01T11:08:48.14Z</time></trkpt><trkpt lat="44.4934671" lon="8.8097593"><ele>924.7142857142856</ele><time>2026-05-01T11:08:55.147Z</time></trkpt><trkpt lat="44.493412" lon="8.8097149"><ele>927.5714285714286</ele><time>2026-05-01T11:09:02.148Z</time></trkpt><trkpt lat="44.4933555" lon="8.8096546"><ele>930.4285714285713</ele><time>2026-05-01T11:09:10.147Z</time></trkpt><trkpt lat="44.4933009" lon="8.8095852"><ele>933.2857142857142</ele><time>2026-05-01T11:09:17.136Z</time></trkpt><trkpt lat="44.4932477" lon="8.8095189"><ele>936.1428571428571</ele><time>2026-05-01T11:09:23.135Z</time></trkpt><trkpt lat="44.4931887" lon="8.8094707"><ele>939.0</ele><time>2026-05-01T11:09:29.135Z</time></trkpt><trkpt lat="44.4931275" lon="8.8094396"><ele>939.0</ele><time>2026-05-01T11:09:35.136Z</time></trkpt><trkpt lat="44.4930721" lon="8.8093915"><ele>939.0</ele><time>2026-05-01T11:09:42.138Z</time></trkpt><trkpt lat="44.4930105" lon="8.8093574"><ele>939.0</ele><time>2026-05-01T11:09:50.135Z</time></trkpt><trkpt lat="44.4929476" lon="8.8093369"><ele>939.0</ele><time>2026-05-01T11:09:59.15Z</time></trkpt><trkpt lat="44.4928752" lon="8.8093426"><ele>939.0</ele><time>2026-05-01T11:10:33.978Z</time></trkpt><trkpt lat="44.4928104" lon="8.8093367"><ele>939.0</ele><time>2026-05-01T11:10:39.172Z</time></trkpt><trkpt lat="44.4927421" lon="8.8093312"><ele>939.0</ele><time>2026-05-01T11:10:45.138Z</time></trkpt><trkpt lat="44.4926751" lon="8.8093398"><ele>938.7142857142858</ele><time>2026-05-01T11:10:51.14Z</time></trkpt><trkpt lat="44.4926151" lon="8.8093848"><ele>938.4285714285713</ele><time>2026-05-01T11:10:57.139Z</time></trkpt><trkpt lat="44.4925644" lon="8.8094502"><ele>938.1428571428571</ele><time>2026-05-01T11:11:03.149Z</time></trkpt><trkpt lat="44.4925138" lon="8.8095059"><ele>937.8571428571429</ele><time>2026-05-01T11:11:08.138Z</time></trkpt><trkpt lat="44.4924547" lon="8.8095633"><ele>937.5714285714287</ele><time>2026-05-01T11:11:13.14Z</time></trkpt><trkpt lat="44.4923994" lon="8.8096111"><ele>937.2857142857142</ele><time>2026-05-01T11:11:18.135Z</time></trkpt><trkpt lat="44.4923346" lon="8.8096394"><ele>937.0</ele><time>2026-05-01T11:11:24.15Z</time></trkpt><trkpt lat="44.4922596" lon="8.8096205"><ele>937.0</ele><time>2026-05-01T11:11:30.062Z</time></trkpt><trkpt lat="44.4921923" lon="8.8095762"><ele>937.0</ele><time>2026-05-01T11:11:36.14Z</time></trkpt><trkpt lat="44.4921421" lon="8.8095195"><ele>937.0</ele><time>2026-05-01T11:11:41.147Z</time></trkpt><trkpt lat="44.4920912" lon="8.8094446"><ele>937.0</ele><time>2026-05-01T11:11:47.138Z</time></trkpt><trkpt lat="44.4920408" lon="8.809382"><ele>937.0</ele><time>2026-05-01T11:11:53.138Z</time></trkpt><trkpt lat="44.4919858" lon="8.8093367"><ele>937.0</ele><time>2026-05-01T11:12:00.144Z</time></trkpt><trkpt lat="44.4919154" lon="8.8093186"><ele>937.0</ele><time>2026-05-01T11:12:08.137Z</time></trkpt><trkpt lat="44.4918482" lon="8.8093021"><ele>936.8571428571429</ele><time>2026-05-01T11:12:14.149Z</time></trkpt><trkpt lat="44.4917908" lon="8.8092595"><ele>936.7142857142858</ele><time>2026-05-01T11:12:19.137Z</time></trkpt><trkpt lat="44.4917335" lon="8.8092159"><ele>936.5714285714287</ele><time>2026-05-01T11:12:25.147Z</time></trkpt><trkpt lat="44.4916638" lon="8.8092359"><ele>936.4285714285714</ele><time>2026-05-01T11:12:31.132Z</time></trkpt><trkpt lat="44.4915982" lon="8.8092671"><ele>936.2857142857144</ele><time>2026-05-01T11:12:37.139Z</time></trkpt><trkpt lat="44.4915305" lon="8.8092936"><ele>936.1428571428572</ele><time>2026-05-01T11:12:43.174Z</time></trkpt><trkpt lat="44.4914593" lon="8.8092683"><ele>936.0</ele><time>2026-05-01T11:12:49.15Z</time></trkpt><trkpt lat="44.4914022" lon="8.8092173"><ele>936.0</ele><time>2026-05-01T11:12:55.147Z</time></trkpt><trkpt lat="44.4913564" lon="8.8091547"><ele>936.0000000000001</ele><time>2026-05-01T11:13:01.137Z</time></trkpt><trkpt lat="44.4912947" lon="8.8090948"><ele>936.0</ele><time>2026-05-01T11:13:08.153Z</time></trkpt><trkpt lat="44.4912392" lon="8.8090355"><ele>936.0</ele><time>2026-05-01T11:13:16.139Z</time></trkpt><trkpt lat="44.4911831" lon="8.8089696"><ele>936.0000000000001</ele><time>2026-05-01T11:13:23.136Z</time></trkpt><trkpt lat="44.49113" lon="8.808905"><ele>936.0</ele><time>2026-05-01T11:13:29.16Z</time></trkpt><trkpt lat="44.491087" lon="8.8088361"><ele>936.0</ele><time>2026-05-01T11:13:35.138Z</time></trkpt><trkpt lat="44.4910399" lon="8.8087665"><ele>936.2857142857143</ele><time>2026-05-01T11:13:42.139Z</time></trkpt><trkpt lat="44.4910018" lon="8.8086896"><ele>936.5714285714287</ele><time>2026-05-01T11:13:49.14Z</time></trkpt><trkpt lat="44.4909587" lon="8.8086154"><ele>936.8571428571429</ele><time>2026-05-01T11:13:56.147Z</time></trkpt><trkpt lat="44.4909184" lon="8.8085453"><ele>937.1428571428571</ele><time>2026-05-01T11:14:02.148Z</time></trkpt><trkpt lat="44.4908805" lon="8.8084742"><ele>937.4285714285714</ele><time>2026-05-01T11:14:08.133Z</time></trkpt><trkpt lat="44.4908376" lon="8.8083987"><ele>937.7142857142858</ele><time>2026-05-01T11:14:15.077Z</time></trkpt><trkpt lat="44.4908463" lon="8.8083101"><ele>938.0</ele><time>2026-05-01T11:14:22.137Z</time></trkpt><trkpt lat="44.4908067" lon="8.8082347"><ele>938.7142857142858</ele><time>2026-05-01T11:14:29.149Z</time></trkpt><trkpt lat="44.4907946" lon="8.8081361"><ele>939.4285714285714</ele><time>2026-05-01T11:14:36.136Z</time></trkpt><trkpt lat="44.490806" lon="8.8080367"><ele>940.1428571428571</ele><time>2026-05-01T11:14:43.159Z</time></trkpt><trkpt lat="44.4908321" lon="8.8079535"><ele>940.8571428571429</ele><time>2026-05-01T11:14:57.139Z</time></trkpt><trkpt lat="44.4907779" lon="8.8079072"><ele>941.5714285714287</ele><time>2026-05-01T11:15:08.104Z</time></trkpt><trkpt lat="44.4907111" lon="8.8078772"><ele>942.2857142857143</ele><time>2026-05-01T11:15:21.192Z</time></trkpt><trkpt lat="44.4906739" lon="8.8078059"><ele>943.0</ele><time>2026-05-01T11:16:37.147Z</time></trkpt><trkpt lat="44.4907215" lon="8.8078651"><ele>943.0</ele><time>2026-05-01T11:16:45.137Z</time></trkpt><trkpt lat="44.4907457" lon="8.8077558"><ele>943.0000000000001</ele><time>2026-05-01T11:17:52.086Z</time></trkpt><trkpt lat="44.4907058" lon="8.8076758"><ele>943.0</ele><time>2026-05-01T11:17:57.139Z</time></trkpt><trkpt lat="44.4906563" lon="8.8076047"><ele>943.0</ele><time>2026-05-01T11:18:03.145Z</time></trkpt><trkpt lat="44.4906068" lon="8.8075479"><ele>943.0000000000001</ele><time>2026-05-01T11:18:10.082Z</time></trkpt><trkpt lat="44.4905418" lon="8.8075029"><ele>943.0</ele><time>2026-05-01T11:18:16.142Z</time></trkpt><trkpt lat="44.4904717" lon="8.8074848"><ele>943.0</ele><time>2026-05-01T11:18:23.148Z</time></trkpt><trkpt lat="44.4904108" lon="8.8074518"><ele>943.8571428571429</ele><time>2026-05-01T11:18:30.135Z</time></trkpt><trkpt lat="44.4903532" lon="8.8073962"><ele>944.7142857142858</ele><time>2026-05-01T11:18:38.148Z</time></trkpt><trkpt lat="44.4902934" lon="8.8073552"><ele>945.5714285714287</ele><time>2026-05-01T11:18:46.146Z</time></trkpt><trkpt lat="44.4902387" lon="8.8073016"><ele>946.4285714285716</ele><time>2026-05-01T11:18:52.131Z</time></trkpt><trkpt lat="44.4901822" lon="8.8072429"><ele>947.2857142857143</ele><time>2026-05-01T11:18:58.132Z</time></trkpt><trkpt lat="44.4901249" lon="8.8071875"><ele>948.1428571428573</ele><time>2026-05-01T11:19:08.144Z</time></trkpt><trkpt lat="44.4901064" lon="8.8070977"><ele>949.0000000000001</ele><time>2026-05-01T11:19:18.132Z</time></trkpt><trkpt lat="44.4900975" lon="8.8070043"><ele>949.0000000000001</ele><time>2026-05-01T11:19:25.149Z</time></trkpt><trkpt lat="44.4900828" lon="8.8069141"><ele>949.0</ele><time>2026-05-01T11:19:31.13Z</time></trkpt><trkpt lat="44.4900667" lon="8.8068167"><ele>949.0000000000001</ele><time>2026-05-01T11:19:38.139Z</time></trkpt><trkpt lat="44.4900436" lon="8.8067323"><ele>949.0000000000001</ele><time>2026-05-01T11:19:42.695Z</time></trkpt><trkpt lat="44.4900041" lon="8.8066545"><ele>949.0</ele><time>2026-05-01T11:19:48.138Z</time></trkpt><trkpt lat="44.4899746" lon="8.8065741"><ele>949.0000000000001</ele><time>2026-05-01T11:19:54.08Z</time></trkpt><trkpt lat="44.4899628" lon="8.8064796"><ele>949.0000000000001</ele><time>2026-05-01T11:20:01.135Z</time></trkpt><trkpt lat="44.4899751" lon="8.80639"><ele>949.5714285714287</ele><time>2026-05-01T11:20:07.147Z</time></trkpt><trkpt lat="44.4899728" lon="8.8062942"><ele>950.1428571428571</ele><time>2026-05-01T11:20:13.133Z</time></trkpt><trkpt lat="44.4899441" lon="8.8062117"><ele>950.7142857142858</ele><time>2026-05-01T11:20:19.144Z</time></trkpt><trkpt lat="44.489906" lon="8.8061369"><ele>951.2857142857143</ele><time>2026-05-01T11:20:25.13Z</time></trkpt><trkpt lat="44.48987" lon="8.8060636"><ele>951.8571428571429</ele><time>2026-05-01T11:20:32.178Z</time></trkpt><trkpt lat="44.4898182" lon="8.8060089"><ele>952.4285714285714</ele><time>2026-05-01T11:21:22.161Z</time></trkpt><trkpt lat="44.4897572" lon="8.8059748"><ele>953.0</ele><time>2026-05-01T11:21:59.143Z</time></trkpt><trkpt lat="44.4897027" lon="8.8059119"><ele>952.8571428571429</ele><time>2026-05-01T11:22:05.137Z</time></trkpt><trkpt lat="44.4896508" lon="8.8058398"><ele>952.7142857142857</ele><time>2026-05-01T11:22:13.141Z</time></trkpt><trkpt lat="44.4895956" lon="8.8057812"><ele>952.5714285714286</ele><time>2026-05-01T11:22:18.137Z</time></trkpt><trkpt lat="44.4895429" lon="8.8057118"><ele>952.4285714285714</ele><time>2026-05-01T11:22:24.136Z</time></trkpt><trkpt lat="44.4895027" lon="8.8056285"><ele>952.2857142857142</ele><time>2026-05-01T11:22:30.121Z</time></trkpt><trkpt lat="44.4894769" lon="8.8055329"><ele>952.1428571428571</ele><time>2026-05-01T11:22:38.136Z</time></trkpt><trkpt lat="44.4894609" lon="8.8054371"><ele>952.0</ele><time>2026-05-01T11:22:44.118Z</time></trkpt><trkpt lat="44.489453" lon="8.8053481"><ele>952.0</ele><time>2026-05-01T11:22:50.146Z</time></trkpt><trkpt lat="44.4894358" lon="8.8052533"><ele>952.0</ele><time>2026-05-01T11:22:56.137Z</time></trkpt><trkpt lat="44.4894122" lon="8.8051613"><ele>952.0</ele><time>2026-05-01T11:23:03.148Z</time></trkpt><trkpt lat="44.4893801" lon="8.8050749"><ele>952.0</ele><time>2026-05-01T11:23:08.134Z</time></trkpt><trkpt lat="44.4893466" lon="8.8049987"><ele>952.0</ele><time>2026-05-01T11:23:13.138Z</time></trkpt><trkpt lat="44.4893083" lon="8.8049079"><ele>952.0</ele><time>2026-05-01T11:23:19.138Z</time></trkpt><trkpt lat="44.4892813" lon="8.8048103"><ele>952.0</ele><time>2026-05-01T11:23:25.153Z</time></trkpt><trkpt lat="44.489258" lon="8.8047239"><ele>952.0</ele><time>2026-05-01T11:23:31.135Z</time></trkpt><trkpt lat="44.4892401" lon="8.8046342"><ele>952.0</ele><time>2026-05-01T11:23:37.148Z</time></trkpt><trkpt lat="44.4892161" lon="8.804549"><ele>952.0</ele><time>2026-05-01T11:23:43.147Z</time></trkpt><trkpt lat="44.4891937" lon="8.8044642"><ele>952.0</ele><time>2026-05-01T11:23:49.116Z</time></trkpt><trkpt lat="44.4891627" lon="8.8043858"><ele>952.0</ele><time>2026-05-01T11:23:55.062Z</time></trkpt><trkpt lat="44.4891359" lon="8.8043023"><ele>952.0</ele><time>2026-05-01T11:24:01.146Z</time></trkpt><trkpt lat="44.4891089" lon="8.8042217"><ele>952.0</ele><time>2026-05-01T11:24:07.148Z</time></trkpt><trkpt lat="44.4890814" lon="8.8041405"><ele>952.0</ele><time>2026-05-01T11:24:13.13Z</time></trkpt><trkpt lat="44.4890408" lon="8.8040597"><ele>952.0</ele><time>2026-05-01T11:24:19.148Z</time></trkpt><trkpt lat="44.4889931" lon="8.8039888"><ele>952.0</ele><time>2026-05-01T11:24:25.137Z</time></trkpt><trkpt lat="44.4889636" lon="8.8038979"><ele>952.0</ele><time>2026-05-01T11:24:31.149Z</time></trkpt><trkpt lat="44.4889404" lon="8.8038036"><ele>952.0</ele><time>2026-05-01T11:24:37.142Z</time></trkpt><trkpt lat="44.4889178" lon="8.8037175"><ele>952.0</ele><time>2026-05-01T11:24:43.153Z</time></trkpt><trkpt lat="44.4888914" lon="8.8036307"><ele>952.0</ele><time>2026-05-01T11:24:49.16Z</time></trkpt><trkpt lat="44.4888741" lon="8.8035422"><ele>952.4285714285714</ele><time>2026-05-01T11:24:55.095Z</time></trkpt><trkpt lat="44.4888451" lon="8.803462"><ele>952.8571428571429</ele><time>2026-05-01T11:25:01.043Z</time></trkpt><trkpt lat="44.4888072" lon="8.8033906"><ele>953.2857142857142</ele><time>2026-05-01T11:25:07.148Z</time></trkpt><trkpt lat="44.4887555" lon="8.8033349"><ele>953.7142857142857</ele><time>2026-05-01T11:25:13.137Z</time></trkpt><trkpt lat="44.4886934" lon="8.8032958"><ele>954.1428571428571</ele><time>2026-05-01T11:25:19.078Z</time></trkpt><trkpt lat="44.488625" lon="8.803265"><ele>954.5714285714284</ele><time>2026-05-01T11:25:26.096Z</time></trkpt><trkpt lat="44.4885561" lon="8.8032494"><ele>954.9999999999999</ele><time>2026-05-01T11:25:33.137Z</time></trkpt><trkpt lat="44.4884911" lon="8.8032085"><ele>954.9999999999999</ele><time>2026-05-01T11:25:40.134Z</time></trkpt><trkpt lat="44.4884377" lon="8.8031581"><ele>955.0</ele><time>2026-05-01T11:25:46.135Z</time></trkpt><trkpt lat="44.4883779" lon="8.8031209"><ele>954.9999999999999</ele><time>2026-05-01T11:25:52.148Z</time></trkpt><trkpt lat="44.4883134" lon="8.8031003"><ele>954.9999999999999</ele><time>2026-05-01T11:25:58.078Z</time></trkpt><trkpt lat="44.4882415" lon="8.8030894"><ele>955.0</ele><time>2026-05-01T11:26:04.065Z</time></trkpt><trkpt lat="44.4881781" lon="8.8030749"><ele>954.9999999999999</ele><time>2026-05-01T11:26:10.135Z</time></trkpt><trkpt lat="44.4881088" lon="8.8030803"><ele>954.9999999999999</ele><time>2026-05-01T11:26:16.139Z</time></trkpt><trkpt lat="44.4880418" lon="8.8030994"><ele>954.9999999999999</ele><time>2026-05-01T11:26:22.141Z</time></trkpt><trkpt lat="44.4879742" lon="8.8031099"><ele>955.0</ele><time>2026-05-01T11:26:28.141Z</time></trkpt><trkpt lat="44.4879093" lon="8.803138"><ele>954.9999999999999</ele><time>2026-05-01T11:26:34.149Z</time></trkpt><trkpt lat="44.4878503" lon="8.8031838"><ele>954.9999999999999</ele><time>2026-05-01T11:26:40.175Z</time></trkpt><trkpt lat="44.4877793" lon="8.8031958"><ele>955.0</ele><time>2026-05-01T11:26:47.136Z</time></trkpt><trkpt lat="44.4877147" lon="8.8031913"><ele>954.9999999999999</ele><time>2026-05-01T11:26:53.165Z</time></trkpt><trkpt lat="44.4876485" lon="8.8031816"><ele>954.9999999999999</ele><time>2026-05-01T11:27:01.145Z</time></trkpt><trkpt lat="44.4875814" lon="8.8031534"><ele>954.7142857142856</ele><time>2026-05-01T11:27:09.102Z</time></trkpt><trkpt lat="44.4875147" lon="8.8031671"><ele>954.4285714285713</ele><time>2026-05-01T11:27:15.147Z</time></trkpt><trkpt lat="44.4874484" lon="8.8031567"><ele>954.1428571428571</ele><time>2026-05-01T11:27:21.122Z</time></trkpt><trkpt lat="44.4873823" lon="8.8031189"><ele>953.8571428571428</ele><time>2026-05-01T11:27:27.144Z</time></trkpt><trkpt lat="44.4873147" lon="8.8030901"><ele>953.5714285714284</ele><time>2026-05-01T11:27:34.143Z</time></trkpt><trkpt lat="44.4872438" lon="8.8030577"><ele>953.2857142857143</ele><time>2026-05-01T11:27:40.102Z</time></trkpt><trkpt lat="44.4871806" lon="8.8030421"><ele>953.0</ele><time>2026-05-01T11:27:46.058Z</time></trkpt><trkpt lat="44.4871191" lon="8.8030091"><ele>952.4285714285714</ele><time>2026-05-01T11:27:52.138Z</time></trkpt><trkpt lat="44.4870616" lon="8.8029713"><ele>951.8571428571429</ele><time>2026-05-01T11:27:58.149Z</time></trkpt><trkpt lat="44.4869999" lon="8.8029351"><ele>951.2857142857143</ele><time>2026-05-01T11:28:04.147Z</time></trkpt><trkpt lat="44.4869371" lon="8.8029114"><ele>950.7142857142858</ele><time>2026-05-01T11:28:10.149Z</time></trkpt><trkpt lat="44.4868645" lon="8.8028973"><ele>950.1428571428571</ele><time>2026-05-01T11:28:16.14Z</time></trkpt><trkpt lat="44.4867927" lon="8.8028766"><ele>949.5714285714287</ele><time>2026-05-01T11:28:22.138Z</time></trkpt><trkpt lat="44.4867238" lon="8.8028733"><ele>949.0000000000001</ele><time>2026-05-01T11:28:28.139Z</time></trkpt><trkpt lat="44.4866597" lon="8.802878"><ele>949.0000000000001</ele><time>2026-05-01T11:28:33.14Z</time></trkpt><trkpt lat="44.4865962" lon="8.8028916"><ele>949.0</ele><time>2026-05-01T11:28:38.124Z</time></trkpt><trkpt lat="44.4865251" lon="8.8029032"><ele>949.0000000000001</ele><time>2026-05-01T11:28:44.15Z</time></trkpt><trkpt lat="44.4864568" lon="8.8028995"><ele>949.0000000000001</ele><time>2026-05-01T11:28:50.134Z</time></trkpt><trkpt lat="44.4863914" lon="8.8028807"><ele>949.0</ele><time>2026-05-01T11:28:56.134Z</time></trkpt><trkpt lat="44.4863289" lon="8.8028421"><ele>949.0000000000001</ele><time>2026-05-01T11:29:02.149Z</time></trkpt><trkpt lat="44.4862661" lon="8.8027902"><ele>949.0000000000001</ele><time>2026-05-01T11:29:08.139Z</time></trkpt><trkpt lat="44.4861997" lon="8.8027532"><ele>948.5714285714287</ele><time>2026-05-01T11:29:14.137Z</time></trkpt><trkpt lat="44.4861358" lon="8.8027049"><ele>948.1428571428571</ele><time>2026-05-01T11:29:20.099Z</time></trkpt><trkpt lat="44.4860732" lon="8.8026605"><ele>947.7142857142858</ele><time>2026-05-01T11:29:26.14Z</time></trkpt><trkpt lat="44.4860054" lon="8.8026143"><ele>947.2857142857143</ele><time>2026-05-01T11:29:32.15Z</time></trkpt><trkpt lat="44.4859385" lon="8.8025813"><ele>946.8571428571429</ele><time>2026-05-01T11:29:38.144Z</time></trkpt><trkpt lat="44.4858696" lon="8.8025438"><ele>946.4285714285714</ele><time>2026-05-01T11:29:44.15Z</time></trkpt><trkpt lat="44.4858031" lon="8.8025102"><ele>946.0</ele><time>2026-05-01T11:29:50.137Z</time></trkpt><trkpt lat="44.4857463" lon="8.8024718"><ele>946.0</ele><time>2026-05-01T11:29:55.143Z</time></trkpt><trkpt lat="44.4856749" lon="8.8024424"><ele>946.0</ele><time>2026-05-01T11:30:01.137Z</time></trkpt><trkpt lat="44.4856127" lon="8.8024165"><ele>946.0</ele><time>2026-05-01T11:30:06.138Z</time></trkpt><trkpt lat="44.4855492" lon="8.8023925"><ele>946.0</ele><time>2026-05-01T11:30:12.042Z</time></trkpt><trkpt lat="44.4854833" lon="8.8023653"><ele>946.0</ele><time>2026-05-01T11:30:18.145Z</time></trkpt><trkpt lat="44.4854229" lon="8.8023304"><ele>946.0</ele><time>2026-05-01T11:30:24.145Z</time></trkpt><trkpt lat="44.4853613" lon="8.8022999"><ele>946.0</ele><time>2026-05-01T11:30:30.103Z</time></trkpt><trkpt lat="44.4852882" lon="8.8022854"><ele>946.1428571428571</ele><time>2026-05-01T11:30:37.144Z</time></trkpt><trkpt lat="44.485221" lon="8.8022806"><ele>946.2857142857142</ele><time>2026-05-01T11:30:43.14Z</time></trkpt><trkpt lat="44.4851519" lon="8.8022734"><ele>946.4285714285713</ele><time>2026-05-01T11:30:50.137Z</time></trkpt><trkpt lat="44.4850843" lon="8.8022775"><ele>946.5714285714286</ele><time>2026-05-01T11:30:57.149Z</time></trkpt><trkpt lat="44.4850113" lon="8.8022806"><ele>946.7142857142856</ele><time>2026-05-01T11:31:04.138Z</time></trkpt><trkpt lat="44.4849455" lon="8.8022947"><ele>946.8571428571428</ele><time>2026-05-01T11:31:11.155Z</time></trkpt><trkpt lat="44.4848729" lon="8.8023144"><ele>947.0</ele><time>2026-05-01T11:31:18.122Z</time></trkpt><trkpt lat="44.4848087" lon="8.8023164"><ele>947.0</ele><time>2026-05-01T11:31:24.134Z</time></trkpt><trkpt lat="44.4847374" lon="8.802322"><ele>946.9999999999999</ele><time>2026-05-01T11:31:31.151Z</time></trkpt><trkpt lat="44.4846754" lon="8.802362"><ele>947.0</ele><time>2026-05-01T11:31:37.15Z</time></trkpt><trkpt lat="44.4846233" lon="8.8024125"><ele>947.0</ele><time>2026-05-01T11:31:43.134Z</time></trkpt><trkpt lat="44.4845645" lon="8.8024675"><ele>946.9999999999999</ele><time>2026-05-01T11:31:49.139Z</time></trkpt><trkpt lat="44.4845032" lon="8.8024933"><ele>947.0</ele><time>2026-05-01T11:31:54.138Z</time></trkpt><trkpt lat="44.4844337" lon="8.8024886"><ele>947.0</ele><time>2026-05-01T11:32:00.137Z</time></trkpt><trkpt lat="44.4843617" lon="8.8024656"><ele>946.4285714285713</ele><time>2026-05-01T11:32:07.16Z</time></trkpt><trkpt lat="44.4843231" lon="8.8023814"><ele>945.8571428571428</ele><time>2026-05-01T11:32:15.041Z</time></trkpt><trkpt lat="44.4842702" lon="8.8023282"><ele>945.2857142857142</ele><time>2026-05-01T11:32:23.179Z</time></trkpt><trkpt lat="44.4842051" lon="8.8023176"><ele>944.7142857142858</ele><time>2026-05-01T11:32:30.147Z</time></trkpt><trkpt lat="44.4841382" lon="8.8023165"><ele>944.1428571428572</ele><time>2026-05-01T11:32:38.136Z</time></trkpt><trkpt lat="44.4840819" lon="8.8022671"><ele>943.5714285714287</ele><time>2026-05-01T11:32:46.141Z</time></trkpt><trkpt lat="44.4840103" lon="8.8022494"><ele>943.0</ele><time>2026-05-01T11:32:53.155Z</time></trkpt><trkpt lat="44.4839417" lon="8.8022317"><ele>943.0</ele><time>2026-05-01T11:33:01.14Z</time></trkpt><trkpt lat="44.4838846" lon="8.8021928"><ele>943.0000000000001</ele><time>2026-05-01T11:33:11.15Z</time></trkpt><trkpt lat="44.483837" lon="8.8021337"><ele>943.0</ele><time>2026-05-01T11:33:19.055Z</time></trkpt><trkpt lat="44.4837702" lon="8.8021228"><ele>943.0</ele><time>2026-05-01T11:33:28.15Z</time></trkpt><trkpt lat="44.4837053" lon="8.8020999"><ele>943.0000000000001</ele><time>2026-05-01T11:33:37.137Z</time></trkpt><trkpt lat="44.4836336" lon="8.8020937"><ele>943.0</ele><time>2026-05-01T11:33:44.14Z</time></trkpt><trkpt lat="44.4835706" lon="8.8020833"><ele>943.0</ele><time>2026-05-01T11:33:50.15Z</time></trkpt><trkpt lat="44.4834985" lon="8.8020784"><ele>941.7142857142858</ele><time>2026-05-01T11:33:57.148Z</time></trkpt><trkpt lat="44.4834307" lon="8.8020705"><ele>940.4285714285716</ele><time>2026-05-01T11:34:04.149Z</time></trkpt><trkpt lat="44.4833619" lon="8.8020426"><ele>939.1428571428571</ele><time>2026-05-01T11:34:11.118Z</time></trkpt><trkpt lat="44.483298" lon="8.8020264"><ele>937.8571428571429</ele><time>2026-05-01T11:34:18.137Z</time></trkpt><trkpt lat="44.4832279" lon="8.8020223"><ele>936.5714285714286</ele><time>2026-05-01T11:34:25.138Z</time></trkpt><trkpt lat="44.4831615" lon="8.802019"><ele>935.2857142857142</ele><time>2026-05-01T11:34:32.146Z</time></trkpt><trkpt lat="44.4831231" lon="8.8019446"><ele>933.9999999999999</ele><time>2026-05-01T11:35:31.15Z</time></trkpt><trkpt lat="44.4830789" lon="8.801868"><ele>933.9999999999999</ele><time>2026-05-01T11:35:37.136Z</time></trkpt><trkpt lat="44.4830296" lon="8.8017981"><ele>934.0</ele><time>2026-05-01T11:35:44.139Z</time></trkpt><trkpt lat="44.4829809" lon="8.8017289"><ele>933.9999999999999</ele><time>2026-05-01T11:35:52.147Z</time></trkpt><trkpt lat="44.4829179" lon="8.8016939"><ele>933.9999999999999</ele><time>2026-05-01T11:35:58.138Z</time></trkpt><trkpt lat="44.4828662" lon="8.8016359"><ele>934.0</ele><time>2026-05-01T11:36:04.151Z</time></trkpt><trkpt lat="44.4828263" lon="8.8015649"><ele>933.9999999999999</ele><time>2026-05-01T11:36:11.099Z</time></trkpt><trkpt lat="44.4827939" lon="8.8014847"><ele>933.9999999999999</ele><time>2026-05-01T11:36:18.141Z</time></trkpt><trkpt lat="44.4827421" lon="8.8014229"><ele>934.7142857142856</ele><time>2026-05-01T11:36:24.063Z</time></trkpt><trkpt lat="44.4826826" lon="8.8013695"><ele>935.4285714285713</ele><time>2026-05-01T11:36:31.15Z</time></trkpt><trkpt lat="44.4826209" lon="8.8013175"><ele>936.1428571428571</ele><time>2026-05-01T11:36:39.175Z</time></trkpt><trkpt lat="44.4825546" lon="8.8013091"><ele>936.8571428571428</ele><time>2026-05-01T11:36:47.154Z</time></trkpt><trkpt lat="44.4824898" lon="8.8013289"><ele>937.5714285714284</ele><time>2026-05-01T11:36:53.138Z</time></trkpt><trkpt lat="44.4824245" lon="8.8013515"><ele>938.2857142857143</ele><time>2026-05-01T11:37:00.15Z</time></trkpt><trkpt lat="44.4823545" lon="8.8013479"><ele>939.0</ele><time>2026-05-01T11:37:07.136Z</time></trkpt><trkpt lat="44.4822894" lon="8.8013334"><ele>939.0</ele><time>2026-05-01T11:37:13.119Z</time></trkpt><trkpt lat="44.4822267" lon="8.8013099"><ele>939.0</ele><time>2026-05-01T11:37:30.138Z</time></trkpt><trkpt lat="44.4821697" lon="8.8012638"><ele>939.0</ele><time>2026-05-01T11:37:35.14Z</time></trkpt><trkpt lat="44.4821002" lon="8.8012647"><ele>939.0</ele><time>2026-05-01T11:37:41.144Z</time></trkpt><trkpt lat="44.4820399" lon="8.8012967"><ele>939.0</ele><time>2026-05-01T11:37:46.148Z</time></trkpt><trkpt lat="44.4819976" lon="8.801227"><ele>939.0</ele><time>2026-05-01T11:37:55.151Z</time></trkpt><trkpt lat="44.4820372" lon="8.8011422"><ele>939.0</ele><time>2026-05-01T11:38:04.148Z</time></trkpt><trkpt lat="44.4820772" lon="8.8010709"><ele>940.5714285714287</ele><time>2026-05-01T11:38:11.139Z</time></trkpt><trkpt lat="44.4821116" lon="8.8009949"><ele>942.1428571428571</ele><time>2026-05-01T11:38:19.142Z</time></trkpt><trkpt lat="44.4821187" lon="8.8009041"><ele>943.7142857142858</ele><time>2026-05-01T11:38:28.149Z</time></trkpt><trkpt lat="44.4820576" lon="8.8008717"><ele>945.2857142857143</ele><time>2026-05-01T11:38:36.138Z</time></trkpt><trkpt lat="44.4819939" lon="8.800834"><ele>946.8571428571429</ele><time>2026-05-01T11:38:44.136Z</time></trkpt><trkpt lat="44.4819314" lon="8.8007841"><ele>948.4285714285714</ele><time>2026-05-01T11:38:52.154Z</time></trkpt><trkpt lat="44.481881" lon="8.8007203"><ele>950.0</ele><time>2026-05-01T11:38:57.143Z</time></trkpt><trkpt lat="44.4818249" lon="8.800663"><ele>951.7142857142858</ele><time>2026-05-01T11:39:03.149Z</time></trkpt><trkpt lat="44.4817676" lon="8.8006119"><ele>953.4285714285716</ele><time>2026-05-01T11:39:10.149Z</time></trkpt><trkpt lat="44.4817244" lon="8.8005392"><ele>955.1428571428571</ele><time>2026-05-01T11:39:18.136Z</time></trkpt><trkpt lat="44.4816591" lon="8.8004967"><ele>956.8571428571429</ele><time>2026-05-01T11:39:27.072Z</time></trkpt><trkpt lat="44.4815931" lon="8.800476"><ele>958.5714285714286</ele><time>2026-05-01T11:39:34.136Z</time></trkpt><trkpt lat="44.4815296" lon="8.8004902"><ele>960.2857142857142</ele><time>2026-05-01T11:39:41.138Z</time></trkpt><trkpt lat="44.4814642" lon="8.800474"><ele>961.9999999999999</ele><time>2026-05-01T11:39:48.171Z</time></trkpt><trkpt lat="44.4813933" lon="8.8004392"><ele>961.9999999999999</ele><time>2026-05-01T11:39:57.15Z</time></trkpt><trkpt lat="44.4813439" lon="8.8003643"><ele>962.0</ele><time>2026-05-01T11:40:02.143Z</time></trkpt><trkpt lat="44.4813101" lon="8.8002839"><ele>961.9999999999999</ele><time>2026-05-01T11:40:07.037Z</time></trkpt><trkpt lat="44.4812746" lon="8.8002095"><ele>961.9999999999999</ele><time>2026-05-01T11:40:17.141Z</time></trkpt><trkpt lat="44.4813024" lon="8.8001159"><ele>962.0</ele><time>2026-05-01T11:40:27.117Z</time></trkpt><trkpt lat="44.4812526" lon="8.8000527"><ele>961.9999999999999</ele><time>2026-05-01T11:40:38.148Z</time></trkpt><trkpt lat="44.4811842" lon="8.8000465"><ele>961.9999999999999</ele><time>2026-05-01T11:40:44.149Z</time></trkpt><trkpt lat="44.4811299" lon="8.800102"><ele>964.7142857142856</ele><time>2026-05-01T11:40:49.147Z</time></trkpt><trkpt lat="44.4810696" lon="8.8000606"><ele>967.4285714285713</ele><time>2026-05-01T11:41:00.137Z</time></trkpt><trkpt lat="44.4810035" lon="8.8000666"><ele>970.1428571428571</ele><time>2026-05-01T11:41:09.141Z</time></trkpt><trkpt lat="44.4809366" lon="8.8000726"><ele>972.8571428571428</ele><time>2026-05-01T11:41:17.141Z</time></trkpt><trkpt lat="44.4808711" lon="8.800082"><ele>975.5714285714284</ele><time>2026-05-01T11:41:26.101Z</time></trkpt><trkpt lat="44.4808035" lon="8.8000668"><ele>978.2857142857143</ele><time>2026-05-01T11:41:32.155Z</time></trkpt><trkpt lat="44.4807376" lon="8.8000225"><ele>981.0</ele><time>2026-05-01T11:41:37.143Z</time></trkpt><trkpt lat="44.4806651" lon="8.8000061"><ele>981.0</ele><time>2026-05-01T11:41:43.139Z</time></trkpt><trkpt lat="44.4806001" lon="8.8000238"><ele>981.0</ele><time>2026-05-01T11:41:48.161Z</time></trkpt><trkpt lat="44.4805452" lon="8.8000879"><ele>981.0</ele><time>2026-05-01T11:41:55.141Z</time></trkpt><trkpt lat="44.4804895" lon="8.8001427"><ele>981.0</ele><time>2026-05-01T11:42:02.14Z</time></trkpt><trkpt lat="44.4804349" lon="8.8002104"><ele>981.0</ele><time>2026-05-01T11:42:09.12Z</time></trkpt><trkpt lat="44.4803686" lon="8.800264"><ele>981.0</ele><time>2026-05-01T11:42:16.139Z</time></trkpt><trkpt lat="44.4803014" lon="8.8002677"><ele>981.0</ele><time>2026-05-01T11:42:22.148Z</time></trkpt><trkpt lat="44.4802388" lon="8.8002351"><ele>980.7142857142858</ele><time>2026-05-01T11:42:34.177Z</time></trkpt><trkpt lat="44.4801677" lon="8.8002359"><ele>980.4285714285713</ele><time>2026-05-01T11:43:17.142Z</time></trkpt><trkpt lat="44.4801209" lon="8.8001767"><ele>980.1428571428571</ele><time>2026-05-01T11:43:23.14Z</time></trkpt><trkpt lat="44.4800848" lon="8.8001041"><ele>979.8571428571429</ele><time>2026-05-01T11:43:31.141Z</time></trkpt><trkpt lat="44.4801317" lon="8.8000397"><ele>979.5714285714287</ele><time>2026-05-01T11:45:14.16Z</time></trkpt><trkpt lat="44.4800986" lon="8.7999606"><ele>979.2857142857142</ele><time>2026-05-01T12:09:36.14Z</time></trkpt><trkpt lat="44.4801053" lon="8.7998701"><ele>979.0</ele><time>2026-05-01T12:09:44.151Z</time></trkpt><trkpt lat="44.4800674" lon="8.7997855"><ele>979.0</ele><time>2026-05-01T12:09:49.165Z</time></trkpt><trkpt lat="44.4800837" lon="8.7996872"><ele>979.0</ele><time>2026-05-01T12:09:56.148Z</time></trkpt><trkpt lat="44.4801126" lon="8.7996014"><ele>979.0</ele><time>2026-05-01T12:10:03.15Z</time></trkpt><trkpt lat="44.4801498" lon="8.7995155"><ele>979.0</ele><time>2026-05-01T12:10:11.14Z</time></trkpt><trkpt lat="44.4802023" lon="8.7994608"><ele>979.0</ele><time>2026-05-01T12:10:17.141Z</time></trkpt><trkpt lat="44.4802038" lon="8.7993706"><ele>979.0</ele><time>2026-05-01T12:10:24.14Z</time></trkpt><trkpt lat="44.4802024" lon="8.7992796"><ele>979.0</ele><time>2026-05-01T12:10:31.14Z</time></trkpt><trkpt lat="44.4801373" lon="8.7992342"><ele>979.0</ele><time>2026-05-01T12:10:40.148Z</time></trkpt><trkpt lat="44.4800905" lon="8.7991693"><ele>979.0</ele><time>2026-05-01T12:10:47.138Z</time></trkpt><trkpt lat="44.4800772" lon="8.7990708"><ele>979.0</ele><time>2026-05-01T12:10:55.152Z</time></trkpt><trkpt lat="44.4801057" lon="8.7989788"><ele>979.0</ele><time>2026-05-01T12:11:02.144Z</time></trkpt><trkpt lat="44.4801115" lon="8.7988816"><ele>979.0</ele><time>2026-05-01T12:11:09.095Z</time></trkpt><trkpt lat="44.4801276" lon="8.7987873"><ele>979.0</ele><time>2026-05-01T12:11:16.134Z</time></trkpt><trkpt lat="44.4801504" lon="8.7986922"><ele>979.0</ele><time>2026-05-01T12:11:22.149Z</time></trkpt><trkpt lat="44.4801713" lon="8.7986021"><ele>979.0</ele><time>2026-05-01T12:11:28.136Z</time></trkpt><trkpt lat="44.4802056" lon="8.7985169"><ele>979.0</ele><time>2026-05-01T12:11:35.148Z</time></trkpt><trkpt lat="44.4802218" lon="8.7984182"><ele>979.0</ele><time>2026-05-01T12:11:42.142Z</time></trkpt><trkpt lat="44.4802364" lon="8.7983306"><ele>979.0</ele><time>2026-05-01T12:11:48.153Z</time></trkpt><trkpt lat="44.4802395" lon="8.7982398"><ele>979.0</ele><time>2026-05-01T12:11:54.143Z</time></trkpt><trkpt lat="44.4802148" lon="8.7981446"><ele>979.0</ele><time>2026-05-01T12:12:00.138Z</time></trkpt><trkpt lat="44.4801984" lon="8.7980433"><ele>979.0</ele><time>2026-05-01T12:12:07.115Z</time></trkpt><trkpt lat="44.4801501" lon="8.7979685"><ele>978.2857142857142</ele><time>2026-05-01T12:12:14.147Z</time></trkpt><trkpt lat="44.480093" lon="8.797911"><ele>977.5714285714287</ele><time>2026-05-01T12:12:21.146Z</time></trkpt><trkpt lat="44.480061" lon="8.7978254"><ele>976.8571428571429</ele><time>2026-05-01T12:12:28.133Z</time></trkpt><trkpt lat="44.4800134" lon="8.7977662"><ele>976.1428571428571</ele><time>2026-05-01T12:12:36.134Z</time></trkpt><trkpt lat="44.4799767" lon="8.7976929"><ele>975.4285714285713</ele><time>2026-05-01T12:12:42.076Z</time></trkpt><trkpt lat="44.4799831" lon="8.797589"><ele>974.7142857142858</ele><time>2026-05-01T12:12:49.09Z</time></trkpt><trkpt lat="44.4799992" lon="8.7975001"><ele>974.0</ele><time>2026-05-01T12:12:55.141Z</time></trkpt><trkpt lat="44.4799783" lon="8.7974139"><ele>974.0</ele><time>2026-05-01T12:13:01.139Z</time></trkpt><trkpt lat="44.47996" lon="8.7973282"><ele>974.0</ele><time>2026-05-01T12:13:07.138Z</time></trkpt><trkpt lat="44.4799125" lon="8.7972695"><ele>974.0</ele><time>2026-05-01T12:13:12.145Z</time></trkpt><trkpt lat="44.4798806" lon="8.7971815"><ele>974.0</ele><time>2026-05-01T12:13:19.102Z</time></trkpt><trkpt lat="44.479846" lon="8.7971023"><ele>974.0</ele><time>2026-05-01T12:13:27.154Z</time></trkpt><trkpt lat="44.4798391" lon="8.7970092"><ele>974.0</ele><time>2026-05-01T12:13:34.138Z</time></trkpt><trkpt lat="44.4798403" lon="8.7969097"><ele>974.0</ele><time>2026-05-01T12:13:41.14Z</time></trkpt><trkpt lat="44.479854" lon="8.7968194"><ele>974.0</ele><time>2026-05-01T12:13:47.146Z</time></trkpt><trkpt lat="44.4798703" lon="8.7967314"><ele>974.0</ele><time>2026-05-01T12:13:54.137Z</time></trkpt><trkpt lat="44.4798216" lon="8.7966619"><ele>974.0</ele><time>2026-05-01T12:14:01.159Z</time></trkpt><trkpt lat="44.4797836" lon="8.7965891"><ele>974.0</ele><time>2026-05-01T12:14:08.149Z</time></trkpt><trkpt lat="44.4797674" lon="8.7965011"><ele>974.0</ele><time>2026-05-01T12:14:16.137Z</time></trkpt><trkpt lat="44.4797561" lon="8.7964106"><ele>974.0</ele><time>2026-05-01T12:14:23.142Z</time></trkpt><trkpt lat="44.4797704" lon="8.7963149"><ele>974.0</ele><time>2026-05-01T12:14:32.138Z</time></trkpt><trkpt lat="44.4797529" lon="8.7962244"><ele>974.0</ele><time>2026-05-01T12:14:41.139Z</time></trkpt><trkpt lat="44.4798141" lon="8.7961805"><ele>974.0</ele><time>2026-05-01T12:14:55.14Z</time></trkpt><trkpt lat="44.4798142" lon="8.7960862"><ele>974.0</ele><time>2026-05-01T12:15:03.14Z</time></trkpt><trkpt lat="44.4798596" lon="8.7960126"><ele>974.0</ele><time>2026-05-01T12:15:13.075Z</time></trkpt><trkpt lat="44.479881" lon="8.7959275"><ele>974.0</ele><time>2026-05-01T12:15:20.149Z</time></trkpt><trkpt lat="44.4798767" lon="8.7958332"><ele>974.0</ele><time>2026-05-01T12:15:27.154Z</time></trkpt><trkpt lat="44.4798949" lon="8.7957447"><ele>974.0</ele><time>2026-05-01T12:15:34.08Z</time></trkpt><trkpt lat="44.4799004" lon="8.795653"><ele>974.2857142857143</ele><time>2026-05-01T12:15:43.139Z</time></trkpt><trkpt lat="44.4799073" lon="8.7955523"><ele>974.5714285714284</ele><time>2026-05-01T12:15:48.139Z</time></trkpt><trkpt lat="44.4798871" lon="8.7954576"><ele>974.8571428571428</ele><time>2026-05-01T12:15:53.098Z</time></trkpt><trkpt lat="44.4798624" lon="8.7953672"><ele>975.1428571428571</ele><time>2026-05-01T12:15:59.147Z</time></trkpt><trkpt lat="44.4798396" lon="8.7952813"><ele>975.4285714285713</ele><time>2026-05-01T12:16:05.14Z</time></trkpt><trkpt lat="44.4798297" lon="8.7951831"><ele>975.7142857142856</ele><time>2026-05-01T12:16:11.148Z</time></trkpt><trkpt lat="44.479794" lon="8.7951065"><ele>975.9999999999999</ele><time>2026-05-01T12:16:18.147Z</time></trkpt><trkpt lat="44.4797633" lon="8.7950249"><ele>975.9999999999999</ele><time>2026-05-01T12:16:25.147Z</time></trkpt><trkpt lat="44.4797267" lon="8.794942"><ele>976.0</ele><time>2026-05-01T12:16:31.05Z</time></trkpt><trkpt lat="44.4797018" lon="8.7948437"><ele>975.9999999999999</ele><time>2026-05-01T12:16:38.139Z</time></trkpt><trkpt lat="44.4796613" lon="8.7947645"><ele>975.9999999999999</ele><time>2026-05-01T12:16:44.153Z</time></trkpt><trkpt lat="44.4796241" lon="8.7946881"><ele>976.0</ele><time>2026-05-01T12:16:50.138Z</time></trkpt><trkpt lat="44.4796167" lon="8.794588"><ele>975.9999999999999</ele><time>2026-05-01T12:16:57.154Z</time></trkpt><trkpt lat="44.4795969" lon="8.7944922"><ele>975.9999999999999</ele><time>2026-05-01T12:17:03.061Z</time></trkpt><trkpt lat="44.4795737" lon="8.7943975"><ele>976.9999999999999</ele><time>2026-05-01T12:17:09.145Z</time></trkpt><trkpt lat="44.479535" lon="8.7943114"><ele>978.0</ele><time>2026-05-01T12:17:15.139Z</time></trkpt><trkpt lat="44.4794805" lon="8.7942499"><ele>978.9999999999999</ele><time>2026-05-01T12:17:22.15Z</time></trkpt><trkpt lat="44.4794429" lon="8.7941657"><ele>979.9999999999999</ele><time>2026-05-01T12:17:30.142Z</time></trkpt><trkpt lat="44.4794078" lon="8.7940811"><ele>981.0</ele><time>2026-05-01T12:17:37.141Z</time></trkpt><trkpt lat="44.4793733" lon="8.7939993"><ele>981.9999999999999</ele><time>2026-05-01T12:17:43.122Z</time></trkpt><trkpt lat="44.4793509" lon="8.7939035"><ele>982.9999999999999</ele><time>2026-05-01T12:17:50.151Z</time></trkpt><trkpt lat="44.479333" lon="8.7938058"><ele>982.9999999999999</ele><time>2026-05-01T12:17:57.156Z</time></trkpt><trkpt lat="44.4793159" lon="8.7937156"><ele>983.0</ele><time>2026-05-01T12:18:03.146Z</time></trkpt><trkpt lat="44.4792917" lon="8.7936316"><ele>982.9999999999999</ele><time>2026-05-01T12:18:09.159Z</time></trkpt><trkpt lat="44.4792863" lon="8.7935304"><ele>982.9999999999999</ele><time>2026-05-01T12:18:16.14Z</time></trkpt><trkpt lat="44.4793369" lon="8.7934539"><ele>983.0</ele><time>2026-05-01T12:18:22.148Z</time></trkpt><trkpt lat="44.4793662" lon="8.7933664"><ele>982.9999999999999</ele><time>2026-05-01T12:18:29.146Z</time></trkpt><trkpt lat="44.4793607" lon="8.7932642"><ele>982.9999999999999</ele><time>2026-05-01T12:18:37.146Z</time></trkpt><trkpt lat="44.4793333" lon="8.793183"><ele>982.142857142857</ele><time>2026-05-01T12:18:42.189Z</time></trkpt><trkpt lat="44.4793317" lon="8.7930872"><ele>981.2857142857142</ele><time>2026-05-01T12:18:48.119Z</time></trkpt><trkpt lat="44.4793279" lon="8.7929783"><ele>980.4285714285714</ele><time>2026-05-01T12:18:55.097Z</time></trkpt><trkpt lat="44.4793268" lon="8.7928774"><ele>979.5714285714286</ele><time>2026-05-01T12:19:02.139Z</time></trkpt><trkpt lat="44.4792901" lon="8.7927982"><ele>978.7142857142858</ele><time>2026-05-01T12:19:08.138Z</time></trkpt><trkpt lat="44.4792795" lon="8.7926989"><ele>977.857142857143</ele><time>2026-05-01T12:19:14.159Z</time></trkpt><trkpt lat="44.4793066" lon="8.7926157"><ele>977.0000000000001</ele><time>2026-05-01T12:19:20.139Z</time></trkpt><trkpt lat="44.4793127" lon="8.7925216"><ele>975.7142857142858</ele><time>2026-05-01T12:19:27.06Z</time></trkpt><trkpt lat="44.479251" lon="8.7924978"><ele>974.4285714285714</ele><time>2026-05-01T12:19:35.141Z</time></trkpt><trkpt lat="44.4792393" lon="8.7924103"><ele>973.1428571428571</ele><time>2026-05-01T12:19:47.042Z</time></trkpt><trkpt lat="44.4792709" lon="8.7923191"><ele>971.8571428571429</ele><time>2026-05-01T12:19:55.083Z</time></trkpt><trkpt lat="44.4792984" lon="8.7922379"><ele>970.5714285714284</ele><time>2026-05-01T12:20:02.148Z</time></trkpt><trkpt lat="44.47929" lon="8.7921459"><ele>969.2857142857142</ele><time>2026-05-01T12:20:10.121Z</time></trkpt><trkpt lat="44.4792018" lon="8.7921313"><ele>968.0</ele><time>2026-05-01T12:20:34.138Z</time></trkpt><trkpt lat="44.4791521" lon="8.7921955"><ele>968.0000000000001</ele><time>2026-05-01T12:20:44.078Z</time></trkpt><trkpt lat="44.479196" lon="8.7920631"><ele>968.0</ele><time>2026-05-01T12:21:21.14Z</time></trkpt><trkpt lat="44.4792296" lon="8.7919643"><ele>968.0</ele><time>2026-05-01T12:21:26.136Z</time></trkpt><trkpt lat="44.4792391" lon="8.7918624"><ele>968.0</ele><time>2026-05-01T12:21:31.147Z</time></trkpt><trkpt lat="44.4792415" lon="8.7917628"><ele>968.0000000000001</ele><time>2026-05-01T12:21:38.143Z</time></trkpt><trkpt lat="44.4793012" lon="8.7917341"><ele>968.0</ele><time>2026-05-01T12:22:14.099Z</time></trkpt><trkpt lat="44.479289" lon="8.7916393"><ele>966.5000000000001</ele><time>2026-05-01T12:22:18.141Z</time></trkpt><trkpt lat="44.4792958" lon="8.7915413"><ele>965.0</ele><time>2026-05-01T12:22:24.057Z</time></trkpt><trkpt lat="44.4792942" lon="8.7914529"><ele>963.5</ele><time>2026-05-01T12:22:30.144Z</time></trkpt><trkpt lat="44.4792647" lon="8.7913588"><ele>962.0</ele><time>2026-05-01T12:22:36.099Z</time></trkpt><trkpt lat="44.4792391" lon="8.7912737"><ele>960.5000000000001</ele><time>2026-05-01T12:22:42.137Z</time></trkpt><trkpt lat="44.4792301" lon="8.7911193"><ele>959.0</ele><time>2026-05-01T12:23:55.148Z</time></trkpt><trkpt lat="44.4791894" lon="8.7910301"><ele>958.7142857142858</ele><time>2026-05-01T12:23:59.152Z</time></trkpt><trkpt lat="44.479159" lon="8.7909428"><ele>958.4285714285714</ele><time>2026-05-01T12:24:04.142Z</time></trkpt><trkpt lat="44.4790991" lon="8.7908843"><ele>958.1428571428571</ele><time>2026-05-01T12:24:10.137Z</time></trkpt><trkpt lat="44.4790474" lon="8.7908211"><ele>957.8571428571429</ele><time>2026-05-01T12:24:17.147Z</time></trkpt><trkpt lat="44.4790052" lon="8.7907551"><ele>957.5714285714287</ele><time>2026-05-01T12:24:23.064Z</time></trkpt><trkpt lat="44.4789661" lon="8.7906788"><ele>957.2857142857143</ele><time>2026-05-01T12:24:28.165Z</time></trkpt><trkpt lat="44.478968" lon="8.7905863"><ele>957.0</ele><time>2026-05-01T12:24:37.148Z</time></trkpt><trkpt lat="44.4789645" lon="8.7904912"><ele>957.0</ele><time>2026-05-01T12:24:45.14Z</time></trkpt><trkpt lat="44.4789454" lon="8.7904"><ele>957.0000000000001</ele><time>2026-05-01T12:24:52.152Z</time></trkpt><trkpt lat="44.4789025" lon="8.7903253"><ele>957.0</ele><time>2026-05-01T12:24:58.144Z</time></trkpt><trkpt lat="44.4788621" lon="8.7902481"><ele>957.0</ele><time>2026-05-01T12:25:04.143Z</time></trkpt><trkpt lat="44.4788178" lon="8.7901637"><ele>957.0000000000001</ele><time>2026-05-01T12:25:10.143Z</time></trkpt><trkpt lat="44.4787892" lon="8.7900788"><ele>957.0</ele><time>2026-05-01T12:25:17.138Z</time></trkpt><trkpt lat="44.4787354" lon="8.7900329"><ele>957.0</ele><time>2026-05-01T12:25:32.151Z</time></trkpt><trkpt lat="44.4786772" lon="8.7899986"><ele>956.5714285714287</ele><time>2026-05-01T12:25:40.041Z</time></trkpt><trkpt lat="44.4786405" lon="8.7899242"><ele>956.1428571428572</ele><time>2026-05-01T12:25:55.119Z</time></trkpt><trkpt lat="44.4785834" lon="8.789884"><ele>955.7142857142858</ele><time>2026-05-01T12:26:07.144Z</time></trkpt><trkpt lat="44.4785281" lon="8.7898257"><ele>955.2857142857142</ele><time>2026-05-01T12:26:13.145Z</time></trkpt><trkpt lat="44.4784721" lon="8.7897792"><ele>954.8571428571428</ele><time>2026-05-01T12:26:18.12Z</time></trkpt><trkpt lat="44.4784226" lon="8.7897048"><ele>954.4285714285713</ele><time>2026-05-01T12:26:24.14Z</time></trkpt><trkpt lat="44.478393" lon="8.7896256"><ele>954.0</ele><time>2026-05-01T12:26:43.168Z</time></trkpt><trkpt lat="44.4783304" lon="8.7895943"><ele>954.0</ele><time>2026-05-01T12:27:05.161Z</time></trkpt><trkpt lat="44.4783416" lon="8.7895044"><ele>954.0</ele><time>2026-05-01T12:27:26.141Z</time></trkpt><trkpt lat="44.4782891" lon="8.7894378"><ele>954.0</ele><time>2026-05-01T12:27:38.176Z</time></trkpt><trkpt lat="44.4782832" lon="8.7892993"><ele>954.0</ele><time>2026-05-01T12:28:09.166Z</time></trkpt><trkpt lat="44.4782937" lon="8.7891995"><ele>954.0</ele><time>2026-05-01T12:28:56.139Z</time></trkpt><trkpt lat="44.4782691" lon="8.7890857"><ele>954.0</ele><time>2026-05-01T12:29:52.08Z</time></trkpt><trkpt lat="44.4783089" lon="8.7890138"><ele>954.0</ele><time>2026-05-01T12:32:13.168Z</time></trkpt><trkpt lat="44.478267" lon="8.7890798"><ele>953.9999999999999</ele><time>2026-05-01T12:34:27.149Z</time></trkpt><trkpt lat="44.478276" lon="8.7891702"><ele>954.0</ele><time>2026-05-01T12:34:46.135Z</time></trkpt><trkpt lat="44.4783036" lon="8.7892518"><ele>954.0</ele><time>2026-05-01T12:35:03.136Z</time></trkpt><trkpt lat="44.4783341" lon="8.7893323"><ele>953.9999999999999</ele><time>2026-05-01T12:35:22.204Z</time></trkpt><trkpt lat="44.478376" lon="8.7893988"><ele>954.0</ele><time>2026-05-01T12:35:32.155Z</time></trkpt><trkpt lat="44.4783847" lon="8.7894888"><ele>954.0</ele><time>2026-05-01T12:35:52.142Z</time></trkpt><trkpt lat="44.4784371" lon="8.7895473"><ele>954.0</ele><time>2026-05-01T12:36:19.162Z</time></trkpt><trkpt lat="44.4784275" lon="8.7896682"><ele>953.9999999999999</ele><time>2026-05-01T12:37:35.14Z</time></trkpt><trkpt lat="44.4784582" lon="8.7897542"><ele>954.0</ele><time>2026-05-01T12:37:54.143Z</time></trkpt><trkpt lat="44.4784856" lon="8.7898367"><ele>954.0</ele><time>2026-05-01T12:37:59.143Z</time></trkpt><trkpt lat="44.4785399" lon="8.7899003"><ele>953.9999999999999</ele><time>2026-05-01T12:38:06.155Z</time></trkpt><trkpt lat="44.4786069" lon="8.7898811"><ele>954.0</ele><time>2026-05-01T12:38:13.148Z</time></trkpt><trkpt lat="44.4786537" lon="8.7899523"><ele>954.0</ele><time>2026-05-01T12:38:35.118Z</time></trkpt><trkpt lat="44.4786811" lon="8.7900332"><ele>954.0</ele><time>2026-05-01T12:38:41.044Z</time></trkpt><trkpt lat="44.4787359" lon="8.7900955"><ele>953.9999999999999</ele><time>2026-05-01T12:38:48.136Z</time></trkpt><trkpt lat="44.4787733" lon="8.7901814"><ele>954.0</ele><time>2026-05-01T12:39:12.152Z</time></trkpt><trkpt lat="44.4788195" lon="8.7902646"><ele>954.0</ele><time>2026-05-01T12:39:19.105Z</time></trkpt><trkpt lat="44.4788729" lon="8.7903167"><ele>953.9999999999999</ele><time>2026-05-01T12:39:27.063Z</time></trkpt><trkpt lat="44.4789185" lon="8.7903859"><ele>954.0</ele><time>2026-05-01T12:39:33.14Z</time></trkpt><trkpt lat="44.4789575" lon="8.7904611"><ele>954.0</ele><time>2026-05-01T12:39:38.147Z</time></trkpt><trkpt lat="44.4789877" lon="8.7905462"><ele>954.4285714285713</ele><time>2026-05-01T12:39:43.138Z</time></trkpt><trkpt lat="44.4790008" lon="8.7906426"><ele>954.8571428571428</ele><time>2026-05-01T12:39:49.141Z</time></trkpt><trkpt lat="44.4790395" lon="8.7907282"><ele>955.2857142857142</ele><time>2026-05-01T12:39:56.142Z</time></trkpt><trkpt lat="44.4790719" lon="8.7908157"><ele>955.7142857142858</ele><time>2026-05-01T12:40:03.148Z</time></trkpt><trkpt lat="44.4791225" lon="8.790869"><ele>956.1428571428572</ele><time>2026-05-01T12:40:09.139Z</time></trkpt><trkpt lat="44.4791734" lon="8.7909378"><ele>956.5714285714287</ele><time>2026-05-01T12:40:16.143Z</time></trkpt><trkpt lat="44.479205" lon="8.7910159"><ele>957.0</ele><time>2026-05-01T12:40:24.14Z</time></trkpt><trkpt lat="44.4792325" lon="8.7911059"><ele>957.2857142857143</ele><time>2026-05-01T12:40:32.139Z</time></trkpt><trkpt lat="44.4792645" lon="8.7911897"><ele>957.5714285714287</ele><time>2026-05-01T12:40:38.116Z</time></trkpt><trkpt lat="44.4792751" lon="8.7912808"><ele>957.8571428571429</ele><time>2026-05-01T12:40:44.142Z</time></trkpt><trkpt lat="44.4792973" lon="8.7913784"><ele>958.1428571428571</ele><time>2026-05-01T12:40:50.142Z</time></trkpt><trkpt lat="44.4793137" lon="8.7914688"><ele>958.4285714285714</ele><time>2026-05-01T12:40:56.136Z</time></trkpt><trkpt lat="44.4792935" lon="8.791555"><ele>958.7142857142858</ele><time>2026-05-01T12:41:04.143Z</time></trkpt><trkpt lat="44.4792738" lon="8.7916406"><ele>959.0</ele><time>2026-05-01T12:41:20.144Z</time></trkpt><trkpt lat="44.4792647" lon="8.7917403"><ele>959.0</ele><time>2026-05-01T12:41:27.143Z</time></trkpt><trkpt lat="44.4792717" lon="8.7918298"><ele>959.0</ele><time>2026-05-01T12:41:33.141Z</time></trkpt><trkpt lat="44.4792582" lon="8.7919222"><ele>959.0</ele><time>2026-05-01T12:41:40.095Z</time></trkpt><trkpt lat="44.4792366" lon="8.7920102"><ele>959.0</ele><time>2026-05-01T12:41:55.14Z</time></trkpt><trkpt lat="44.4792025" lon="8.7920856"><ele>959.0</ele><time>2026-05-01T12:42:04.097Z</time></trkpt><trkpt lat="44.4792001" lon="8.7921807"><ele>959.0</ele><time>2026-05-01T12:42:16.138Z</time></trkpt><trkpt lat="44.479175" lon="8.7922723"><ele>959.0</ele><time>2026-05-01T12:42:27.139Z</time></trkpt><trkpt lat="44.4791712" lon="8.7923628"><ele>960.2857142857142</ele><time>2026-05-01T12:42:37.14Z</time></trkpt><trkpt lat="44.4791945" lon="8.7924493"><ele>961.5714285714286</ele><time>2026-05-01T12:42:58.136Z</time></trkpt><trkpt lat="44.4792522" lon="8.7924898"><ele>962.8571428571429</ele><time>2026-05-01T12:43:09.14Z</time></trkpt><trkpt lat="44.4793162" lon="8.7924668"><ele>964.1428571428571</ele><time>2026-05-01T12:43:23.143Z</time></trkpt><trkpt lat="44.4793297" lon="8.7925599"><ele>965.4285714285713</ele><time>2026-05-01T12:43:38.138Z</time></trkpt><trkpt lat="44.4793331" lon="8.7926562"><ele>966.7142857142857</ele><time>2026-05-01T12:43:51.138Z</time></trkpt><trkpt lat="44.4793049" lon="8.7927368"><ele>968.0</ele><time>2026-05-01T12:44:07.151Z</time></trkpt><trkpt lat="44.4793184" lon="8.7928301"><ele>969.2857142857142</ele><time>2026-05-01T12:44:17.159Z</time></trkpt><trkpt lat="44.4793377" lon="8.7929319"><ele>970.5714285714284</ele><time>2026-05-01T12:44:23.139Z</time></trkpt><trkpt lat="44.4793392" lon="8.7930307"><ele>971.8571428571429</ele><time>2026-05-01T12:44:30.145Z</time></trkpt><trkpt lat="44.4793367" lon="8.793124"><ele>973.1428571428571</ele><time>2026-05-01T12:44:37.154Z</time></trkpt><trkpt lat="44.4793303" lon="8.7932137"><ele>974.4285714285714</ele><time>2026-05-01T12:44:46.143Z</time></trkpt><trkpt lat="44.4793507" lon="8.7933061"><ele>975.7142857142858</ele><time>2026-05-01T12:44:56.135Z</time></trkpt><trkpt lat="44.4793538" lon="8.7934013"><ele>977.0000000000001</ele><time>2026-05-01T12:45:04.101Z</time></trkpt><trkpt lat="44.4793431" lon="8.7934957"><ele>977.857142857143</ele><time>2026-05-01T12:45:11.15Z</time></trkpt><trkpt lat="44.4793297" lon="8.7935901"><ele>978.7142857142858</ele><time>2026-05-01T12:45:20.063Z</time></trkpt><trkpt lat="44.4793693" lon="8.7936689"><ele>979.5714285714286</ele><time>2026-05-01T12:45:27.144Z</time></trkpt><trkpt lat="44.4794086" lon="8.7937381"><ele>980.4285714285714</ele><time>2026-05-01T12:45:33.182Z</time></trkpt><trkpt lat="44.4794236" lon="8.7938264"><ele>981.2857142857142</ele><time>2026-05-01T12:45:39.162Z</time></trkpt><trkpt lat="44.4794301" lon="8.7939212"><ele>982.142857142857</ele><time>2026-05-01T12:45:46.14Z</time></trkpt><trkpt lat="44.4794495" lon="8.7940085"><ele>982.9999999999999</ele><time>2026-05-01T12:45:52.141Z</time></trkpt><trkpt lat="44.4794585" lon="8.7940991"><ele>982.9999999999999</ele><time>2026-05-01T12:45:58.152Z</time></trkpt><trkpt lat="44.4794786" lon="8.7941877"><ele>983.0</ele><time>2026-05-01T12:46:04.076Z</time></trkpt><trkpt lat="44.4794919" lon="8.7942748"><ele>982.9999999999999</ele><time>2026-05-01T12:46:10.146Z</time></trkpt><trkpt lat="44.4795363" lon="8.7943453"><ele>982.9999999999999</ele><time>2026-05-01T12:46:16.138Z</time></trkpt><trkpt lat="44.4795856" lon="8.7944033"><ele>983.0</ele><time>2026-05-01T12:46:22.139Z</time></trkpt><trkpt lat="44.4796446" lon="8.7944454"><ele>982.9999999999999</ele><time>2026-05-01T12:46:28.149Z</time></trkpt><trkpt lat="44.4796729" lon="8.7945293"><ele>982.9999999999999</ele><time>2026-05-01T12:46:34.139Z</time></trkpt><trkpt lat="44.4796908" lon="8.7946149"><ele>982.7142857142856</ele><time>2026-05-01T12:46:41.06Z</time></trkpt><trkpt lat="44.4797045" lon="8.7947101"><ele>982.4285714285713</ele><time>2026-05-01T12:46:54.14Z</time></trkpt><trkpt lat="44.479735" lon="8.794799"><ele>982.1428571428571</ele><time>2026-05-01T12:47:04.181Z</time></trkpt><trkpt lat="44.4797668" lon="8.7948881"><ele>981.8571428571428</ele><time>2026-05-01T12:47:12.154Z</time></trkpt><trkpt lat="44.4798059" lon="8.794962"><ele>981.5714285714284</ele><time>2026-05-01T12:47:17.146Z</time></trkpt><trkpt lat="44.4798442" lon="8.7950539"><ele>981.2857142857143</ele><time>2026-05-01T12:47:22.157Z</time></trkpt><trkpt lat="44.4798514" lon="8.7951493"><ele>981.0</ele><time>2026-05-01T12:47:27.152Z</time></trkpt><trkpt lat="44.4798836" lon="8.7952415"><ele>981.0</ele><time>2026-05-01T12:47:34.119Z</time></trkpt><trkpt lat="44.4799285" lon="8.7953142"><ele>981.0</ele><time>2026-05-01T12:47:41.077Z</time></trkpt><trkpt lat="44.4799627" lon="8.7954075"><ele>981.0</ele><time>2026-05-01T12:47:48.162Z</time></trkpt><trkpt lat="44.4799943" lon="8.7954972"><ele>981.0</ele><time>2026-05-01T12:47:55.143Z</time></trkpt><trkpt lat="44.4800007" lon="8.7955924"><ele>981.0</ele><time>2026-05-01T12:48:03.145Z</time></trkpt><trkpt lat="44.479981" lon="8.7956845"><ele>981.0</ele><time>2026-05-01T12:48:09.152Z</time></trkpt><trkpt lat="44.4799606" lon="8.795768"><ele>981.0</ele><time>2026-05-01T12:48:16.15Z</time></trkpt><trkpt lat="44.4799592" lon="8.7958594"><ele>981.0</ele><time>2026-05-01T12:48:24.076Z</time></trkpt><trkpt lat="44.4799331" lon="8.7959473"><ele>981.0</ele><time>2026-05-01T12:48:33.143Z</time></trkpt><trkpt lat="44.4798903" lon="8.7960198"><ele>981.0</ele><time>2026-05-01T12:48:40.135Z</time></trkpt><trkpt lat="44.4798344" lon="8.7960697"><ele>981.0</ele><time>2026-05-01T12:48:47.146Z</time></trkpt><trkpt lat="44.479863" lon="8.7961546"><ele>981.0</ele><time>2026-05-01T12:48:56.15Z</time></trkpt><trkpt lat="44.4798638" lon="8.796245"><ele>981.0</ele><time>2026-05-01T12:49:05.153Z</time></trkpt><trkpt lat="44.4797983" lon="8.7962313"><ele>981.0</ele><time>2026-05-01T12:49:12.14Z</time></trkpt><trkpt lat="44.4798252" lon="8.7963265"><ele>980.0</ele><time>2026-05-01T12:49:29.045Z</time></trkpt><trkpt lat="44.4798579" lon="8.79641"><ele>979.0</ele><time>2026-05-01T12:49:36.147Z</time></trkpt><trkpt lat="44.4798556" lon="8.7965108"><ele>978.0</ele><time>2026-05-01T12:49:44.177Z</time></trkpt><trkpt lat="44.4798882" lon="8.7965867"><ele>977.0</ele><time>2026-05-01T12:49:52.14Z</time></trkpt><trkpt lat="44.479904" lon="8.7966853"><ele>976.0</ele><time>2026-05-01T12:50:15.179Z</time></trkpt><trkpt lat="44.4799441" lon="8.796764"><ele>975.0</ele><time>2026-05-01T12:50:21.151Z</time></trkpt><trkpt lat="44.4799767" lon="8.7968455"><ele>974.0</ele><time>2026-05-01T12:50:29.14Z</time></trkpt><trkpt lat="44.4799651" lon="8.7969362"><ele>973.7142857142858</ele><time>2026-05-01T12:50:39.164Z</time></trkpt><trkpt lat="44.479948" lon="8.797024"><ele>973.4285714285713</ele><time>2026-05-01T12:50:50.14Z</time></trkpt><trkpt lat="44.4799245" lon="8.7971077"><ele>973.1428571428571</ele><time>2026-05-01T12:50:59.139Z</time></trkpt><trkpt lat="44.4799424" lon="8.7971994"><ele>972.8571428571429</ele><time>2026-05-01T12:51:07.158Z</time></trkpt><trkpt lat="44.4799545" lon="8.7972908"><ele>972.5714285714287</ele><time>2026-05-01T12:51:13.147Z</time></trkpt><trkpt lat="44.4799915" lon="8.797375"><ele>972.2857142857142</ele><time>2026-05-01T12:51:20.147Z</time></trkpt><trkpt lat="44.4800095" lon="8.7974661"><ele>972.0</ele><time>2026-05-01T12:51:27.151Z</time></trkpt><trkpt lat="44.4800428" lon="8.7975411"><ele>972.0</ele><time>2026-05-01T12:51:33.142Z</time></trkpt><trkpt lat="44.4800524" lon="8.7976283"><ele>972.0</ele><time>2026-05-01T12:51:41.138Z</time></trkpt><trkpt lat="44.4800928" lon="8.7977117"><ele>972.0</ele><time>2026-05-01T12:51:49.164Z</time></trkpt><trkpt lat="44.4801279" lon="8.7977939"><ele>972.0</ele><time>2026-05-01T12:51:57.146Z</time></trkpt><trkpt lat="44.4801758" lon="8.7978572"><ele>972.0</ele><time>2026-05-01T12:52:05.097Z</time></trkpt><trkpt lat="44.4802133" lon="8.7979311"><ele>972.0</ele><time>2026-05-01T12:52:16.142Z</time></trkpt><trkpt lat="44.4802004" lon="8.7980215"><ele>972.0</ele><time>2026-05-01T12:52:32.095Z</time></trkpt><trkpt lat="44.4802013" lon="8.7981217"><ele>972.2857142857142</ele><time>2026-05-01T12:52:43.104Z</time></trkpt><trkpt lat="44.4801959" lon="8.7982198"><ele>972.5714285714287</ele><time>2026-05-01T12:52:51.148Z</time></trkpt><trkpt lat="44.4801904" lon="8.7983161"><ele>972.8571428571429</ele><time>2026-05-01T12:52:59.134Z</time></trkpt><trkpt lat="44.4801862" lon="8.7984157"><ele>973.1428571428571</ele><time>2026-05-01T12:53:06.143Z</time></trkpt><trkpt lat="44.4801734" lon="8.7985192"><ele>973.4285714285713</ele><time>2026-05-01T12:53:12.165Z</time></trkpt><trkpt lat="44.480194" lon="8.798608"><ele>973.7142857142858</ele><time>2026-05-01T12:53:17.146Z</time></trkpt><trkpt lat="44.480185" lon="8.798696"><ele>974.0</ele><time>2026-05-01T12:53:22.15Z</time></trkpt><trkpt lat="44.4801686" lon="8.7987945"><ele>974.7142857142858</ele><time>2026-05-01T12:53:29.141Z</time></trkpt><trkpt lat="44.4801736" lon="8.7988927"><ele>975.4285714285713</ele><time>2026-05-01T12:53:35.163Z</time></trkpt><trkpt lat="44.4801776" lon="8.7989842"><ele>976.1428571428571</ele><time>2026-05-01T12:53:41.137Z</time></trkpt><trkpt lat="44.480189" lon="8.7990781"><ele>976.8571428571429</ele><time>2026-05-01T12:53:47.154Z</time></trkpt><trkpt lat="44.4801944" lon="8.7991688"><ele>977.5714285714287</ele><time>2026-05-01T12:53:53.185Z</time></trkpt><trkpt lat="44.4801961" lon="8.7992692"><ele>978.2857142857142</ele><time>2026-05-01T12:54:00.154Z</time></trkpt><trkpt lat="44.4802283" lon="8.7993485"><ele>979.0</ele><time>2026-05-01T12:54:06.118Z</time></trkpt><trkpt lat="44.4802853" lon="8.7994079"><ele>979.0</ele><time>2026-05-01T12:54:12.162Z</time></trkpt><trkpt lat="44.4803515" lon="8.7994199"><ele>979.0</ele><time>2026-05-01T12:54:18.142Z</time></trkpt><trkpt lat="44.4804194" lon="8.7994142"><ele>979.0</ele><time>2026-05-01T12:54:29.15Z</time></trkpt><trkpt lat="44.4804807" lon="8.7994663"><ele>979.0</ele><time>2026-05-01T12:54:39.103Z</time></trkpt><trkpt lat="44.4805389" lon="8.7995283"><ele>979.0</ele><time>2026-05-01T12:54:46.144Z</time></trkpt><trkpt lat="44.4805905" lon="8.79958"><ele>979.0</ele><time>2026-05-01T12:54:50.146Z</time></trkpt><trkpt lat="44.4806547" lon="8.7996324"><ele>979.0</ele><time>2026-05-01T12:54:55.104Z</time></trkpt><trkpt lat="44.4807077" lon="8.7996803"><ele>979.2857142857142</ele><time>2026-05-01T12:55:00.143Z</time></trkpt><trkpt lat="44.480756" lon="8.79974"><ele>979.5714285714287</ele><time>2026-05-01T12:55:05.142Z</time></trkpt><trkpt lat="44.4808076" lon="8.7997959"><ele>979.8571428571429</ele><time>2026-05-01T12:55:10.143Z</time></trkpt><trkpt lat="44.4808629" lon="8.7998559"><ele>980.1428571428571</ele><time>2026-05-01T12:55:15.141Z</time></trkpt><trkpt lat="44.4809233" lon="8.7999168"><ele>980.4285714285713</ele><time>2026-05-01T12:55:21.14Z</time></trkpt><trkpt lat="44.4809879" lon="8.7999543"><ele>980.7142857142858</ele><time>2026-05-01T12:55:28.154Z</time></trkpt><trkpt lat="44.4810505" lon="8.799964"><ele>981.0</ele><time>2026-05-01T12:55:34.155Z</time></trkpt><trkpt lat="44.4811119" lon="8.7999341"><ele>981.0</ele><time>2026-05-01T12:55:40.06Z</time></trkpt><trkpt lat="44.4811818" lon="8.799932"><ele>981.0</ele><time>2026-05-01T12:55:48.136Z</time></trkpt><trkpt lat="44.4812501" lon="8.7999041"><ele>981.0</ele><time>2026-05-01T12:55:55.141Z</time></trkpt><trkpt lat="44.4813083" lon="8.7998586"><ele>981.0</ele><time>2026-05-01T12:56:01.136Z</time></trkpt><trkpt lat="44.4813739" lon="8.7998568"><ele>981.0</ele><time>2026-05-01T12:56:07.137Z</time></trkpt><trkpt lat="44.4814293" lon="8.7999145"><ele>981.0</ele><time>2026-05-01T12:56:14.142Z</time></trkpt><trkpt lat="44.4814862" lon="8.7999607"><ele>981.0</ele><time>2026-05-01T12:56:21.134Z</time></trkpt><trkpt lat="44.4815519" lon="8.7999723"><ele>979.4285714285714</ele><time>2026-05-01T12:56:27.143Z</time></trkpt><trkpt lat="44.4816234" lon="8.7999675"><ele>977.8571428571429</ele><time>2026-05-01T12:56:33.117Z</time></trkpt><trkpt lat="44.4816887" lon="8.799974"><ele>976.2857142857143</ele><time>2026-05-01T12:56:39.143Z</time></trkpt><trkpt lat="44.4817351" lon="8.7999132"><ele>974.7142857142858</ele><time>2026-05-01T12:56:46.149Z</time></trkpt><trkpt lat="44.48179" lon="8.7998505"><ele>973.1428571428571</ele><time>2026-05-01T12:56:53.139Z</time></trkpt><trkpt lat="44.4817845" lon="8.79975"><ele>971.5714285714287</ele><time>2026-05-01T12:57:00.141Z</time></trkpt><trkpt lat="44.4818317" lon="8.7996747"><ele>970.0000000000001</ele><time>2026-05-01T12:57:07.124Z</time></trkpt><trkpt lat="44.4819009" lon="8.7996935"><ele>970.0000000000001</ele><time>2026-05-01T12:57:14.138Z</time></trkpt><trkpt lat="44.4819493" lon="8.799757"><ele>970.0</ele><time>2026-05-01T12:57:20.144Z</time></trkpt><trkpt lat="44.4819853" lon="8.7998399"><ele>970.0000000000001</ele><time>2026-05-01T12:57:26.142Z</time></trkpt><trkpt lat="44.4820039" lon="8.7999347"><ele>970.0000000000001</ele><time>2026-05-01T12:57:32.143Z</time></trkpt><trkpt lat="44.4820046" lon="8.8000335"><ele>970.0</ele><time>2026-05-01T12:57:38.183Z</time></trkpt><trkpt lat="44.4820287" lon="8.8001321"><ele>970.0000000000001</ele><time>2026-05-01T12:57:44.14Z</time></trkpt><trkpt lat="44.4820498" lon="8.800217"><ele>970.0000000000001</ele><time>2026-05-01T12:57:50.15Z</time></trkpt><trkpt lat="44.4820658" lon="8.8003089"><ele>968.857142857143</ele><time>2026-05-01T12:57:56.047Z</time></trkpt><trkpt lat="44.4820541" lon="8.8003962"><ele>967.7142857142858</ele><time>2026-05-01T12:58:02.142Z</time></trkpt><trkpt lat="44.4819833" lon="8.800432"><ele>966.5714285714286</ele><time>2026-05-01T12:58:08.136Z</time></trkpt><trkpt lat="44.4819148" lon="8.8004312"><ele>965.4285714285714</ele><time>2026-05-01T12:58:14.137Z</time></trkpt><trkpt lat="44.4818437" lon="8.800413"><ele>964.2857142857142</ele><time>2026-05-01T12:58:19.153Z</time></trkpt><trkpt lat="44.4817923" lon="8.8004669"><ele>963.142857142857</ele><time>2026-05-01T12:58:26.152Z</time></trkpt><trkpt lat="44.481788" lon="8.8005555"><ele>961.9999999999999</ele><time>2026-05-01T12:58:32.155Z</time></trkpt><trkpt lat="44.481837" lon="8.8006167"><ele>961.9999999999999</ele><time>2026-05-01T12:58:37.151Z</time></trkpt><trkpt lat="44.4818921" lon="8.8006645"><ele>962.0</ele><time>2026-05-01T12:58:42.15Z</time></trkpt><trkpt lat="44.4819536" lon="8.8007044"><ele>961.9999999999999</ele><time>2026-05-01T12:58:48.151Z</time></trkpt><trkpt lat="44.4820014" lon="8.800768"><ele>961.9999999999999</ele><time>2026-05-01T12:58:54.147Z</time></trkpt><trkpt lat="44.4820629" lon="8.8008184"><ele>962.0</ele><time>2026-05-01T12:59:03.143Z</time></trkpt><trkpt lat="44.4821291" lon="8.8008249"><ele>961.9999999999999</ele><time>2026-05-01T12:59:10.141Z</time></trkpt><trkpt lat="44.4821827" lon="8.8008726"><ele>961.9999999999999</ele><time>2026-05-01T12:59:16.144Z</time></trkpt><trkpt lat="44.4822019" lon="8.8009633"><ele>959.4285714285713</ele><time>2026-05-01T12:59:24.149Z</time></trkpt><trkpt lat="44.4821946" lon="8.8010627"><ele>956.8571428571429</ele><time>2026-05-01T12:59:32.15Z</time></trkpt><trkpt lat="44.4821407" lon="8.8011087"><ele>954.2857142857142</ele><time>2026-05-01T12:59:38.044Z</time></trkpt><trkpt lat="44.4821065" lon="8.801187"><ele>951.7142857142857</ele><time>2026-05-01T12:59:46.139Z</time></trkpt><trkpt lat="44.4820717" lon="8.8012615"><ele>949.1428571428571</ele><time>2026-05-01T12:59:53.137Z</time></trkpt><trkpt lat="44.4820286" lon="8.8013494"><ele>946.5714285714286</ele><time>2026-05-01T13:01:40.162Z</time></trkpt><trkpt lat="44.4820982" lon="8.801352"><ele>944.0</ele><time>2026-05-01T13:01:45.151Z</time></trkpt><trkpt lat="44.4821634" lon="8.8013628"><ele>943.2857142857142</ele><time>2026-05-01T13:01:52.162Z</time></trkpt><trkpt lat="44.482223" lon="8.8013157"><ele>942.5714285714287</ele><time>2026-05-01T13:01:58.135Z</time></trkpt><trkpt lat="44.482292" lon="8.801345"><ele>941.8571428571429</ele><time>2026-05-01T13:02:06.161Z</time></trkpt><trkpt lat="44.4823586" lon="8.8013742"><ele>941.1428571428571</ele><time>2026-05-01T13:02:13.023Z</time></trkpt><trkpt lat="44.4824285" lon="8.8013903"><ele>940.4285714285713</ele><time>2026-05-01T13:02:20.14Z</time></trkpt><trkpt lat="44.4824947" lon="8.8013905"><ele>939.7142857142858</ele><time>2026-05-01T13:02:26.143Z</time></trkpt><trkpt lat="44.4825696" lon="8.8013879"><ele>939.0</ele><time>2026-05-01T13:02:33.166Z</time></trkpt><trkpt lat="44.4826345" lon="8.8013908"><ele>939.0</ele><time>2026-05-01T13:02:39.061Z</time></trkpt><trkpt lat="44.4827018" lon="8.8014162"><ele>939.0</ele><time>2026-05-01T13:02:45.153Z</time></trkpt><trkpt lat="44.4827499" lon="8.801478"><ele>939.0</ele><time>2026-05-01T13:02:51.161Z</time></trkpt><trkpt lat="44.4827855" lon="8.8015607"><ele>939.0</ele><time>2026-05-01T13:02:59.148Z</time></trkpt><trkpt lat="44.4828199" lon="8.8016369"><ele>939.0</ele><time>2026-05-01T13:03:07.141Z</time></trkpt><trkpt lat="44.4828583" lon="8.8017128"><ele>939.0</ele><time>2026-05-01T13:03:14.148Z</time></trkpt><trkpt lat="44.482902" lon="8.801779"><ele>939.0</ele><time>2026-05-01T13:03:20.141Z</time></trkpt><trkpt lat="44.4829655" lon="8.8018125"><ele>938.2857142857143</ele><time>2026-05-01T13:03:29.141Z</time></trkpt><trkpt lat="44.483029" lon="8.8018389"><ele>937.5714285714284</ele><time>2026-05-01T13:03:36.143Z</time></trkpt><trkpt lat="44.4830999" lon="8.8018678"><ele>936.8571428571428</ele><time>2026-05-01T13:03:42.141Z</time></trkpt><trkpt lat="44.4831555" lon="8.8019322"><ele>936.1428571428571</ele><time>2026-05-01T13:03:49.171Z</time></trkpt><trkpt lat="44.4832067" lon="8.801989"><ele>935.4285714285713</ele><time>2026-05-01T13:03:55.142Z</time></trkpt><trkpt lat="44.4832698" lon="8.8020154"><ele>934.7142857142856</ele><time>2026-05-01T13:04:01.147Z</time></trkpt><trkpt lat="44.4833255" lon="8.8020609"><ele>933.9999999999999</ele><time>2026-05-01T13:04:07.141Z</time></trkpt><trkpt lat="44.48339" lon="8.8020953"><ele>933.9999999999999</ele><time>2026-05-01T13:04:13.138Z</time></trkpt><trkpt lat="44.4834546" lon="8.8021223"><ele>934.0</ele><time>2026-05-01T13:04:19.141Z</time></trkpt><trkpt lat="44.4835177" lon="8.8021359"><ele>933.9999999999999</ele><time>2026-05-01T13:04:25.043Z</time></trkpt><trkpt lat="44.4835891" lon="8.802141"><ele>933.9999999999999</ele><time>2026-05-01T13:04:32.154Z</time></trkpt><trkpt lat="44.4836612" lon="8.8021801"><ele>934.0</ele><time>2026-05-01T13:04:38.203Z</time></trkpt><trkpt lat="44.4837173" lon="8.8022332"><ele>933.9999999999999</ele><time>2026-05-01T13:04:44.135Z</time></trkpt><trkpt lat="44.4837863" lon="8.8022603"><ele>933.9999999999999</ele><time>2026-05-01T13:04:50.139Z</time></trkpt><trkpt lat="44.4838455" lon="8.802295"><ele>935.2857142857142</ele><time>2026-05-01T13:04:56.14Z</time></trkpt><trkpt lat="44.4839102" lon="8.8023154"><ele>936.5714285714286</ele><time>2026-05-01T13:05:03.152Z</time></trkpt><trkpt lat="44.4839734" lon="8.8023519"><ele>937.8571428571429</ele><time>2026-05-01T13:05:10.14Z</time></trkpt><trkpt lat="44.4840328" lon="8.8023817"><ele>939.1428571428571</ele><time>2026-05-01T13:05:16.151Z</time></trkpt><trkpt lat="44.4841037" lon="8.8023748"><ele>940.4285714285716</ele><time>2026-05-01T13:05:22.138Z</time></trkpt><trkpt lat="44.4841739" lon="8.8023707"><ele>941.7142857142858</ele><time>2026-05-01T13:05:28.156Z</time></trkpt><trkpt lat="44.4842349" lon="8.8023397"><ele>943.0</ele><time>2026-05-01T13:05:35.17Z</time></trkpt><trkpt lat="44.4842937" lon="8.8023937"><ele>943.0</ele><time>2026-05-01T13:05:43.15Z</time></trkpt><trkpt lat="44.4843538" lon="8.8024247"><ele>943.0000000000001</ele><time>2026-05-01T13:05:52.142Z</time></trkpt><trkpt lat="44.4844055" lon="8.8024923"><ele>943.0</ele><time>2026-05-01T13:05:59.166Z</time></trkpt><trkpt lat="44.4844596" lon="8.8025481"><ele>943.0</ele><time>2026-05-01T13:06:06.138Z</time></trkpt><trkpt lat="44.4845248" lon="8.8025447"><ele>943.0000000000001</ele><time>2026-05-01T13:06:12.15Z</time></trkpt><trkpt lat="44.484592" lon="8.8025159"><ele>943.0</ele><time>2026-05-01T13:06:18.141Z</time></trkpt><trkpt lat="44.4846348" lon="8.8024404"><ele>943.0</ele><time>2026-05-01T13:06:26.145Z</time></trkpt><trkpt lat="44.4846739" lon="8.8023628"><ele>943.5714285714287</ele><time>2026-05-01T13:06:34.145Z</time></trkpt><trkpt lat="44.4847392" lon="8.802326"><ele>944.1428571428572</ele><time>2026-05-01T13:06:41.135Z</time></trkpt><trkpt lat="44.4848068" lon="8.802351"><ele>944.7142857142858</ele><time>2026-05-01T13:06:46.142Z</time></trkpt><trkpt lat="44.4848702" lon="8.8023584"><ele>945.2857142857142</ele><time>2026-05-01T13:06:51.1Z</time></trkpt><trkpt lat="44.4849467" lon="8.8023622"><ele>945.8571428571428</ele><time>2026-05-01T13:06:57.146Z</time></trkpt><trkpt lat="44.4850224" lon="8.8023511"><ele>946.4285714285713</ele><time>2026-05-01T13:07:03.163Z</time></trkpt><trkpt lat="44.4850836" lon="8.8023183"><ele>947.0</ele><time>2026-05-01T13:07:10.145Z</time></trkpt><trkpt lat="44.4851478" lon="8.8022942"><ele>947.0</ele><time>2026-05-01T13:07:16.145Z</time></trkpt><trkpt lat="44.4852161" lon="8.8022783"><ele>946.9999999999999</ele><time>2026-05-01T13:07:22.12Z</time></trkpt><trkpt lat="44.4852824" lon="8.8023027"><ele>947.0</ele><time>2026-05-01T13:07:29.15Z</time></trkpt><trkpt lat="44.4853499" lon="8.8023191"><ele>947.0</ele><time>2026-05-01T13:07:35.063Z</time></trkpt><trkpt lat="44.4854094" lon="8.8023482"><ele>946.9999999999999</ele><time>2026-05-01T13:07:40.17Z</time></trkpt><trkpt lat="44.4854816" lon="8.8023747"><ele>947.0</ele><time>2026-05-01T13:07:46.101Z</time></trkpt><trkpt lat="44.48555" lon="8.8024007"><ele>947.0</ele><time>2026-05-01T13:07:52.144Z</time></trkpt><trkpt lat="44.485612" lon="8.8024345"><ele>946.8571428571428</ele><time>2026-05-01T13:07:58.063Z</time></trkpt><trkpt lat="44.4856847" lon="8.8024461"><ele>946.7142857142856</ele><time>2026-05-01T13:08:05.142Z</time></trkpt><trkpt lat="44.4857481" lon="8.8024463"><ele>946.5714285714286</ele><time>2026-05-01T13:08:10.044Z</time></trkpt><trkpt lat="44.4858185" lon="8.8024598"><ele>946.4285714285713</ele><time>2026-05-01T13:08:16.138Z</time></trkpt><trkpt lat="44.4858801" lon="8.8025062"><ele>946.2857142857142</ele><time>2026-05-01T13:08:22.14Z</time></trkpt><trkpt lat="44.4859395" lon="8.8025594"><ele>946.1428571428571</ele><time>2026-05-01T13:08:28.151Z</time></trkpt><trkpt lat="44.4860074" lon="8.8025962"><ele>946.0</ele><time>2026-05-01T13:08:34.169Z</time></trkpt><trkpt lat="44.4860647" lon="8.8026423"><ele>946.0</ele><time>2026-05-01T13:08:39.138Z</time></trkpt><trkpt lat="44.4861231" lon="8.802712"><ele>946.0</ele><time>2026-05-01T13:08:46.155Z</time></trkpt><trkpt lat="44.4861802" lon="8.8027573"><ele>946.0</ele><time>2026-05-01T13:08:52.143Z</time></trkpt><trkpt lat="44.486239" lon="8.8028181"><ele>946.0</ele><time>2026-05-01T13:08:58.077Z</time></trkpt><trkpt lat="44.4862943" lon="8.8028738"><ele>946.0</ele><time>2026-05-01T13:09:05.144Z</time></trkpt><trkpt lat="44.4863588" lon="8.8029257"><ele>946.0</ele><time>2026-05-01T13:09:11.183Z</time></trkpt><trkpt lat="44.486423" lon="8.802969"><ele>946.0</ele><time>2026-05-01T13:09:16.137Z</time></trkpt><trkpt lat="44.4864897" lon="8.802992"><ele>946.4285714285714</ele><time>2026-05-01T13:09:21.151Z</time></trkpt><trkpt lat="44.4865613" lon="8.8029928"><ele>946.8571428571429</ele><time>2026-05-01T13:09:26.099Z</time></trkpt><trkpt lat="44.4866225" lon="8.8029714"><ele>947.2857142857143</ele><time>2026-05-01T13:09:31.152Z</time></trkpt><trkpt lat="44.4866929" lon="8.8029533"><ele>947.7142857142858</ele><time>2026-05-01T13:09:37.058Z</time></trkpt><trkpt lat="44.4867627" lon="8.8029557"><ele>948.1428571428571</ele><time>2026-05-01T13:09:43.141Z</time></trkpt><trkpt lat="44.4868328" lon="8.8029569"><ele>948.5714285714287</ele><time>2026-05-01T13:09:49.15Z</time></trkpt><trkpt lat="44.4869091" lon="8.8029496"><ele>949.0000000000001</ele><time>2026-05-01T13:09:56.159Z</time></trkpt><trkpt lat="44.4869706" lon="8.8029807"><ele>949.0000000000001</ele><time>2026-05-01T13:10:02.139Z</time></trkpt><trkpt lat="44.4870335" lon="8.8030279"><ele>949.0</ele><time>2026-05-01T13:10:08.133Z</time></trkpt><trkpt lat="44.487096" lon="8.8030577"><ele>949.0000000000001</ele><time>2026-05-01T13:10:13.06Z</time></trkpt><trkpt lat="44.4871678" lon="8.8030882"><ele>949.0000000000001</ele><time>2026-05-01T13:10:19.14Z</time></trkpt><trkpt lat="44.4872348" lon="8.803118"><ele>949.0</ele><time>2026-05-01T13:10:24.145Z</time></trkpt><trkpt lat="44.48729" lon="8.8031626"><ele>949.0000000000001</ele><time>2026-05-01T13:10:29.082Z</time></trkpt><trkpt lat="44.4873518" lon="8.8032086"><ele>949.0000000000001</ele><time>2026-05-01T13:10:35.143Z</time></trkpt><trkpt lat="44.4874149" lon="8.8032404"><ele>949.5714285714287</ele><time>2026-05-01T13:10:41.103Z</time></trkpt><trkpt lat="44.487485" lon="8.8032656"><ele>950.1428571428571</ele><time>2026-05-01T13:10:48.156Z</time></trkpt><trkpt lat="44.4875582" lon="8.8032699"><ele>950.7142857142858</ele><time>2026-05-01T13:10:55.059Z</time></trkpt><trkpt lat="44.4876206" lon="8.8032911"><ele>951.2857142857143</ele><time>2026-05-01T13:11:02.139Z</time></trkpt><trkpt lat="44.4876847" lon="8.8033082"><ele>951.8571428571429</ele><time>2026-05-01T13:11:08.147Z</time></trkpt><trkpt lat="44.4877578" lon="8.8033212"><ele>952.4285714285714</ele><time>2026-05-01T13:11:15.08Z</time></trkpt><trkpt lat="44.4878268" lon="8.8033366"><ele>953.0</ele><time>2026-05-01T13:11:23.153Z</time></trkpt><trkpt lat="44.4878855" lon="8.8033032"><ele>953.2857142857143</ele><time>2026-05-01T13:11:28.142Z</time></trkpt><trkpt lat="44.4879411" lon="8.8032505"><ele>953.5714285714284</ele><time>2026-05-01T13:11:33.138Z</time></trkpt><trkpt lat="44.4880025" lon="8.8031981"><ele>953.8571428571428</ele><time>2026-05-01T13:11:39.141Z</time></trkpt><trkpt lat="44.4880667" lon="8.8031692"><ele>954.1428571428571</ele><time>2026-05-01T13:11:45.154Z</time></trkpt><trkpt lat="44.4881384" lon="8.8031729"><ele>954.4285714285713</ele><time>2026-05-01T13:11:51.122Z</time></trkpt><trkpt lat="44.4882071" lon="8.8031845"><ele>954.7142857142856</ele><time>2026-05-01T13:11:58.14Z</time></trkpt><trkpt lat="44.4882744" lon="8.8032043"><ele>954.9999999999999</ele><time>2026-05-01T13:12:04.151Z</time></trkpt><trkpt lat="44.4883384" lon="8.8032312"><ele>954.9999999999999</ele><time>2026-05-01T13:12:11.141Z</time></trkpt><trkpt lat="44.4884023" lon="8.8032487"><ele>955.0</ele><time>2026-05-01T13:12:18.136Z</time></trkpt><trkpt lat="44.4884625" lon="8.8032848"><ele>954.9999999999999</ele><time>2026-05-01T13:12:25.14Z</time></trkpt><trkpt lat="44.4885282" lon="8.8033059"><ele>954.9999999999999</ele><time>2026-05-01T13:12:31.076Z</time></trkpt><trkpt lat="44.4885912" lon="8.8032953"><ele>955.0</ele><time>2026-05-01T13:12:37.149Z</time></trkpt><trkpt lat="44.4886591" lon="8.803292"><ele>954.9999999999999</ele><time>2026-05-01T13:12:43.143Z</time></trkpt><trkpt lat="44.4887253" lon="8.8033028"><ele>954.9999999999999</ele><time>2026-05-01T13:12:49.142Z</time></trkpt><trkpt lat="44.4887904" lon="8.8033205"><ele>954.5714285714284</ele><time>2026-05-01T13:12:55.175Z</time></trkpt><trkpt lat="44.488854" lon="8.803362"><ele>954.1428571428571</ele><time>2026-05-01T13:13:01.044Z</time></trkpt><trkpt lat="44.4888965" lon="8.8034351"><ele>953.7142857142857</ele><time>2026-05-01T13:13:06.143Z</time></trkpt><trkpt lat="44.488934" lon="8.8035136"><ele>953.2857142857142</ele><time>2026-05-01T13:13:11.14Z</time></trkpt><trkpt lat="44.488961" lon="8.8035963"><ele>952.8571428571429</ele><time>2026-05-01T13:13:16.084Z</time></trkpt><trkpt lat="44.4889681" lon="8.8036957"><ele>952.4285714285714</ele><time>2026-05-01T13:13:22.141Z</time></trkpt><trkpt lat="44.4889811" lon="8.8037913"><ele>952.0</ele><time>2026-05-01T13:13:28.142Z</time></trkpt><trkpt lat="44.4889947" lon="8.8038901"><ele>952.0</ele><time>2026-05-01T13:13:34.146Z</time></trkpt><trkpt lat="44.4890288" lon="8.8039686"><ele>952.0</ele><time>2026-05-01T13:13:40.141Z</time></trkpt><trkpt lat="44.4890645" lon="8.8040527"><ele>952.0</ele><time>2026-05-01T13:13:47.157Z</time></trkpt><trkpt lat="44.4891029" lon="8.8041329"><ele>952.0</ele><time>2026-05-01T13:13:54.141Z</time></trkpt><trkpt lat="44.4891366" lon="8.8042086"><ele>952.0</ele><time>2026-05-01T13:14:00.115Z</time></trkpt><trkpt lat="44.4891706" lon="8.8042932"><ele>952.0</ele><time>2026-05-01T13:14:07.155Z</time></trkpt><trkpt lat="44.4891875" lon="8.8043879"><ele>952.0</ele><time>2026-05-01T13:14:13.134Z</time></trkpt><trkpt lat="44.4892038" lon="8.8044802"><ele>952.5714285714286</ele><time>2026-05-01T13:14:19.142Z</time></trkpt><trkpt lat="44.4892348" lon="8.8045687"><ele>953.1428571428571</ele><time>2026-05-01T13:14:25.146Z</time></trkpt><trkpt lat="44.4892637" lon="8.8046568"><ele>953.7142857142858</ele><time>2026-05-01T13:14:31.215Z</time></trkpt><trkpt lat="44.4892907" lon="8.8047378"><ele>954.2857142857143</ele><time>2026-05-01T13:14:36.149Z</time></trkpt><trkpt lat="44.4893111" lon="8.8048225"><ele>954.8571428571429</ele><time>2026-05-01T13:14:41.061Z</time></trkpt><trkpt lat="44.489331" lon="8.8049093"><ele>955.4285714285716</ele><time>2026-05-01T13:14:46.146Z</time></trkpt><trkpt lat="44.4893506" lon="8.8049964"><ele>956.0000000000001</ele><time>2026-05-01T13:14:52.061Z</time></trkpt><trkpt lat="44.4893756" lon="8.8050879"><ele>956.2857142857144</ele><time>2026-05-01T13:14:58.143Z</time></trkpt><trkpt lat="44.4894099" lon="8.8051669"><ele>956.5714285714287</ele><time>2026-05-01T13:15:04.145Z</time></trkpt><trkpt lat="44.4894476" lon="8.8052521"><ele>956.8571428571429</ele><time>2026-05-01T13:15:11.147Z</time></trkpt><trkpt lat="44.4894891" lon="8.8053292"><ele>957.1428571428572</ele><time>2026-05-01T13:15:17.142Z</time></trkpt><trkpt lat="44.4895121" lon="8.8054206"><ele>957.4285714285716</ele><time>2026-05-01T13:15:23.142Z</time></trkpt><trkpt lat="44.4895385" lon="8.80551"><ele>957.7142857142857</ele><time>2026-05-01T13:15:29.157Z</time></trkpt><trkpt lat="44.4895649" lon="8.8055999"><ele>958.0</ele><time>2026-05-01T13:15:35.12Z</time></trkpt><trkpt lat="44.4895972" lon="8.8056773"><ele>958.0</ele><time>2026-05-01T13:15:41.143Z</time></trkpt><trkpt lat="44.4896357" lon="8.8057545"><ele>958.0</ele><time>2026-05-01T13:15:48.155Z</time></trkpt><trkpt lat="44.489685" lon="8.8058248"><ele>958.0</ele><time>2026-05-01T13:15:55.141Z</time></trkpt><trkpt lat="44.4897354" lon="8.8058898"><ele>958.0</ele><time>2026-05-01T13:16:02.147Z</time></trkpt><trkpt lat="44.4897969" lon="8.805958"><ele>958.0</ele><time>2026-05-01T13:16:09.178Z</time></trkpt><trkpt lat="44.4898546" lon="8.8060274"><ele>958.0</ele><time>2026-05-01T13:16:16.141Z</time></trkpt><trkpt lat="44.4899102" lon="8.8061024"><ele>958.0</ele><time>2026-05-01T13:16:23.15Z</time></trkpt><trkpt lat="44.4899562" lon="8.8061701"><ele>957.2857142857142</ele><time>2026-05-01T13:16:29.151Z</time></trkpt><trkpt lat="44.4899958" lon="8.8062578"><ele>956.5714285714287</ele><time>2026-05-01T13:16:35.148Z</time></trkpt><trkpt lat="44.4900162" lon="8.8063435"><ele>955.8571428571429</ele><time>2026-05-01T13:16:40.078Z</time></trkpt><trkpt lat="44.4900221" lon="8.8064451"><ele>955.1428571428571</ele><time>2026-05-01T13:16:46.15Z</time></trkpt><trkpt lat="44.4900196" lon="8.8065408"><ele>954.4285714285713</ele><time>2026-05-01T13:16:52.139Z</time></trkpt><trkpt lat="44.4900533" lon="8.8066242"><ele>953.7142857142858</ele><time>2026-05-01T13:16:58.149Z</time></trkpt><trkpt lat="44.4900859" lon="8.8067004"><ele>953.0</ele><time>2026-05-01T13:17:05.143Z</time></trkpt><trkpt lat="44.490115" lon="8.8067823"><ele>952.4285714285714</ele><time>2026-05-01T13:17:12.143Z</time></trkpt><trkpt lat="44.4901346" lon="8.8068725"><ele>951.8571428571429</ele><time>2026-05-01T13:17:19.143Z</time></trkpt><trkpt lat="44.4901389" lon="8.8069618"><ele>951.2857142857143</ele><time>2026-05-01T13:17:25.152Z</time></trkpt><trkpt lat="44.4901544" lon="8.8070478"><ele>950.7142857142858</ele><time>2026-05-01T13:17:31.142Z</time></trkpt><trkpt lat="44.4901946" lon="8.8071245"><ele>950.1428571428571</ele><time>2026-05-01T13:17:37.056Z</time></trkpt><trkpt lat="44.4902494" lon="8.8071942"><ele>949.5714285714287</ele><time>2026-05-01T13:17:43.145Z</time></trkpt><trkpt lat="44.4902991" lon="8.8072678"><ele>949.0000000000001</ele><time>2026-05-01T13:17:49.139Z</time></trkpt><trkpt lat="44.4903443" lon="8.8073333"><ele>949.0000000000001</ele><time>2026-05-01T13:17:55.151Z</time></trkpt><trkpt lat="44.4903745" lon="8.8074207"><ele>949.0</ele><time>2026-05-01T13:18:11.141Z</time></trkpt><trkpt lat="44.4904335" lon="8.8074599"><ele>949.0000000000001</ele><time>2026-05-01T13:18:16.14Z</time></trkpt><trkpt lat="44.4904971" lon="8.8074933"><ele>949.0000000000001</ele><time>2026-05-01T13:18:23.145Z</time></trkpt><trkpt lat="44.4905557" lon="8.8075406"><ele>949.0</ele><time>2026-05-01T13:18:29.142Z</time></trkpt><trkpt lat="44.4906174" lon="8.8075819"><ele>949.0000000000001</ele><time>2026-05-01T13:18:36.096Z</time></trkpt><trkpt lat="44.490677" lon="8.8076112"><ele>949.0000000000001</ele><time>2026-05-01T13:18:43.156Z</time></trkpt><trkpt lat="44.4907105" lon="8.8076983"><ele>948.1428571428573</ele><time>2026-05-01T13:18:51.155Z</time></trkpt><trkpt lat="44.4907534" lon="8.8077692"><ele>947.2857142857143</ele><time>2026-05-01T13:19:01.141Z</time></trkpt><trkpt lat="44.4907855" lon="8.8078551"><ele>946.4285714285716</ele><time>2026-05-01T13:19:16.06Z</time></trkpt><trkpt lat="44.4908354" lon="8.807916"><ele>945.5714285714287</ele><time>2026-05-01T13:19:23.146Z</time></trkpt><trkpt lat="44.4908681" lon="8.8079983"><ele>944.7142857142858</ele><time>2026-05-01T13:19:30.141Z</time></trkpt><trkpt lat="44.4908434" lon="8.8080809"><ele>943.8571428571429</ele><time>2026-05-01T13:19:35.058Z</time></trkpt><trkpt lat="44.4907976" lon="8.8081439"><ele>943.0</ele><time>2026-05-01T13:19:41.141Z</time></trkpt><trkpt lat="44.4908047" lon="8.8082325"><ele>943.0</ele><time>2026-05-01T13:19:48.155Z</time></trkpt><trkpt lat="44.4908225" lon="8.8083207"><ele>943.0000000000001</ele><time>2026-05-01T13:19:56.153Z</time></trkpt><trkpt lat="44.4908641" lon="8.8083922"><ele>943.0</ele><time>2026-05-01T13:20:03.153Z</time></trkpt><trkpt lat="44.4908892" lon="8.8084881"><ele>943.0</ele><time>2026-05-01T13:20:10.146Z</time></trkpt><trkpt lat="44.4909443" lon="8.8085467"><ele>943.0000000000001</ele><time>2026-05-01T13:20:16.141Z</time></trkpt><trkpt lat="44.4909961" lon="8.8086203"><ele>943.0</ele><time>2026-05-01T13:20:22.142Z</time></trkpt><trkpt lat="44.4910417" lon="8.8087049"><ele>943.0</ele><time>2026-05-01T13:20:28.138Z</time></trkpt><trkpt lat="44.4910807" lon="8.8087773"><ele>942.2857142857143</ele><time>2026-05-01T13:20:34.15Z</time></trkpt><trkpt lat="44.4911223" lon="8.8088534"><ele>941.5714285714287</ele><time>2026-05-01T13:20:40.057Z</time></trkpt><trkpt lat="44.4911561" lon="8.8089323"><ele>940.8571428571429</ele><time>2026-05-01T13:20:46.144Z</time></trkpt><trkpt lat="44.4912051" lon="8.8090045"><ele>940.1428571428571</ele><time>2026-05-01T13:20:52.137Z</time></trkpt><trkpt lat="44.4912578" lon="8.8090686"><ele>939.4285714285714</ele><time>2026-05-01T13:20:58.153Z</time></trkpt><trkpt lat="44.4913104" lon="8.8091363"><ele>938.7142857142858</ele><time>2026-05-01T13:21:04.143Z</time></trkpt><trkpt lat="44.4913563" lon="8.80921"><ele>938.0</ele><time>2026-05-01T13:21:09.699Z</time></trkpt><trkpt lat="44.491401" lon="8.8092731"><ele>937.8571428571429</ele><time>2026-05-01T13:21:15.156Z</time></trkpt><trkpt lat="44.491454" lon="8.8093293"><ele>937.7142857142858</ele><time>2026-05-01T13:21:21.148Z</time></trkpt><trkpt lat="44.491517" lon="8.8093598"><ele>937.5714285714286</ele><time>2026-05-01T13:21:27.155Z</time></trkpt><trkpt lat="44.4915804" lon="8.8093548"><ele>937.4285714285714</ele><time>2026-05-01T13:21:32.119Z</time></trkpt><trkpt lat="44.4916465" lon="8.8093205"><ele>937.2857142857143</ele><time>2026-05-01T13:21:38.154Z</time></trkpt><trkpt lat="44.4917138" lon="8.8092648"><ele>937.1428571428571</ele><time>2026-05-01T13:21:44.119Z</time></trkpt><trkpt lat="44.4917843" lon="8.8092724"><ele>937.0</ele><time>2026-05-01T13:21:50.141Z</time></trkpt><trkpt lat="44.4918426" lon="8.8093149"><ele>937.0</ele><time>2026-05-01T13:21:56.064Z</time></trkpt><trkpt lat="44.491903" lon="8.809371"><ele>937.0</ele><time>2026-05-01T13:22:03.081Z</time></trkpt><trkpt lat="44.4919634" lon="8.8094199"><ele>937.0</ele><time>2026-05-01T13:22:09.154Z</time></trkpt><trkpt lat="44.4920205" lon="8.8094626"><ele>937.0</ele><time>2026-05-01T13:22:14.139Z</time></trkpt><trkpt lat="44.4920785" lon="8.809512"><ele>937.0</ele><time>2026-05-01T13:22:19.144Z</time></trkpt><trkpt lat="44.4921323" lon="8.8095665"><ele>937.0</ele><time>2026-05-01T13:22:25.116Z</time></trkpt><trkpt lat="44.4921916" lon="8.8096233"><ele>937.0</ele><time>2026-05-01T13:22:31.143Z</time></trkpt><trkpt lat="44.492259" lon="8.8096711"><ele>937.0</ele><time>2026-05-01T13:22:37.146Z</time></trkpt><trkpt lat="44.4923178" lon="8.8097081"><ele>937.0</ele><time>2026-05-01T13:22:42.138Z</time></trkpt><trkpt lat="44.4923836" lon="8.8097282"><ele>937.0</ele><time>2026-05-01T13:22:47.154Z</time></trkpt><trkpt lat="44.4924503" lon="8.8096892"><ele>937.0</ele><time>2026-05-01T13:22:53.141Z</time></trkpt><trkpt lat="44.4924987" lon="8.8096283"><ele>937.0</ele><time>2026-05-01T13:22:59.141Z</time></trkpt><trkpt lat="44.4925589" lon="8.8095728"><ele>937.0</ele><time>2026-05-01T13:23:05.079Z</time></trkpt><trkpt lat="44.4926089" lon="8.8095047"><ele>937.0</ele><time>2026-05-01T13:23:11.15Z</time></trkpt><trkpt lat="44.4926573" lon="8.8094264"><ele>937.0</ele><time>2026-05-01T13:23:17.14Z</time></trkpt><trkpt lat="44.4927216" lon="8.8093717"><ele>937.0</ele><time>2026-05-01T13:23:23.143Z</time></trkpt><trkpt lat="44.4927819" lon="8.8093459"><ele>937.0</ele><time>2026-05-01T13:23:28.06Z</time></trkpt><trkpt lat="44.4928464" lon="8.8093448"><ele>937.0</ele><time>2026-05-01T13:23:33.137Z</time></trkpt><trkpt lat="44.4929201" lon="8.809347"><ele>937.0</ele><time>2026-05-01T13:23:40.145Z</time></trkpt><trkpt lat="44.4929825" lon="8.8093595"><ele>937.0</ele><time>2026-05-01T13:23:47.152Z</time></trkpt><trkpt lat="44.493052" lon="8.8093647"><ele>937.0</ele><time>2026-05-01T13:23:53.169Z</time></trkpt><trkpt lat="44.4931131" lon="8.8094028"><ele>937.2857142857142</ele><time>2026-05-01T13:24:00.142Z</time></trkpt><trkpt lat="44.4931641" lon="8.8094732"><ele>937.5714285714287</ele><time>2026-05-01T13:24:07.145Z</time></trkpt><trkpt lat="44.4932299" lon="8.8095115"><ele>937.8571428571429</ele><time>2026-05-01T13:24:13.14Z</time></trkpt><trkpt lat="44.4932948" lon="8.8095224"><ele>938.1428571428571</ele><time>2026-05-01T13:24:18.153Z</time></trkpt><trkpt lat="44.4933546" lon="8.8095749"><ele>938.4285714285713</ele><time>2026-05-01T13:24:24.106Z</time></trkpt><trkpt lat="44.4934123" lon="8.8096414"><ele>938.7142857142858</ele><time>2026-05-01T13:24:31.147Z</time></trkpt><trkpt lat="44.4934541" lon="8.8097201"><ele>939.0</ele><time>2026-05-01T13:24:38.162Z</time></trkpt><trkpt lat="44.4935063" lon="8.8097945"><ele>939.0</ele><time>2026-05-01T13:24:45.145Z</time></trkpt><trkpt lat="44.4935582" lon="8.8098667"><ele>939.0</ele><time>2026-05-01T13:24:51.151Z</time></trkpt><trkpt lat="44.4936107" lon="8.8099252"><ele>939.0</ele><time>2026-05-01T13:24:57.154Z</time></trkpt><trkpt lat="44.4936523" lon="8.8099951"><ele>939.0</ele><time>2026-05-01T13:25:04.182Z</time></trkpt><trkpt lat="44.4937197" lon="8.8100286"><ele>939.0</ele><time>2026-05-01T13:25:12.098Z</time></trkpt><trkpt lat="44.4937712" lon="8.8100914"><ele>939.0</ele><time>2026-05-01T13:25:19.14Z</time></trkpt><trkpt lat="44.4938131" lon="8.8101703"><ele>939.0</ele><time>2026-05-01T13:25:25.061Z</time></trkpt><trkpt lat="44.4938458" lon="8.8102477"><ele>936.8571428571429</ele><time>2026-05-01T13:25:31.145Z</time></trkpt><trkpt lat="44.4939087" lon="8.810242"><ele>934.7142857142857</ele><time>2026-05-01T13:25:49.143Z</time></trkpt><trkpt lat="44.4939617" lon="8.8103088"><ele>932.5714285714286</ele><time>2026-05-01T13:25:54.139Z</time></trkpt><trkpt lat="44.4940198" lon="8.8103674"><ele>930.4285714285714</ele><time>2026-05-01T13:25:59.152Z</time></trkpt><trkpt lat="44.494066" lon="8.8104479"><ele>928.2857142857142</ele><time>2026-05-01T13:26:05.141Z</time></trkpt><trkpt lat="44.4941142" lon="8.8105144"><ele>926.1428571428571</ele><time>2026-05-01T13:26:11.146Z</time></trkpt><trkpt lat="44.4941732" lon="8.8105725"><ele>924.0</ele><time>2026-05-01T13:26:18.149Z</time></trkpt><trkpt lat="44.4942285" lon="8.8106306"><ele>924.0</ele><time>2026-05-01T13:26:24.143Z</time></trkpt><trkpt lat="44.4942544" lon="8.810719"><ele>924.0</ele><time>2026-05-01T13:26:30.143Z</time></trkpt><trkpt lat="44.4942613" lon="8.810817"><ele>924.0</ele><time>2026-05-01T13:26:39.082Z</time></trkpt><trkpt lat="44.4942258" lon="8.8108952"><ele>924.0</ele><time>2026-05-01T13:26:46.12Z</time></trkpt><trkpt lat="44.4942015" lon="8.8109856"><ele>924.0</ele><time>2026-05-01T13:26:53.143Z</time></trkpt><trkpt lat="44.4941961" lon="8.8110757"><ele>924.0</ele><time>2026-05-01T13:27:00.153Z</time></trkpt><trkpt lat="44.4941895" lon="8.8111736"><ele>924.0</ele><time>2026-05-01T13:27:08.056Z</time></trkpt><trkpt lat="44.4942009" lon="8.8112649"><ele>923.5714285714286</ele><time>2026-05-01T13:27:14.172Z</time></trkpt><trkpt lat="44.4942212" lon="8.8113486"><ele>923.1428571428571</ele><time>2026-05-01T13:27:20.146Z</time></trkpt><trkpt lat="44.4942638" lon="8.811414"><ele>922.7142857142858</ele><time>2026-05-01T13:27:26.144Z</time></trkpt><trkpt lat="44.4943306" lon="8.8114392"><ele>922.2857142857143</ele><time>2026-05-01T13:27:32.099Z</time></trkpt><trkpt lat="44.4943963" lon="8.8114623"><ele>921.8571428571429</ele><time>2026-05-01T13:27:37.15Z</time></trkpt><trkpt lat="44.4944614" lon="8.8114988"><ele>921.4285714285716</ele><time>2026-05-01T13:27:42.141Z</time></trkpt><trkpt lat="44.4945221" lon="8.8115381"><ele>921.0000000000001</ele><time>2026-05-01T13:27:48.153Z</time></trkpt><trkpt lat="44.4945862" lon="8.8115743"><ele>919.857142857143</ele><time>2026-05-01T13:27:55.153Z</time></trkpt><trkpt lat="44.4946327" lon="8.8116379"><ele>918.7142857142858</ele><time>2026-05-01T13:28:03.181Z</time></trkpt><trkpt lat="44.4946762" lon="8.8117045"><ele>917.5714285714286</ele><time>2026-05-01T13:28:10.141Z</time></trkpt><trkpt lat="44.4947188" lon="8.8117726"><ele>916.4285714285714</ele><time>2026-05-01T13:28:17.142Z</time></trkpt><trkpt lat="44.4947607" lon="8.8118416"><ele>915.2857142857142</ele><time>2026-05-01T13:28:23.151Z</time></trkpt><trkpt lat="44.4948059" lon="8.8119046"><ele>914.142857142857</ele><time>2026-05-01T13:28:29.141Z</time></trkpt><trkpt lat="44.4948716" lon="8.8119406"><ele>912.9999999999999</ele><time>2026-05-01T13:28:36.175Z</time></trkpt><trkpt lat="44.4949213" lon="8.8120052"><ele>912.9999999999999</ele><time>2026-05-01T13:28:44.143Z</time></trkpt><trkpt lat="44.4949543" lon="8.8120929"><ele>913.0</ele><time>2026-05-01T13:28:53.141Z</time></trkpt><trkpt lat="44.4950149" lon="8.8121368"><ele>912.9999999999999</ele><time>2026-05-01T13:29:00.139Z</time></trkpt><trkpt lat="44.4950774" lon="8.8121706"><ele>912.9999999999999</ele><time>2026-05-01T13:29:08.146Z</time></trkpt><trkpt lat="44.495135" lon="8.8122246"><ele>913.0</ele><time>2026-05-01T13:29:15.139Z</time></trkpt><trkpt lat="44.4951978" lon="8.8122375"><ele>912.9999999999999</ele><time>2026-05-01T13:29:22.153Z</time></trkpt><trkpt lat="44.4952667" lon="8.8122245"><ele>912.9999999999999</ele><time>2026-05-01T13:29:29.147Z</time></trkpt><trkpt lat="44.4953075" lon="8.8122995"><ele>912.9999999999999</ele><time>2026-05-01T13:29:40.143Z</time></trkpt><trkpt lat="44.4953736" lon="8.8123108"><ele>913.0</ele><time>2026-05-01T13:29:49.146Z</time></trkpt><trkpt lat="44.4954392" lon="8.8123187"><ele>912.9999999999999</ele><time>2026-05-01T13:29:56.059Z</time></trkpt><trkpt lat="44.4955116" lon="8.8123239"><ele>912.9999999999999</ele><time>2026-05-01T13:30:03.141Z</time></trkpt><trkpt lat="44.4955774" lon="8.8123572"><ele>913.0</ele><time>2026-05-01T13:30:08.144Z</time></trkpt><trkpt lat="44.4956431" lon="8.8124074"><ele>912.9999999999999</ele><time>2026-05-01T13:30:14.151Z</time></trkpt><trkpt lat="44.4956865" lon="8.8124782"><ele>912.9999999999999</ele><time>2026-05-01T13:30:19.147Z</time></trkpt><trkpt lat="44.495717" lon="8.8125649"><ele>912.4285714285713</ele><time>2026-05-01T13:30:25.137Z</time></trkpt><trkpt lat="44.4957622" lon="8.8126349"><ele>911.8571428571429</ele><time>2026-05-01T13:30:32.143Z</time></trkpt><trkpt lat="44.495823" lon="8.8126892"><ele>911.2857142857142</ele><time>2026-05-01T13:30:39.178Z</time></trkpt><trkpt lat="44.4958688" lon="8.8127536"><ele>910.7142857142857</ele><time>2026-05-01T13:30:45.056Z</time></trkpt><trkpt lat="44.4959172" lon="8.8128239"><ele>910.1428571428571</ele><time>2026-05-01T13:30:53.144Z</time></trkpt><trkpt lat="44.4959439" lon="8.8129161"><ele>909.5714285714286</ele><time>2026-05-01T13:31:00.144Z</time></trkpt><trkpt lat="44.4959374" lon="8.8130102"><ele>909.0</ele><time>2026-05-01T13:31:06.143Z</time></trkpt><trkpt lat="44.495955" lon="8.8130982"><ele>909.0</ele><time>2026-05-01T13:31:12.149Z</time></trkpt><trkpt lat="44.4959753" lon="8.8131865"><ele>909.0</ele><time>2026-05-01T13:31:18.14Z</time></trkpt><trkpt lat="44.4960107" lon="8.8132595"><ele>909.0</ele><time>2026-05-01T13:31:24.141Z</time></trkpt><trkpt lat="44.4960541" lon="8.8133263"><ele>909.0</ele><time>2026-05-01T13:31:30.142Z</time></trkpt><trkpt lat="44.4961029" lon="8.8134005"><ele>909.0</ele><time>2026-05-01T13:31:37.061Z</time></trkpt><trkpt lat="44.4961341" lon="8.8134944"><ele>909.0</ele><time>2026-05-01T13:31:44.151Z</time></trkpt><trkpt lat="44.4961645" lon="8.8135737"><ele>909.0</ele><time>2026-05-01T13:31:49.841Z</time></trkpt><trkpt lat="44.4962185" lon="8.8136263"><ele>908.0</ele><time>2026-05-01T13:31:56.152Z</time></trkpt><trkpt lat="44.4962749" lon="8.8136831"><ele>907.0</ele><time>2026-05-01T13:32:03.15Z</time></trkpt><trkpt lat="44.4963339" lon="8.8137354"><ele>906.0</ele><time>2026-05-01T13:32:10.144Z</time></trkpt><trkpt lat="44.4963827" lon="8.8137957"><ele>905.0</ele><time>2026-05-01T13:32:16.154Z</time></trkpt><trkpt lat="44.4964286" lon="8.8138562"><ele>904.0</ele><time>2026-05-01T13:32:22.152Z</time></trkpt><trkpt lat="44.4964854" lon="8.8139196"><ele>903.0</ele><time>2026-05-01T13:32:28.144Z</time></trkpt><trkpt lat="44.496531" lon="8.8139858"><ele>902.0</ele><time>2026-05-01T13:32:34.144Z</time></trkpt><trkpt lat="44.4965691" lon="8.8140618"><ele>902.0</ele><time>2026-05-01T13:32:40.179Z</time></trkpt><trkpt lat="44.4965997" lon="8.8141594"><ele>902.0</ele><time>2026-05-01T13:32:46.254Z</time></trkpt><trkpt lat="44.4966324" lon="8.8142467"><ele>902.0</ele><time>2026-05-01T13:32:53.15Z</time></trkpt><trkpt lat="44.4966792" lon="8.8143176"><ele>902.0</ele><time>2026-05-01T13:33:00.151Z</time></trkpt><trkpt lat="44.4967295" lon="8.8143762"><ele>902.0</ele><time>2026-05-01T13:33:06.098Z</time></trkpt><trkpt lat="44.4967797" lon="8.8144518"><ele>902.0</ele><time>2026-05-01T13:33:12.138Z</time></trkpt><trkpt lat="44.4968375" lon="8.8145188"><ele>902.0</ele><time>2026-05-01T13:33:18.141Z</time></trkpt><trkpt lat="44.4969004" lon="8.8145745"><ele>902.7142857142857</ele><time>2026-05-01T13:33:24.155Z</time></trkpt><trkpt lat="44.4969612" lon="8.8146027"><ele>903.4285714285716</ele><time>2026-05-01T13:33:30.145Z</time></trkpt><trkpt lat="44.4970232" lon="8.814634"><ele>904.1428571428572</ele><time>2026-05-01T13:33:36.137Z</time></trkpt><trkpt lat="44.4970724" lon="8.8146916"><ele>904.8571428571429</ele><time>2026-05-01T13:33:43.147Z</time></trkpt><trkpt lat="44.497132" lon="8.8147431"><ele>905.5714285714287</ele><time>2026-05-01T13:33:50.155Z</time></trkpt><trkpt lat="44.4971846" lon="8.814796"><ele>906.2857142857144</ele><time>2026-05-01T13:33:56.151Z</time></trkpt><trkpt lat="44.4972474" lon="8.8148316"><ele>907.0000000000001</ele><time>2026-05-01T13:34:02.154Z</time></trkpt><trkpt lat="44.4973094" lon="8.8148746"><ele>907.0000000000001</ele><time>2026-05-01T13:34:09.142Z</time></trkpt><trkpt lat="44.4973645" lon="8.8149209"><ele>907.0</ele><time>2026-05-01T13:34:16.153Z</time></trkpt><trkpt lat="44.497421" lon="8.8149664"><ele>907.0000000000001</ele><time>2026-05-01T13:34:22.15Z</time></trkpt><trkpt lat="44.4974776" lon="8.8150123"><ele>907.0000000000001</ele><time>2026-05-01T13:34:28.152Z</time></trkpt><trkpt lat="44.4975324" lon="8.8150618"><ele>907.0</ele><time>2026-05-01T13:34:34.097Z</time></trkpt><trkpt lat="44.49759" lon="8.8151066"><ele>907.0000000000001</ele><time>2026-05-01T13:34:40.101Z</time></trkpt><trkpt lat="44.4976446" lon="8.815152"><ele>907.0000000000001</ele><time>2026-05-01T13:34:46.14Z</time></trkpt><trkpt lat="44.497709" lon="8.815185"><ele>907.5714285714287</ele><time>2026-05-01T13:34:52.139Z</time></trkpt><trkpt lat="44.4977787" lon="8.8152093"><ele>908.1428571428571</ele><time>2026-05-01T13:34:59.139Z</time></trkpt><trkpt lat="44.4978455" lon="8.8152008"><ele>908.7142857142858</ele><time>2026-05-01T13:35:05.142Z</time></trkpt><trkpt lat="44.4979097" lon="8.8151908"><ele>909.2857142857143</ele><time>2026-05-01T13:35:11.142Z</time></trkpt><trkpt lat="44.4979811" lon="8.8152104"><ele>909.8571428571429</ele><time>2026-05-01T13:35:18.142Z</time></trkpt><trkpt lat="44.498047" lon="8.8152268"><ele>910.4285714285714</ele><time>2026-05-01T13:35:25.147Z</time></trkpt><trkpt lat="44.4981107" lon="8.8152185"><ele>911.0</ele><time>2026-05-01T13:35:31.156Z</time></trkpt><trkpt lat="44.4981828" lon="8.8152228"><ele>909.1428571428571</ele><time>2026-05-01T13:35:38.141Z</time></trkpt><trkpt lat="44.498245" lon="8.8152629"><ele>907.2857142857142</ele><time>2026-05-01T13:35:45.16Z</time></trkpt><trkpt lat="44.4982732" lon="8.8153593"><ele>905.4285714285713</ele><time>2026-05-01T13:35:52.181Z</time></trkpt><trkpt lat="44.4983087" lon="8.8154443"><ele>903.5714285714286</ele><time>2026-05-01T13:35:58.151Z</time></trkpt><trkpt lat="44.4983613" lon="8.8155104"><ele>901.7142857142856</ele><time>2026-05-01T13:36:05.136Z</time></trkpt><trkpt lat="44.4983412" lon="8.8156063"><ele>899.8571428571428</ele><time>2026-05-01T13:36:14.138Z</time></trkpt><trkpt lat="44.4982847" lon="8.8156661"><ele>898.0</ele><time>2026-05-01T13:36:21.149Z</time></trkpt><trkpt lat="44.4982253" lon="8.8157225"><ele>898.0</ele><time>2026-05-01T13:36:29.081Z</time></trkpt><trkpt lat="44.4981612" lon="8.8157481"><ele>897.9999999999999</ele><time>2026-05-01T13:36:36.14Z</time></trkpt><trkpt lat="44.4981374" lon="8.8158312"><ele>898.0</ele><time>2026-05-01T13:36:46.15Z</time></trkpt><trkpt lat="44.4981896" lon="8.8158946"><ele>898.0</ele><time>2026-05-01T13:36:51.142Z</time></trkpt><trkpt lat="44.4982521" lon="8.8159279"><ele>897.9999999999999</ele><time>2026-05-01T13:36:56.186Z</time></trkpt><trkpt lat="44.4983192" lon="8.815936"><ele>898.0</ele><time>2026-05-01T13:37:01.147Z</time></trkpt><trkpt lat="44.4983834" lon="8.8159796"><ele>898.0</ele><time>2026-05-01T13:37:07.152Z</time></trkpt><trkpt lat="44.498442" lon="8.8160368"><ele>897.1428571428571</ele><time>2026-05-01T13:37:17.139Z</time></trkpt><trkpt lat="44.4984568" lon="8.8161265"><ele>896.2857142857142</ele><time>2026-05-01T13:37:26.144Z</time></trkpt><trkpt lat="44.4984936" lon="8.8162016"><ele>895.4285714285713</ele><time>2026-05-01T13:37:35.141Z</time></trkpt><trkpt lat="44.4984989" lon="8.8162949"><ele>894.5714285714286</ele><time>2026-05-01T13:37:42.152Z</time></trkpt><trkpt lat="44.4984911" lon="8.8163834"><ele>893.7142857142857</ele><time>2026-05-01T13:37:48.922Z</time></trkpt><trkpt lat="44.4984982" lon="8.8164818"><ele>892.8571428571429</ele><time>2026-05-01T13:37:57.149Z</time></trkpt><trkpt lat="44.498474" lon="8.8165761"><ele>892.0</ele><time>2026-05-01T13:38:04.142Z</time></trkpt><trkpt lat="44.4984533" lon="8.8166676"><ele>892.0</ele><time>2026-05-01T13:38:11.14Z</time></trkpt><trkpt lat="44.49842" lon="8.8167468"><ele>892.0</ele><time>2026-05-01T13:38:19.152Z</time></trkpt><trkpt lat="44.4984443" lon="8.8168333"><ele>892.0</ele><time>2026-05-01T13:38:27.142Z</time></trkpt><trkpt lat="44.4984845" lon="8.8169111"><ele>892.0</ele><time>2026-05-01T13:38:35.142Z</time></trkpt><trkpt lat="44.4985351" lon="8.8169731"><ele>892.0</ele><time>2026-05-01T13:38:42.182Z</time></trkpt><trkpt lat="44.4986051" lon="8.8170073"><ele>892.0</ele><time>2026-05-01T13:38:50.182Z</time></trkpt><trkpt lat="44.4986649" lon="8.8170594"><ele>892.0</ele><time>2026-05-01T13:38:58.143Z</time></trkpt><trkpt lat="44.4987032" lon="8.8171351"><ele>891.4285714285714</ele><time>2026-05-01T13:39:04.151Z</time></trkpt><trkpt lat="44.4987076" lon="8.8172376"><ele>890.8571428571429</ele><time>2026-05-01T13:39:10.118Z</time></trkpt><trkpt lat="44.4986908" lon="8.8173257"><ele>890.2857142857142</ele><time>2026-05-01T13:39:15.162Z</time></trkpt><trkpt lat="44.4986563" lon="8.8174069"><ele>889.7142857142858</ele><time>2026-05-01T13:39:20.143Z</time></trkpt><trkpt lat="44.4986744" lon="8.8174992"><ele>889.1428571428572</ele><time>2026-05-01T13:39:27.142Z</time></trkpt><trkpt lat="44.498715" lon="8.8175823"><ele>888.5714285714286</ele><time>2026-05-01T13:39:36.142Z</time></trkpt><trkpt lat="44.4987443" lon="8.8176723"><ele>888.0</ele><time>2026-05-01T13:39:45.144Z</time></trkpt><trkpt lat="44.4987787" lon="8.8177489"><ele>885.7142857142857</ele><time>2026-05-01T13:39:52.145Z</time></trkpt><trkpt lat="44.4988172" lon="8.8178212"><ele>883.4285714285714</ele><time>2026-05-01T13:39:58.122Z</time></trkpt><trkpt lat="44.4988685" lon="8.8178914"><ele>881.1428571428571</ele><time>2026-05-01T13:40:04.143Z</time></trkpt><trkpt lat="44.4989059" lon="8.8179722"><ele>878.8571428571429</ele><time>2026-05-01T13:40:10.156Z</time></trkpt><trkpt lat="44.4989467" lon="8.8180571"><ele>876.5714285714287</ele><time>2026-05-01T13:40:16.142Z</time></trkpt><trkpt lat="44.499002" lon="8.8181178"><ele>874.2857142857143</ele><time>2026-05-01T13:40:22.149Z</time></trkpt><trkpt lat="44.4990657" lon="8.8181428"><ele>872.0</ele><time>2026-05-01T13:40:31.145Z</time></trkpt><trkpt lat="44.4991339" lon="8.8181534"><ele>872.0</ele><time>2026-05-01T13:40:38.139Z</time></trkpt><trkpt lat="44.499198" lon="8.8181141"><ele>872.0</ele><time>2026-05-01T13:40:45.147Z</time></trkpt><trkpt lat="44.4992614" lon="8.8181681"><ele>872.0</ele><time>2026-05-01T13:40:53.143Z</time></trkpt><trkpt lat="44.499322" lon="8.8182055"><ele>872.0</ele><time>2026-05-01T13:41:00.141Z</time></trkpt><trkpt lat="44.499375" lon="8.8182594"><ele>872.0</ele><time>2026-05-01T13:41:06.154Z</time></trkpt><trkpt lat="44.4994359" lon="8.8183111"><ele>872.0</ele><time>2026-05-01T13:41:12.155Z</time></trkpt><trkpt lat="44.4994949" lon="8.8183739"><ele>872.0</ele><time>2026-05-01T13:41:18.136Z</time></trkpt><trkpt lat="44.4995374" lon="8.8184557"><ele>872.4285714285714</ele><time>2026-05-01T13:41:24.155Z</time></trkpt><trkpt lat="44.4995749" lon="8.818529"><ele>872.8571428571429</ele><time>2026-05-01T13:41:30.1Z</time></trkpt><trkpt lat="44.4996236" lon="8.8185977"><ele>873.2857142857142</ele><time>2026-05-01T13:41:37.142Z</time></trkpt><trkpt lat="44.4996623" lon="8.8186724"><ele>873.7142857142858</ele><time>2026-05-01T13:41:44.126Z</time></trkpt><trkpt lat="44.4996999" lon="8.8187519"><ele>874.1428571428571</ele><time>2026-05-01T13:41:51.147Z</time></trkpt><trkpt lat="44.4997342" lon="8.818835"><ele>874.5714285714286</ele><time>2026-05-01T13:41:58.153Z</time></trkpt><trkpt lat="44.499775" lon="8.8189137"><ele>875.0</ele><time>2026-05-01T13:42:05.144Z</time></trkpt><trkpt lat="44.4997958" lon="8.8190088"><ele>875.0</ele><time>2026-05-01T13:42:12.138Z</time></trkpt><trkpt lat="44.499817" lon="8.8190968"><ele>875.0</ele><time>2026-05-01T13:42:18.152Z</time></trkpt><trkpt lat="44.4998422" lon="8.8191849"><ele>875.0</ele><time>2026-05-01T13:42:25.151Z</time></trkpt><trkpt lat="44.4999007" lon="8.8192193"><ele>875.0</ele><time>2026-05-01T13:42:32.143Z</time></trkpt><trkpt lat="44.4999355" lon="8.8193041"><ele>875.0</ele><time>2026-05-01T13:42:39.156Z</time></trkpt><trkpt lat="44.4999741" lon="8.8193838"><ele>875.0</ele><time>2026-05-01T13:42:47.077Z</time></trkpt><trkpt lat="44.500016" lon="8.8194628"><ele>875.0</ele><time>2026-05-01T13:42:53.156Z</time></trkpt><trkpt lat="44.500077" lon="8.8195083"><ele>875.4285714285714</ele><time>2026-05-01T13:42:59.146Z</time></trkpt><trkpt lat="44.5001364" lon="8.8195492"><ele>875.8571428571429</ele><time>2026-05-01T13:43:05.142Z</time></trkpt><trkpt lat="44.5002015" lon="8.8195762"><ele>876.2857142857142</ele><time>2026-05-01T13:43:11.099Z</time></trkpt><trkpt lat="44.500267" lon="8.8195997"><ele>876.7142857142858</ele><time>2026-05-01T13:43:18.173Z</time></trkpt><trkpt lat="44.5003395" lon="8.8196023"><ele>877.1428571428571</ele><time>2026-05-01T13:43:25.15Z</time></trkpt><trkpt lat="44.5004107" lon="8.8196068"><ele>877.5714285714286</ele><time>2026-05-01T13:43:32.143Z</time></trkpt><trkpt lat="44.5004754" lon="8.8195581"><ele>878.0</ele><time>2026-05-01T13:43:39.153Z</time></trkpt><trkpt lat="44.500531" lon="8.8195117"><ele>877.5714285714286</ele><time>2026-05-01T13:43:46.154Z</time></trkpt><trkpt lat="44.5005883" lon="8.8194719"><ele>877.1428571428571</ele><time>2026-05-01T13:43:54.153Z</time></trkpt><trkpt lat="44.5006304" lon="8.8194042"><ele>876.7142857142858</ele><time>2026-05-01T13:44:01.141Z</time></trkpt><trkpt lat="44.5006832" lon="8.8193533"><ele>876.2857142857142</ele><time>2026-05-01T13:44:07.155Z</time></trkpt><trkpt lat="44.5007302" lon="8.8192869"><ele>875.8571428571429</ele><time>2026-05-01T13:44:13.178Z</time></trkpt><trkpt lat="44.5008006" lon="8.8192492"><ele>875.4285714285714</ele><time>2026-05-01T13:44:19.157Z</time></trkpt><trkpt lat="44.5008652" lon="8.8192234"><ele>875.0</ele><time>2026-05-01T13:44:24.15Z</time></trkpt><trkpt lat="44.5009369" lon="8.8192071"><ele>875.0</ele><time>2026-05-01T13:44:30.152Z</time></trkpt><trkpt lat="44.5010053" lon="8.8192008"><ele>875.0</ele><time>2026-05-01T13:44:36.144Z</time></trkpt><trkpt lat="44.5010772" lon="8.8191876"><ele>875.0</ele><time>2026-05-01T13:44:43.153Z</time></trkpt><trkpt lat="44.5011373" lon="8.819154"><ele>875.0</ele><time>2026-05-01T13:44:50.142Z</time></trkpt><trkpt lat="44.5011939" lon="8.8191118"><ele>875.0</ele><time>2026-05-01T13:44:58.166Z</time></trkpt><trkpt lat="44.501258" lon="8.8190874"><ele>875.0</ele><time>2026-05-01T13:45:05.063Z</time></trkpt><trkpt lat="44.5013188" lon="8.8190612"><ele>875.0</ele><time>2026-05-01T13:45:11.144Z</time></trkpt><trkpt lat="44.5013912" lon="8.8190388"><ele>875.2857142857143</ele><time>2026-05-01T13:45:17.145Z</time></trkpt><trkpt lat="44.5014644" lon="8.8190215"><ele>875.5714285714286</ele><time>2026-05-01T13:45:23.153Z</time></trkpt><trkpt lat="44.5015389" lon="8.8190303"><ele>875.8571428571429</ele><time>2026-05-01T13:45:29.183Z</time></trkpt><trkpt lat="44.5016065" lon="8.819042"><ele>876.1428571428571</ele><time>2026-05-01T13:45:35.158Z</time></trkpt><trkpt lat="44.5016768" lon="8.8190399"><ele>876.4285714285714</ele><time>2026-05-01T13:45:42.143Z</time></trkpt><trkpt lat="44.5017414" lon="8.8190258"><ele>876.7142857142858</ele><time>2026-05-01T13:45:48.142Z</time></trkpt><trkpt lat="44.5018118" lon="8.8190406"><ele>877.0</ele><time>2026-05-01T13:45:55.151Z</time></trkpt><trkpt lat="44.5018812" lon="8.8190545"><ele>877.0000000000001</ele><time>2026-05-01T13:46:02.14Z</time></trkpt><trkpt lat="44.501954" lon="8.819061"><ele>877.0</ele><time>2026-05-01T13:46:09.155Z</time></trkpt><trkpt lat="44.5020256" lon="8.8190855"><ele>877.0</ele><time>2026-05-01T13:46:16.135Z</time></trkpt><trkpt lat="44.5020865" lon="8.8191244"><ele>877.0</ele><time>2026-05-01T13:46:23.141Z</time></trkpt><trkpt lat="44.5021402" lon="8.8191904"><ele>877.0</ele><time>2026-05-01T13:47:11.152Z</time></trkpt><trkpt lat="44.5022003" lon="8.8191503"><ele>877.0000000000001</ele><time>2026-05-01T13:47:13.145Z</time></trkpt><trkpt lat="44.5022693" lon="8.8191785"><ele>877.0</ele><time>2026-05-01T13:47:19.141Z</time></trkpt><trkpt lat="44.5023309" lon="8.8192267"><ele>876.2857142857143</ele><time>2026-05-01T13:47:25.169Z</time></trkpt><trkpt lat="44.5023931" lon="8.8192575"><ele>875.5714285714286</ele><time>2026-05-01T13:47:30.143Z</time></trkpt><trkpt lat="44.5024585" lon="8.8192576"><ele>874.8571428571429</ele><time>2026-05-01T13:47:35.143Z</time></trkpt><trkpt lat="44.5025241" lon="8.8192537"><ele>874.1428571428571</ele><time>2026-05-01T13:47:40.151Z</time></trkpt><trkpt lat="44.502594" lon="8.8192395"><ele>873.4285714285714</ele><time>2026-05-01T13:47:46.142Z</time></trkpt><trkpt lat="44.5026644" lon="8.8192036"><ele>872.7142857142858</ele><time>2026-05-01T13:47:52.152Z</time></trkpt><trkpt lat="44.502724" lon="8.8191732"><ele>872.0</ele><time>2026-05-01T13:47:57.146Z</time></trkpt><trkpt lat="44.5027894" lon="8.8191396"><ele>872.0</ele><time>2026-05-01T13:48:02.182Z</time></trkpt><trkpt lat="44.5028509" lon="8.8191071"><ele>872.0</ele><time>2026-05-01T13:48:07.16Z</time></trkpt><trkpt lat="44.5029193" lon="8.8190746"><ele>872.0</ele><time>2026-05-01T13:48:14.154Z</time></trkpt><trkpt lat="44.5029831" lon="8.8190575"><ele>872.0</ele><time>2026-05-01T13:48:20.158Z</time></trkpt><trkpt lat="44.5030494" lon="8.8190221"><ele>872.0</ele><time>2026-05-01T13:48:26.146Z</time></trkpt><trkpt lat="44.5031183" lon="8.8190085"><ele>872.0</ele><time>2026-05-01T13:48:32.153Z</time></trkpt><trkpt lat="44.5031834" lon="8.8190137"><ele>872.0</ele><time>2026-05-01T13:48:37.146Z</time></trkpt><trkpt lat="44.5032541" lon="8.819038"><ele>871.8571428571429</ele><time>2026-05-01T13:48:43.151Z</time></trkpt><trkpt lat="44.5033204" lon="8.8190724"><ele>871.7142857142858</ele><time>2026-05-01T13:48:50.138Z</time></trkpt><trkpt lat="44.503388" lon="8.8190984"><ele>871.5714285714286</ele><time>2026-05-01T13:48:58.157Z</time></trkpt><trkpt lat="44.5034614" lon="8.8190912"><ele>871.4285714285714</ele><time>2026-05-01T13:49:04.151Z</time></trkpt><trkpt lat="44.503533" lon="8.8190683"><ele>871.2857142857142</ele><time>2026-05-01T13:49:10.15Z</time></trkpt><trkpt lat="44.5035972" lon="8.8190586"><ele>871.1428571428571</ele><time>2026-05-01T13:49:15.152Z</time></trkpt><trkpt lat="44.5036592" lon="8.8190319"><ele>871.0</ele><time>2026-05-01T13:49:20.154Z</time></trkpt><trkpt lat="44.50372" lon="8.819004"><ele>869.5714285714286</ele><time>2026-05-01T13:49:26.15Z</time></trkpt><trkpt lat="44.5037831" lon="8.8190149"><ele>868.1428571428571</ele><time>2026-05-01T13:49:31.138Z</time></trkpt><trkpt lat="44.5038486" lon="8.8189906"><ele>866.7142857142858</ele><time>2026-05-01T13:49:37.149Z</time></trkpt><trkpt lat="44.5039174" lon="8.8189653"><ele>865.2857142857142</ele><time>2026-05-01T13:49:43.153Z</time></trkpt><trkpt lat="44.503972" lon="8.8189009"><ele>863.8571428571429</ele><time>2026-05-01T13:49:50.18Z</time></trkpt><trkpt lat="44.5040074" lon="8.8188238"><ele>862.4285714285714</ele><time>2026-05-01T13:49:57.155Z</time></trkpt><trkpt lat="44.5040649" lon="8.8187796"><ele>861.0</ele><time>2026-05-01T13:50:03.157Z</time></trkpt><trkpt lat="44.5041154" lon="8.8187244"><ele>861.0</ele><time>2026-05-01T13:50:09.116Z</time></trkpt><trkpt lat="44.5041785" lon="8.8187028"><ele>861.0</ele><time>2026-05-01T13:50:15.081Z</time></trkpt><trkpt lat="44.5042458" lon="8.8186844"><ele>861.0</ele><time>2026-05-01T13:50:22.153Z</time></trkpt><trkpt lat="44.5043162" lon="8.8186837"><ele>861.0</ele><time>2026-05-01T13:50:29.141Z</time></trkpt><trkpt lat="44.5043796" lon="8.81864"><ele>861.0</ele><time>2026-05-01T13:50:37.155Z</time></trkpt><trkpt lat="44.5044392" lon="8.8185865"><ele>861.0</ele><time>2026-05-01T13:50:45.14Z</time></trkpt><trkpt lat="44.504497" lon="8.8185409"><ele>861.0</ele><time>2026-05-01T13:50:53.147Z</time></trkpt><trkpt lat="44.5045516" lon="8.8184912"><ele>859.8571428571429</ele><time>2026-05-01T13:50:59.152Z</time></trkpt><trkpt lat="44.5046123" lon="8.8184467"><ele>858.7142857142858</ele><time>2026-05-01T13:51:05.139Z</time></trkpt><trkpt lat="44.5046796" lon="8.8184211"><ele>857.5714285714286</ele><time>2026-05-01T13:51:12.143Z</time></trkpt><trkpt lat="44.5047392" lon="8.8183781"><ele>856.4285714285714</ele><time>2026-05-01T13:51:19.147Z</time></trkpt><trkpt lat="44.5047849" lon="8.8183012"><ele>855.2857142857143</ele><time>2026-05-01T13:51:27.142Z</time></trkpt><trkpt lat="44.5048425" lon="8.8182642"><ele>854.1428571428571</ele><time>2026-05-01T13:51:34.145Z</time></trkpt><trkpt lat="44.5049078" lon="8.8182659"><ele>853.0</ele><time>2026-05-01T13:51:40.143Z</time></trkpt><trkpt lat="44.5049643" lon="8.8183073"><ele>853.0</ele><time>2026-05-01T13:51:45.147Z</time></trkpt><trkpt lat="44.5050252" lon="8.8183378"><ele>853.0</ele><time>2026-05-01T13:51:51.149Z</time></trkpt><trkpt lat="44.505096" lon="8.8183331"><ele>853.0</ele><time>2026-05-01T13:51:57.171Z</time></trkpt><trkpt lat="44.5051522" lon="8.8182932"><ele>853.0</ele><time>2026-05-01T13:52:05.147Z</time></trkpt><trkpt lat="44.5052112" lon="8.8182381"><ele>853.0</ele><time>2026-05-01T13:52:13.137Z</time></trkpt><trkpt lat="44.5052546" lon="8.8181635"><ele>853.0</ele><time>2026-05-01T13:52:21.148Z</time></trkpt><trkpt lat="44.5053063" lon="8.8180942"><ele>853.0</ele><time>2026-05-01T13:52:27.166Z</time></trkpt><trkpt lat="44.5053639" lon="8.8180361"><ele>853.1428571428571</ele><time>2026-05-01T13:52:33.153Z</time></trkpt><trkpt lat="44.5054353" lon="8.8180002"><ele>853.2857142857143</ele><time>2026-05-01T13:52:39.062Z</time></trkpt><trkpt lat="44.5054943" lon="8.8179649"><ele>853.4285714285714</ele><time>2026-05-01T13:52:46.139Z</time></trkpt><trkpt lat="44.5055399" lon="8.8178816"><ele>853.5714285714286</ele><time>2026-05-01T13:52:53.145Z</time></trkpt><trkpt lat="44.5055756" lon="8.8177972"><ele>853.7142857142858</ele><time>2026-05-01T13:53:00.151Z</time></trkpt><trkpt lat="44.505593" lon="8.8177034"><ele>853.8571428571429</ele><time>2026-05-01T13:53:07.146Z</time></trkpt><trkpt lat="44.5056205" lon="8.8176167"><ele>854.0</ele><time>2026-05-01T13:53:15.144Z</time></trkpt><trkpt lat="44.5056716" lon="8.8175611"><ele>854.0</ele><time>2026-05-01T13:53:21.144Z</time></trkpt><trkpt lat="44.5057445" lon="8.8175585"><ele>854.0</ele><time>2026-05-01T13:53:27.149Z</time></trkpt><trkpt lat="44.5058161" lon="8.8175503"><ele>854.0</ele><time>2026-05-01T13:53:33.151Z</time></trkpt><trkpt lat="44.5058895" lon="8.8175459"><ele>854.0</ele><time>2026-05-01T13:53:39.059Z</time></trkpt><trkpt lat="44.5059481" lon="8.8175123"><ele>854.0</ele><time>2026-05-01T13:53:44.166Z</time></trkpt><trkpt lat="44.5060119" lon="8.8175156"><ele>854.0</ele><time>2026-05-01T13:53:50.137Z</time></trkpt><trkpt lat="44.5060788" lon="8.8175046"><ele>854.0</ele><time>2026-05-01T13:53:56.152Z</time></trkpt><trkpt lat="44.5061394" lon="8.8174544"><ele>854.0</ele><time>2026-05-01T13:54:02.076Z</time></trkpt><trkpt lat="44.5061985" lon="8.8174196"><ele>854.0</ele><time>2026-05-01T13:54:08.061Z</time></trkpt><trkpt lat="44.5062632" lon="8.8174453"><ele>854.0</ele><time>2026-05-01T13:54:15.141Z</time></trkpt><trkpt lat="44.506313" lon="8.8174997"><ele>854.0</ele><time>2026-05-01T13:54:21.14Z</time></trkpt><trkpt lat="44.5063768" lon="8.8175322"><ele>854.0</ele><time>2026-05-01T13:54:27.144Z</time></trkpt><trkpt lat="44.5064447" lon="8.8175616"><ele>854.0</ele><time>2026-05-01T13:54:33.144Z</time></trkpt><trkpt lat="44.5065073" lon="8.81755"><ele>854.0</ele><time>2026-05-01T13:54:38.155Z</time></trkpt><trkpt lat="44.5065669" lon="8.8174841"><ele>852.1428571428571</ele><time>2026-05-01T13:54:44.141Z</time></trkpt><trkpt lat="44.5066155" lon="8.8174193"><ele>850.2857142857142</ele><time>2026-05-01T13:54:50.145Z</time></trkpt><trkpt lat="44.5066691" lon="8.8173722"><ele>848.4285714285714</ele><time>2026-05-01T13:54:55.144Z</time></trkpt><trkpt lat="44.5067431" lon="8.8173457"><ele>846.5714285714286</ele><time>2026-05-01T13:55:01.148Z</time></trkpt><trkpt lat="44.5068137" lon="8.8173521"><ele>844.7142857142857</ele><time>2026-05-01T13:55:06.145Z</time></trkpt><trkpt lat="44.5068799" lon="8.8173791"><ele>842.8571428571429</ele><time>2026-05-01T13:55:11.144Z</time></trkpt><trkpt lat="44.5069476" lon="8.8174075"><ele>841.0</ele><time>2026-05-01T13:55:17.149Z</time></trkpt><trkpt lat="44.50702" lon="8.8174277"><ele>839.7142857142858</ele><time>2026-05-01T13:55:23.116Z</time></trkpt><trkpt lat="44.5070863" lon="8.8174598"><ele>838.4285714285713</ele><time>2026-05-01T13:55:29.151Z</time></trkpt><trkpt lat="44.5071541" lon="8.8174944"><ele>837.1428571428571</ele><time>2026-05-01T13:55:35.143Z</time></trkpt><trkpt lat="44.5072191" lon="8.8174637"><ele>835.8571428571429</ele><time>2026-05-01T13:55:41.139Z</time></trkpt><trkpt lat="44.5072797" lon="8.8174358"><ele>834.5714285714287</ele><time>2026-05-01T13:55:46.143Z</time></trkpt><trkpt lat="44.5073421" lon="8.8173959"><ele>833.2857142857142</ele><time>2026-05-01T13:55:51.077Z</time></trkpt><trkpt lat="44.5073998" lon="8.817351"><ele>832.0</ele><time>2026-05-01T13:55:56.161Z</time></trkpt><trkpt lat="44.5074642" lon="8.8173026"><ele>832.0</ele><time>2026-05-01T13:56:03.144Z</time></trkpt><trkpt lat="44.5075296" lon="8.8172697"><ele>832.0</ele><time>2026-05-01T13:56:09.146Z</time></trkpt><trkpt lat="44.5075968" lon="8.8172407"><ele>832.0</ele><time>2026-05-01T13:56:15.143Z</time></trkpt><trkpt lat="44.5076542" lon="8.8172012"><ele>832.0</ele><time>2026-05-01T13:56:21.144Z</time></trkpt><trkpt lat="44.507715" lon="8.817157"><ele>832.0</ele><time>2026-05-01T13:56:28.171Z</time></trkpt><trkpt lat="44.5077807" lon="8.8171112"><ele>832.0</ele><time>2026-05-01T13:56:35.157Z</time></trkpt><trkpt lat="44.5078442" lon="8.8170913"><ele>832.0</ele><time>2026-05-01T13:56:41.154Z</time></trkpt><trkpt lat="44.5079151" lon="8.8170647"><ele>830.4285714285714</ele><time>2026-05-01T13:56:47.151Z</time></trkpt><trkpt lat="44.5079783" lon="8.81703"><ele>828.8571428571429</ele><time>2026-05-01T13:56:53.143Z</time></trkpt><trkpt lat="44.5080344" lon="8.816984"><ele>827.2857142857143</ele><time>2026-05-01T13:56:58.155Z</time></trkpt><trkpt lat="44.5080876" lon="8.8169292"><ele>825.7142857142858</ele><time>2026-05-01T13:57:04.143Z</time></trkpt><trkpt lat="44.5081387" lon="8.8168708"><ele>824.1428571428571</ele><time>2026-05-01T13:57:10.153Z</time></trkpt><trkpt lat="44.508195" lon="8.816808"><ele>822.5714285714287</ele><time>2026-05-01T13:57:16.143Z</time></trkpt><trkpt lat="44.5082566" lon="8.8167613"><ele>821.0</ele><time>2026-05-01T13:57:22.155Z</time></trkpt><trkpt lat="44.5083197" lon="8.8167291"><ele>824.5714285714287</ele><time>2026-05-01T13:57:27.146Z</time></trkpt><trkpt lat="44.5083708" lon="8.8166769"><ele>828.1428571428571</ele><time>2026-05-01T13:57:32.158Z</time></trkpt><trkpt lat="44.5084239" lon="8.8166053"><ele>831.7142857142858</ele><time>2026-05-01T13:57:38.122Z</time></trkpt><trkpt lat="44.5084713" lon="8.81654"><ele>835.2857142857143</ele><time>2026-05-01T13:57:44.151Z</time></trkpt><trkpt lat="44.5085169" lon="8.8164718"><ele>838.8571428571429</ele><time>2026-05-01T13:57:50.152Z</time></trkpt><trkpt lat="44.5085757" lon="8.8164322"><ele>842.4285714285714</ele><time>2026-05-01T13:57:56.154Z</time></trkpt><trkpt lat="44.508643" lon="8.8164202"><ele>846.0</ele><time>2026-05-01T13:58:02.149Z</time></trkpt><trkpt lat="44.5087106" lon="8.8164087"><ele>845.5714285714286</ele><time>2026-05-01T13:58:09.183Z</time></trkpt><trkpt lat="44.5087768" lon="8.816376"><ele>845.1428571428572</ele><time>2026-05-01T13:58:15.143Z</time></trkpt><trkpt lat="44.5088402" lon="8.8163544"><ele>844.7142857142858</ele><time>2026-05-01T13:58:20.156Z</time></trkpt><trkpt lat="44.5089098" lon="8.8163456"><ele>844.2857142857142</ele><time>2026-05-01T13:58:26.145Z</time></trkpt><trkpt lat="44.5089618" lon="8.8162875"><ele>843.8571428571429</ele><time>2026-05-01T13:58:31.06Z</time></trkpt><trkpt lat="44.5090024" lon="8.8162081"><ele>843.4285714285714</ele><time>2026-05-01T13:58:40.148Z</time></trkpt><trkpt lat="44.5090638" lon="8.8161649"><ele>843.0</ele><time>2026-05-01T13:58:48.145Z</time></trkpt><trkpt lat="44.5091135" lon="8.8160951"><ele>843.0</ele><time>2026-05-01T13:58:54.143Z</time></trkpt><trkpt lat="44.5091659" lon="8.8160392"><ele>843.0</ele><time>2026-05-01T13:58:59.14Z</time></trkpt><trkpt lat="44.509222" lon="8.8159969"><ele>843.0</ele><time>2026-05-01T13:59:04.158Z</time></trkpt><trkpt lat="44.5092801" lon="8.8159612"><ele>843.0</ele><time>2026-05-01T13:59:10.142Z</time></trkpt><trkpt lat="44.5093502" lon="8.8159314"><ele>843.0</ele><time>2026-05-01T13:59:16.138Z</time></trkpt><trkpt lat="44.5094193" lon="8.8159354"><ele>843.0</ele><time>2026-05-01T13:59:23.146Z</time></trkpt><trkpt lat="44.509488" lon="8.8159741"><ele>843.0</ele><time>2026-05-01T13:59:30.153Z</time></trkpt><trkpt lat="44.509549" lon="8.8160067"><ele>844.1428571428571</ele><time>2026-05-01T13:59:36.143Z</time></trkpt><trkpt lat="44.509616" lon="8.8160198"><ele>845.2857142857142</ele><time>2026-05-01T13:59:42.145Z</time></trkpt><trkpt lat="44.5096857" lon="8.8160355"><ele>846.4285714285714</ele><time>2026-05-01T13:59:48.155Z</time></trkpt><trkpt lat="44.5097541" lon="8.8160662"><ele>847.5714285714286</ele><time>2026-05-01T13:59:57.155Z</time></trkpt><trkpt lat="44.5098255" lon="8.8160838"><ele>848.7142857142858</ele><time>2026-05-01T14:00:05.062Z</time></trkpt><trkpt lat="44.5098978" lon="8.8160774"><ele>849.8571428571429</ele><time>2026-05-01T14:00:13.144Z</time></trkpt><trkpt lat="44.5099619" lon="8.816076"><ele>851.0</ele><time>2026-05-01T14:00:19.154Z</time></trkpt><trkpt lat="44.5100272" lon="8.8160706"><ele>851.0</ele><time>2026-05-01T14:00:24.156Z</time></trkpt><trkpt lat="44.5100896" lon="8.816044"><ele>851.0</ele><time>2026-05-01T14:00:29.143Z</time></trkpt><trkpt lat="44.5101482" lon="8.8159994"><ele>851.0</ele><time>2026-05-01T14:00:34.141Z</time></trkpt><trkpt lat="44.5102018" lon="8.8159521"><ele>851.0</ele><time>2026-05-01T14:00:39.138Z</time></trkpt><trkpt lat="44.5102667" lon="8.8159191"><ele>851.0</ele><time>2026-05-01T14:00:44.156Z</time></trkpt><trkpt lat="44.5103274" lon="8.8158838"><ele>851.0</ele><time>2026-05-01T14:00:49.142Z</time></trkpt><trkpt lat="44.5103977" lon="8.8158631"><ele>851.0</ele><time>2026-05-01T14:00:55.14Z</time></trkpt><trkpt lat="44.5104683" lon="8.8158477"><ele>852.1428571428571</ele><time>2026-05-01T14:01:01.153Z</time></trkpt><trkpt lat="44.510537" lon="8.8158629"><ele>853.2857142857143</ele><time>2026-05-01T14:01:07.151Z</time></trkpt><trkpt lat="44.5106096" lon="8.8158717"><ele>854.4285714285713</ele><time>2026-05-01T14:01:14.145Z</time></trkpt><trkpt lat="44.510663" lon="8.8159203"><ele>855.5714285714286</ele><time>2026-05-01T14:01:19.154Z</time></trkpt><trkpt lat="44.5107103" lon="8.8159955"><ele>856.7142857142857</ele><time>2026-05-01T14:01:25.145Z</time></trkpt><trkpt lat="44.5107341" lon="8.8160897"><ele>857.8571428571428</ele><time>2026-05-01T14:01:31.165Z</time></trkpt><trkpt lat="44.5107632" lon="8.8161808"><ele>859.0</ele><time>2026-05-01T14:01:37.142Z</time></trkpt><trkpt lat="44.5108037" lon="8.8162592"><ele>859.5714285714286</ele><time>2026-05-01T14:01:43.149Z</time></trkpt><trkpt lat="44.510858" lon="8.8163246"><ele>860.1428571428571</ele><time>2026-05-01T14:01:49.145Z</time></trkpt><trkpt lat="44.510917" lon="8.8163568"><ele>860.7142857142858</ele><time>2026-05-01T14:01:55.156Z</time></trkpt><trkpt lat="44.5109843" lon="8.8163753"><ele>861.2857142857142</ele><time>2026-05-01T14:02:01.156Z</time></trkpt><trkpt lat="44.5110563" lon="8.8163873"><ele>861.8571428571429</ele><time>2026-05-01T14:02:07.096Z</time></trkpt><trkpt lat="44.5111126" lon="8.8164402"><ele>862.4285714285714</ele><time>2026-05-01T14:02:14.145Z</time></trkpt><trkpt lat="44.5111632" lon="8.8165119"><ele>863.0</ele><time>2026-05-01T14:02:20.153Z</time></trkpt><trkpt lat="44.5112188" lon="8.8165554"><ele>863.8571428571429</ele><time>2026-05-01T14:02:25.155Z</time></trkpt><trkpt lat="44.511273" lon="8.8166032"><ele>864.7142857142858</ele><time>2026-05-01T14:02:30.152Z</time></trkpt><trkpt lat="44.5113386" lon="8.8166488"><ele>865.5714285714287</ele><time>2026-05-01T14:02:36.154Z</time></trkpt><trkpt lat="44.5114039" lon="8.8166948"><ele>866.4285714285714</ele><time>2026-05-01T14:02:42.152Z</time></trkpt><trkpt lat="44.511465" lon="8.8167232"><ele>867.2857142857142</ele><time>2026-05-01T14:02:48.113Z</time></trkpt><trkpt lat="44.5115219" lon="8.8167725"><ele>868.1428571428572</ele><time>2026-05-01T14:02:54.142Z</time></trkpt><trkpt lat="44.5115852" lon="8.8167955"><ele>869.0</ele><time>2026-05-01T14:03:00.145Z</time></trkpt><trkpt lat="44.5116484" lon="8.8168529"><ele>867.1428571428572</ele><time>2026-05-01T14:03:07.233Z</time></trkpt><trkpt lat="44.511718" lon="8.8168825"><ele>865.2857142857142</ele><time>2026-05-01T14:03:14.146Z</time></trkpt><trkpt lat="44.5117895" lon="8.8168774"><ele>863.4285714285714</ele><time>2026-05-01T14:03:20.14Z</time></trkpt><trkpt lat="44.5118567" lon="8.8168622"><ele>861.5714285714287</ele><time>2026-05-01T14:03:25.154Z</time></trkpt><trkpt lat="44.5119284" lon="8.8168721"><ele>859.7142857142858</ele><time>2026-05-01T14:03:30.145Z</time></trkpt><trkpt lat="44.5119942" lon="8.8168832"><ele>857.8571428571429</ele><time>2026-05-01T14:03:35.178Z</time></trkpt><trkpt lat="44.5120688" lon="8.8168952"><ele>856.0</ele><time>2026-05-01T14:03:41.153Z</time></trkpt><trkpt lat="44.5121365" lon="8.8168838"><ele>855.8571428571429</ele><time>2026-05-01T14:03:46.062Z</time></trkpt><trkpt lat="44.5121997" lon="8.8168361"><ele>855.7142857142858</ele><time>2026-05-01T14:03:51.145Z</time></trkpt><trkpt lat="44.5122725" lon="8.8168122"><ele>855.5714285714287</ele><time>2026-05-01T14:04:00.102Z</time></trkpt><trkpt lat="44.5123356" lon="8.8167822"><ele>855.4285714285714</ele><time>2026-05-01T14:04:05.155Z</time></trkpt><trkpt lat="44.5123975" lon="8.8167617"><ele>855.2857142857142</ele><time>2026-05-01T14:04:10.148Z</time></trkpt><trkpt lat="44.5124646" lon="8.8167882"><ele>855.1428571428572</ele><time>2026-05-01T14:04:16.146Z</time></trkpt><trkpt lat="44.5125222" lon="8.816828"><ele>855.0</ele><time>2026-05-01T14:04:22.154Z</time></trkpt><trkpt lat="44.5125877" lon="8.8168635"><ele>855.0</ele><time>2026-05-01T14:04:28.143Z</time></trkpt><trkpt lat="44.5126506" lon="8.8169137"><ele>855.0</ele><time>2026-05-01T14:04:35.143Z</time></trkpt><trkpt lat="44.5127156" lon="8.8169575"><ele>855.0</ele><time>2026-05-01T14:04:41.154Z</time></trkpt><trkpt lat="44.5127882" lon="8.8169901"><ele>855.0</ele><time>2026-05-01T14:04:47.146Z</time></trkpt><trkpt lat="44.5128511" lon="8.8170186"><ele>855.0</ele><time>2026-05-01T14:04:53.146Z</time></trkpt><trkpt lat="44.512918" lon="8.8170558"><ele>855.0</ele><time>2026-05-01T14:04:59.145Z</time></trkpt><trkpt lat="44.5129851" lon="8.8170739"><ele>855.0</ele><time>2026-05-01T14:05:05.16Z</time></trkpt><trkpt lat="44.5130497" lon="8.817077"><ele>855.7142857142858</ele><time>2026-05-01T14:05:11.062Z</time></trkpt><trkpt lat="44.5131231" lon="8.8170897"><ele>856.4285714285713</ele><time>2026-05-01T14:05:17.147Z</time></trkpt><trkpt lat="44.5131916" lon="8.8170886"><ele>857.1428571428571</ele><time>2026-05-01T14:05:23.155Z</time></trkpt><trkpt lat="44.5132701" lon="8.8170945"><ele>857.8571428571429</ele><time>2026-05-01T14:05:29.098Z</time></trkpt><trkpt lat="44.5133236" lon="8.8171507"><ele>858.5714285714287</ele><time>2026-05-01T14:05:37.157Z</time></trkpt><trkpt lat="44.51339" lon="8.8171673"><ele>859.2857142857142</ele><time>2026-05-01T14:05:42.165Z</time></trkpt><trkpt lat="44.5134562" lon="8.8171678"><ele>860.0</ele><time>2026-05-01T14:05:48.146Z</time></trkpt><trkpt lat="44.5135288" lon="8.817159"><ele>860.0</ele><time>2026-05-01T14:05:54.147Z</time></trkpt><trkpt lat="44.5135971" lon="8.8171677"><ele>860.0</ele><time>2026-05-01T14:06:00.187Z</time></trkpt><trkpt lat="44.5136705" lon="8.8171807"><ele>860.0</ele><time>2026-05-01T14:06:06.162Z</time></trkpt><trkpt lat="44.5137345" lon="8.8171598"><ele>860.0</ele><time>2026-05-01T14:06:11.142Z</time></trkpt><trkpt lat="44.5137912" lon="8.817113"><ele>860.0</ele><time>2026-05-01T14:06:20.146Z</time></trkpt><trkpt lat="44.5138457" lon="8.8170585"><ele>860.0</ele><time>2026-05-01T14:06:29.325Z</time></trkpt><trkpt lat="44.5138992" lon="8.8170033"><ele>860.0</ele><time>2026-05-01T14:06:37.141Z</time></trkpt><trkpt lat="44.513944" lon="8.8169383"><ele>859.2857142857142</ele><time>2026-05-01T14:06:44.155Z</time></trkpt><trkpt lat="44.5139859" lon="8.8168602"><ele>858.5714285714287</ele><time>2026-05-01T14:06:53.164Z</time></trkpt><trkpt lat="44.5140336" lon="8.8167852"><ele>857.8571428571429</ele><time>2026-05-01T14:07:01.15Z</time></trkpt><trkpt lat="44.5140703" lon="8.8167127"><ele>857.1428571428571</ele><time>2026-05-01T14:07:07.148Z</time></trkpt><trkpt lat="44.5141188" lon="8.8166462"><ele>856.4285714285713</ele><time>2026-05-01T14:07:13.143Z</time></trkpt><trkpt lat="44.5141759" lon="8.8165777"><ele>855.7142857142858</ele><time>2026-05-01T14:07:19.143Z</time></trkpt><trkpt lat="44.5142236" lon="8.8165013"><ele>855.0</ele><time>2026-05-01T14:07:24.146Z</time></trkpt><trkpt lat="44.5142762" lon="8.8164392"><ele>870.0</ele><time>2026-05-01T14:07:32.147Z</time></trkpt><trkpt lat="44.5143464" lon="8.8164083"><ele>870.0</ele><time>2026-05-01T14:07:40.141Z</time></trkpt><trkpt lat="44.5144184" lon="8.8163884"><ele>870.0</ele><time>2026-05-01T14:07:47.141Z</time></trkpt><trkpt lat="44.5144831" lon="8.8163812"><ele>870.0</ele><time>2026-05-01T14:07:56.151Z</time></trkpt><trkpt lat="44.5145499" lon="8.816384"><ele>870.0</ele><time>2026-05-01T14:08:06.153Z</time></trkpt><trkpt lat="44.5146179" lon="8.8163873"><ele>868.0</ele><time>2026-05-01T14:08:12.144Z</time></trkpt><trkpt lat="44.5146863" lon="8.816385"><ele>868.0</ele><time>2026-05-01T14:08:18.15Z</time></trkpt></trkseg></trk></gpx>